Time,TemperatureF,DewpointF,PressureIn,WindDirection,WindDirectionDegrees,WindSpeedMPH,WindSpeedGustMPH,Humidity,HourlyPrecipIn,Conditions,Clouds,dailyrainin,SoftwareType,DateUTC
2013-01-18 00:00:00,14.9,4.2,29.00,ESE,112,7.4,7.6,62,0.00,,---,0.00,VWS V14.01,2013-01-18 06:00:00,
2013-01-18 00:01:00,14.9,4.2,29.00,SE,135,7.6,8.1,62,0.00,,---,0.00,VWS V14.01,2013-01-18 06:01:00,
2013-01-18 00:02:00,14.9,4.2,29.00,SE,135,7.8,8.1,62,0.00,,---,0.00,VWS V14.01,2013-01-18 06:02:00,
2013-01-18 00:03:00,15.1,4.4,29.00,SE,135,5.6,8.1,62,0.00,,---,0.00,VWS V14.01,2013-01-18 06:03:00,
2013-01-18 00:04:00,14.9,4.2,29.00,SE,135,6.5,6.7,62,0.00,,---,0.00,VWS V14.01,2013-01-18 06:04:00,
2013-01-18 00:05:00,14.9,4.2,29.00,SE,135,4.9,6.5,62,0.00,,---,0.00,VWS V14.01,2013-01-18 06:05:00,
2013-01-18 00:06:00,14.9,4.2,29.00,ESE,112,6.5,7.2,62,0.00,,---,0.00,VWS V14.01,2013-01-18 06:06:00,
2013-01-18 00:07:00,14.9,4.2,29.00,ESE,112,6.3,8.1,62,0.00,,---,0.00,VWS V14.01,2013-01-18 06:07:00,
2013-01-18 00:08:00,14.9,4.2,29.00,SE,135,6.5,7.4,62,0.00,,---,0.00,VWS V14.01,2013-01-18 06:08:00,
2013-01-18 00:09:00,15.1,4.4,29.00,SE,135,6.0,6.0,62,0.00,,---,0.00,VWS V14.01,2013-01-18 06:09:00,
2013-01-18 00:10:00,14.9,4.2,29.00,SE,135,7.8,7.8,62,0.00,,---,0.00,VWS V14.01,2013-01-18 06:10:00,
2013-01-18 00:11:00,14.9,4.2,29.00,SE,135,8.1,8.1,62,0.00,,---,0.00,VWS V14.01,2013-01-18 06:11:00,
2013-01-18 00:12:00,15.1,4.4,29.00,SE,135,5.6,8.1,62,0.00,,---,0.00,VWS V14.01,2013-01-18 06:12:00,
2013-01-18 00:13:00,15.1,4.4,29.00,ESE,112,7.6,7.6,62,0.00,,---,0.00,VWS V14.01,2013-01-18 06:13:00,
2013-01-18 00:14:00,15.1,4.4,29.00,ESE,112,7.6,8.1,62,0.00,,---,0.00,VWS V14.01,2013-01-18 06:14:00,
2013-01-18 00:15:00,15.1,4.4,29.00,ESE,112,7.4,7.4,62,0.00,,---,0.00,VWS V14.01,2013-01-18 06:15:00,
2013-01-18 00:16:00,15.1,4.4,29.00,SE,135,5.6,7.6,62,0.00,,---,0.00,VWS V14.01,2013-01-18 06:16:00,
2013-01-18 00:17:00,15.1,4.4,29.00,ESE,112,7.6,7.6,62,0.00,,---,0.00,VWS V14.01,2013-01-18 06:17:00,
2013-01-18 00:18:00,15.1,4.4,29.00,ESE,112,7.8,7.8,62,0.00,,---,0.00,VWS V14.01,2013-01-18 06:18:00,
2013-01-18 00:19:00,15.3,4.6,28.97,SE,135,7.2,7.2,62,0.00,,---,0.00,VWS V14.01,2013-01-18 06:19:00,
2013-01-18 00:20:00,15.1,4.4,29.00,ESE,112,7.2,7.6,62,0.00,,---,0.00,VWS V14.01,2013-01-18 06:20:00,
2013-01-18 00:21:00,15.1,4.4,29.00,ESE,112,8.1,8.7,62,0.00,,---,0.00,VWS V14.01,2013-01-18 06:21:00,
2013-01-18 00:22:00,15.1,4.4,29.00,ESE,112,7.6,8.1,62,0.00,,---,0.00,VWS V14.01,2013-01-18 06:22:00,
2013-01-18 00:23:00,15.1,4.4,29.00,SE,135,6.3,7.6,62,0.00,,---,0.00,VWS V14.01,2013-01-18 06:23:00,
2013-01-18 00:24:00,15.3,4.2,28.97,ESE,112,9.6,9.6,61,0.00,,---,0.00,VWS V14.01,2013-01-18 06:24:00,
2013-01-18 00:25:00,15.3,4.6,29.00,ESE,112,8.5,8.7,62,0.00,,---,0.00,VWS V14.01,2013-01-18 06:25:00,
2013-01-18 00:26:00,15.3,4.6,29.00,SE,135,7.4,8.7,62,0.00,,---,0.00,VWS V14.01,2013-01-18 06:26:00,
2013-01-18 00:27:00,15.3,4.6,28.97,SE,135,7.2,9.8,62,0.00,,---,0.00,VWS V14.01,2013-01-18 06:27:00,
2013-01-18 00:28:00,15.3,4.6,28.97,ESE,112,7.6,7.6,62,0.00,,---,0.00,VWS V14.01,2013-01-18 06:28:00,
2013-01-18 00:29:00,15.3,4.2,28.97,SE,135,10.5,10.5,61,0.00,,---,0.00,VWS V14.01,2013-01-18 06:29:00,
2013-01-18 00:30:00,15.3,4.6,28.97,SE,135,6.5,9.2,62,0.00,,---,0.00,VWS V14.01,2013-01-18 06:30:00,
2013-01-18 00:31:00,15.3,4.2,28.97,ESE,112,10.1,10.1,61,0.00,,---,0.00,VWS V14.01,2013-01-18 06:31:00,
2013-01-18 00:32:00,15.3,4.2,28.97,ESE,112,9.6,10.1,61,0.00,,---,0.00,VWS V14.01,2013-01-18 06:32:00,
2013-01-18 00:33:00,15.3,4.2,28.97,ESE,112,9.2,10.1,61,0.00,,---,0.00,VWS V14.01,2013-01-18 06:33:00,
2013-01-18 00:34:00,15.4,4.4,28.97,ESE,112,10.5,10.5,61,0.00,,---,0.00,VWS V14.01,2013-01-18 06:34:00,
2013-01-18 00:35:00,15.3,4.2,28.97,SE,135,7.4,10.3,61,0.00,,---,0.00,VWS V14.01,2013-01-18 06:35:00,
2013-01-18 00:36:00,15.3,4.2,28.97,SE,135,7.8,10.1,61,0.00,,---,0.00,VWS V14.01,2013-01-18 06:36:00,
2013-01-18 00:37:00,15.3,4.2,28.97,SE,135,10.5,10.5,61,0.00,,---,0.00,VWS V14.01,2013-01-18 06:37:00,
2013-01-18 00:38:00,15.3,4.2,28.97,SE,135,8.7,10.7,61,0.00,,---,0.00,VWS V14.01,2013-01-18 06:38:00,
2013-01-18 00:39:00,15.4,4.4,28.97,SE,135,7.6,7.6,61,0.00,,---,0.00,VWS V14.01,2013-01-18 06:39:00,
2013-01-18 00:40:00,15.4,4.4,28.97,ESE,112,8.7,9.6,61,0.00,,---,0.00,VWS V14.01,2013-01-18 06:40:00,
2013-01-18 00:41:00,15.4,4.4,28.97,SE,135,9.8,10.7,61,0.00,,---,0.00,VWS V14.01,2013-01-18 06:41:00,
2013-01-18 00:42:00,15.4,4.4,28.97,SE,135,13.2,13.2,61,0.00,,---,0.00,VWS V14.01,2013-01-18 06:42:00,
2013-01-18 00:43:00,15.4,4.4,28.97,SE,135,13.2,13.2,61,0.00,,---,0.00,VWS V14.01,2013-01-18 06:43:00,
2013-01-18 00:44:00,15.4,4.4,28.97,SE,135,9.0,9.0,61,0.00,,---,0.00,VWS V14.01,2013-01-18 06:44:00,
2013-01-18 00:45:00,15.4,4.4,28.97,ESE,112,9.8,11.0,61,0.00,,---,0.00,VWS V14.01,2013-01-18 06:45:00,
2013-01-18 00:46:00,15.4,4.4,28.97,SE,135,10.3,12.5,61,0.00,,---,0.00,VWS V14.01,2013-01-18 06:46:00,
2013-01-18 00:47:00,15.4,4.4,28.97,SE,135,7.6,10.3,61,0.00,,---,0.00,VWS V14.01,2013-01-18 06:47:00,
2013-01-18 00:48:00,15.4,4.4,28.97,ESE,112,7.4,9.8,61,0.00,,---,0.00,VWS V14.01,2013-01-18 06:48:00,
2013-01-18 00:49:00,15.6,4.6,28.97,ESE,112,10.5,10.5,61,0.00,,---,0.00,VWS V14.01,2013-01-18 06:49:00,
2013-01-18 00:50:00,15.4,4.4,28.97,ESE,112,6.3,7.4,61,0.00,,---,0.00,VWS V14.01,2013-01-18 06:50:00,
2013-01-18 00:51:00,15.4,4.4,28.97,ESE,112,6.3,6.3,61,0.00,,---,0.00,VWS V14.01,2013-01-18 06:51:00,
2013-01-18 00:52:00,15.4,4.4,28.97,SE,135,9.0,9.0,61,0.00,,---,0.00,VWS V14.01,2013-01-18 06:52:00,
2013-01-18 00:53:00,15.4,4.4,28.97,SE,135,8.5,9.4,61,0.00,,---,0.00,VWS V14.01,2013-01-18 06:53:00,
2013-01-18 00:54:00,15.8,4.8,28.97,ESE,112,10.1,10.1,61,0.00,,---,0.00,VWS V14.01,2013-01-18 06:54:00,
2013-01-18 00:55:00,15.6,4.6,28.97,ESE,112,8.1,11.2,61,0.00,,---,0.00,VWS V14.01,2013-01-18 06:55:00,
2013-01-18 00:56:00,15.6,4.6,28.97,SE,135,10.7,10.7,61,0.00,,---,0.00,VWS V14.01,2013-01-18 06:56:00,
2013-01-18 00:57:00,15.6,4.6,28.97,ESE,112,10.3,11.0,61,0.00,,---,0.00,VWS V14.01,2013-01-18 06:57:00,
2013-01-18 00:58:00,15.6,4.6,28.97,ESE,112,10.5,12.5,61,0.00,,---,0.00,VWS V14.01,2013-01-18 06:58:00,
2013-01-18 00:59:00,15.8,4.8,28.97,SE,135,10.5,11.2,61,0.00,,---,0.00,VWS V14.01,2013-01-18 06:59:00,
2013-01-18 01:00:00,15.6,4.6,28.97,SE,135,8.1,10.3,61,0.00,,---,0.00,VWS V14.01,2013-01-18 07:00:00,
2013-01-18 01:01:00,15.6,4.6,28.97,SE,135,10.3,10.3,61,0.00,,---,0.00,VWS V14.01,2013-01-18 07:01:00,
2013-01-18 01:02:00,15.6,4.6,28.97,SE,135,8.7,10.7,61,0.00,,---,0.00,VWS V14.01,2013-01-18 07:02:00,
2013-01-18 01:03:00,15.8,4.8,28.97,SE,135,11.0,11.0,61,0.00,,---,0.00,VWS V14.01,2013-01-18 07:03:00,
2013-01-18 01:04:00,15.8,4.8,28.91,SE,135,8.5,8.5,61,0.00,,---,0.00,VWS V14.01,2013-01-18 07:04:00,
2013-01-18 01:05:00,15.8,4.8,28.97,SE,135,12.3,12.8,61,0.00,,---,0.00,VWS V14.01,2013-01-18 07:05:00,
2013-01-18 01:06:00,15.8,4.8,28.97,SE,135,13.0,13.0,61,0.00,,---,0.00,VWS V14.01,2013-01-18 07:06:00,
2013-01-18 01:07:00,15.8,4.8,28.97,SE,135,11.2,13.0,61,0.00,,---,0.00,VWS V14.01,2013-01-18 07:07:00,
2013-01-18 01:08:00,15.8,4.8,28.97,SE,135,8.7,11.2,61,0.00,,---,0.00,VWS V14.01,2013-01-18 07:08:00,
2013-01-18 01:09:00,16.0,4.9,28.91,SE,135,13.2,14.8,61,0.00,,---,0.00,VWS V14.01,2013-01-18 07:09:00,
2013-01-18 01:10:00,15.8,4.8,28.97,ESE,112,10.5,10.5,61,0.00,,---,0.00,VWS V14.01,2013-01-18 07:10:00,
2013-01-18 01:11:00,15.8,4.8,28.97,SE,135,8.7,10.5,61,0.00,,---,0.00,VWS V14.01,2013-01-18 07:11:00,
2013-01-18 01:12:00,15.8,4.8,28.91,SE,135,8.5,10.1,61,0.00,,---,0.00,VWS V14.01,2013-01-18 07:12:00,
2013-01-18 01:13:00,15.8,4.8,28.91,SE,135,13.0,13.0,61,0.00,,---,0.00,VWS V14.01,2013-01-18 07:13:00,
2013-01-18 01:14:00,16.2,5.1,28.91,SE,135,10.3,10.3,61,0.00,,---,0.00,VWS V14.01,2013-01-18 07:14:00,
2013-01-18 01:15:00,16.0,4.9,28.91,SE,135,9.2,10.1,61,0.00,,---,0.00,VWS V14.01,2013-01-18 07:15:00,
2013-01-18 01:16:00,16.0,4.9,28.91,SE,135,13.2,14.1,61,0.00,,---,0.00,VWS V14.01,2013-01-18 07:16:00,
2013-01-18 01:17:00,16.0,4.9,28.91,ESE,112,14.8,14.8,61,0.00,,---,0.00,VWS V14.01,2013-01-18 07:17:00,
2013-01-18 01:18:00,16.0,4.9,28.91,SE,135,9.0,14.8,61,0.00,,---,0.00,VWS V14.01,2013-01-18 07:18:00,
2013-01-18 01:19:00,16.2,5.1,28.88,SE,135,7.8,9.8,61,0.00,,---,0.00,VWS V14.01,2013-01-18 07:19:00,
2013-01-18 01:20:00,16.0,4.6,28.91,ESE,112,13.2,13.2,60,0.00,,---,0.00,VWS V14.01,2013-01-18 07:20:00,
2013-01-18 01:21:00,16.0,4.6,28.91,SE,135,10.5,13.2,60,0.00,,---,0.00,VWS V14.01,2013-01-18 07:21:00,
2013-01-18 01:22:00,16.2,5.1,28.91,SE,135,10.3,11.0,61,0.00,,---,0.00,VWS V14.01,2013-01-18 07:22:00,
2013-01-18 01:23:00,16.2,5.1,28.91,SE,135,13.2,15.2,61,0.00,,---,0.00,VWS V14.01,2013-01-18 07:23:00,
2013-01-18 01:24:00,16.5,5.4,28.88,SE,135,13.2,13.2,61,0.00,,---,0.00,VWS V14.01,2013-01-18 07:24:00,
2013-01-18 01:25:00,16.2,5.1,28.91,SE,135,13.0,13.0,61,0.00,,---,0.00,VWS V14.01,2013-01-18 07:25:00,
2013-01-18 01:26:00,16.2,5.1,28.91,SE,135,9.4,13.0,61,0.00,,---,0.00,VWS V14.01,2013-01-18 07:26:00,
2013-01-18 01:27:00,16.2,5.1,28.88,SE,135,9.8,11.0,61,0.00,,---,0.00,VWS V14.01,2013-01-18 07:27:00,
2013-01-18 01:28:00,16.2,5.1,28.88,SE,135,7.6,10.3,61,0.00,,---,0.00,VWS V14.01,2013-01-18 07:28:00,
2013-01-18 01:29:00,16.5,5.1,28.88,SE,135,10.5,13.0,60,0.00,,---,0.00,VWS V14.01,2013-01-18 07:29:00,
2013-01-18 01:30:00,16.3,5.3,28.88,SE,135,11.0,12.8,61,0.00,,---,0.00,VWS V14.01,2013-01-18 07:30:00,
2013-01-18 01:31:00,16.3,5.3,28.88,SE,135,11.4,12.5,61,0.00,,---,0.00,VWS V14.01,2013-01-18 07:31:00,
2013-01-18 01:32:00,16.3,5.3,28.88,SE,135,8.5,13.2,61,0.00,,---,0.00,VWS V14.01,2013-01-18 07:32:00,
2013-01-18 01:33:00,16.5,5.1,28.88,SE,135,9.8,13.2,60,0.00,,---,0.00,VWS V14.01,2013-01-18 07:33:00,
2013-01-18 01:34:00,16.7,5.2,28.91,SE,135,10.7,15.9,60,0.00,,---,0.00,VWS V14.01,2013-01-18 07:34:00,
2013-01-18 01:35:00,16.5,5.1,28.88,SE,135,10.1,16.8,60,0.00,,---,0.00,VWS V14.01,2013-01-18 07:35:00,
2013-01-18 01:36:00,16.5,5.1,28.88,ESE,112,12.5,12.5,60,0.00,,---,0.00,VWS V14.01,2013-01-18 07:36:00,
2013-01-18 01:37:00,16.5,5.1,28.88,SE,135,13.0,13.0,60,0.00,,---,0.00,VWS V14.01,2013-01-18 07:37:00,
2013-01-18 01:38:00,16.5,5.1,28.88,SE,135,10.5,13.0,60,0.00,,---,0.00,VWS V14.01,2013-01-18 07:38:00,
2013-01-18 01:39:00,16.9,5.0,28.91,SE,135,9.8,9.8,59,0.00,,---,0.00,VWS V14.01,2013-01-18 07:39:00,
2013-01-18 01:40:00,16.7,5.2,28.88,SE,135,11.0,16.1,60,0.00,,---,0.00,VWS V14.01,2013-01-18 07:40:00,
2013-01-18 01:41:00,16.7,4.9,28.88,SE,135,9.8,15.2,59,0.00,,---,0.00,VWS V14.01,2013-01-18 07:41:00,
2013-01-18 01:43:00,16.7,5.2,28.91,SE,135,10.7,15.9,60,0.00,,---,0.00,VWS V14.01,2013-01-18 07:43:00,
2013-01-18 01:44:00,17.1,5.2,28.91,SE,135,9.8,12.8,59,0.00,,---,0.00,VWS V14.01,2013-01-18 07:44:00,
2013-01-18 01:45:00,16.7,5.2,28.91,SE,135,7.8,10.1,60,0.00,,---,0.00,VWS V14.01,2013-01-18 07:45:00,
2013-01-18 01:46:00,16.9,5.1,28.91,SE,135,7.4,8.1,59,0.00,,---,0.00,VWS V14.01,2013-01-18 07:46:00,
2013-01-18 01:47:00,16.9,5.1,28.91,SE,135,9.8,12.1,59,0.00,,---,0.00,VWS V14.01,2013-01-18 07:47:00,
2013-01-18 01:48:00,16.9,5.1,28.91,SE,135,7.6,9.8,59,0.00,,---,0.00,VWS V14.01,2013-01-18 07:48:00,
2013-01-18 01:49:00,17.1,5.2,28.91,SE,135,15.2,16.6,59,0.00,,---,0.00,VWS V14.01,2013-01-18 07:49:00,
2013-01-18 01:50:00,16.9,5.1,28.91,SE,135,7.6,11.0,59,0.00,,---,0.00,VWS V14.01,2013-01-18 07:50:00,
2013-01-18 01:51:00,16.9,5.1,28.91,ESE,112,11.0,12.3,59,0.00,,---,0.00,VWS V14.01,2013-01-18 07:51:00,
2013-01-18 01:52:00,16.9,5.1,28.91,ESE,112,12.8,13.9,59,0.00,,---,0.00,VWS V14.01,2013-01-18 07:52:00,
2013-01-18 01:53:00,17.1,5.2,28.91,ESE,112,13.0,13.0,59,0.00,,---,0.00,VWS V14.01,2013-01-18 07:53:00,
2013-01-18 01:54:00,17.2,5.0,28.91,SE,135,13.2,13.2,58,0.00,,---,0.00,VWS V14.01,2013-01-18 07:54:00,
2013-01-18 01:55:00,17.1,5.2,28.91,SE,135,12.5,15.4,59,0.00,,---,0.00,VWS V14.01,2013-01-18 07:55:00,
2013-01-18 01:57:00,17.1,5.2,28.91,ESE,112,16.6,16.6,59,0.00,,---,0.00,VWS V14.01,2013-01-18 07:57:00,
2013-01-18 01:58:00,17.1,4.8,28.91,ESE,112,10.7,16.6,58,0.00,,---,0.00,VWS V14.01,2013-01-18 07:58:00,
2013-01-18 01:59:00,17.4,5.6,28.91,ESE,112,13.0,13.0,59,0.00,,---,0.00,VWS V14.01,2013-01-18 07:59:00,
2013-01-18 02:00:00,17.1,4.8,28.91,SE,135,10.5,15.2,58,0.00,,---,0.00,VWS V14.01,2013-01-18 08:00:00,
2013-01-18 02:01:00,17.1,4.8,28.91,SE,135,10.5,17.5,58,0.00,,---,0.00,VWS V14.01,2013-01-18 08:01:00,
2013-01-18 02:02:00,17.1,4.8,28.91,ESE,112,10.7,12.5,58,0.00,,---,0.00,VWS V14.01,2013-01-18 08:02:00,
2013-01-18 02:03:00,17.2,5.0,28.91,SE,135,12.3,13.2,58,0.00,,---,0.00,VWS V14.01,2013-01-18 08:03:00,
2013-01-18 02:04:00,17.4,5.2,28.88,SE,135,10.7,13.0,58,0.00,,---,0.00,VWS V14.01,2013-01-18 08:04:00,
2013-01-18 02:05:00,17.4,5.6,28.91,ESE,112,13.4,14.8,59,0.00,,---,0.00,VWS V14.01,2013-01-18 08:05:00,
2013-01-18 02:06:00,17.4,5.6,28.91,ESE,112,10.3,13.4,59,0.00,,---,0.00,VWS V14.01,2013-01-18 08:06:00,
2013-01-18 02:07:00,17.4,5.6,28.91,SE,135,12.5,12.5,59,0.00,,---,0.00,VWS V14.01,2013-01-18 08:07:00,
2013-01-18 02:08:00,17.4,5.6,28.91,SE,135,11.0,13.2,59,0.00,,---,0.00,VWS V14.01,2013-01-18 08:08:00,
2013-01-18 02:09:00,17.4,5.2,28.88,ESE,112,13.2,13.2,58,0.00,,---,0.00,VWS V14.01,2013-01-18 08:09:00,
2013-01-18 02:10:00,17.4,5.2,28.91,ESE,112,12.8,13.2,58,0.00,,---,0.00,VWS V14.01,2013-01-18 08:10:00,
2013-01-18 02:11:00,17.4,5.2,28.91,SE,135,15.2,15.2,58,0.00,,---,0.00,VWS V14.01,2013-01-18 08:11:00,
2013-01-18 02:12:00,17.4,5.2,28.88,ESE,112,13.0,15.2,58,0.00,,---,0.00,VWS V14.01,2013-01-18 08:12:00,
2013-01-18 02:13:00,17.4,5.2,28.88,SE,135,9.8,13.0,58,0.00,,---,0.00,VWS V14.01,2013-01-18 08:13:00,
2013-01-18 02:14:00,17.6,5.3,28.88,ESE,112,8.1,8.1,58,0.00,,---,0.00,VWS V14.01,2013-01-18 08:14:00,
2013-01-18 02:15:00,17.4,5.2,28.88,ESE,112,15.2,16.8,58,0.00,,---,0.00,VWS V14.01,2013-01-18 08:15:00,
2013-01-18 02:16:00,17.4,5.2,28.88,ESE,112,15.2,15.2,58,0.00,,---,0.00,VWS V14.01,2013-01-18 08:16:00,
2013-01-18 02:17:00,17.4,5.2,28.88,SE,135,11.0,15.2,58,0.00,,---,0.00,VWS V14.01,2013-01-18 08:17:00,
2013-01-18 02:18:00,17.4,5.2,28.88,SE,135,10.7,13.2,58,0.00,,---,0.00,VWS V14.01,2013-01-18 08:18:00,
2013-01-18 02:19:00,17.6,5.7,28.88,East,90,7.6,7.6,59,0.00,,---,0.00,VWS V14.01,2013-01-18 08:19:00,
2013-01-18 02:20:00,17.6,5.3,28.88,SE,135,13.0,15.4,58,0.00,,---,0.00,VWS V14.01,2013-01-18 08:20:00,
2013-01-18 02:21:00,17.6,5.3,28.88,SE,135,12.8,13.0,58,0.00,,---,0.00,VWS V14.01,2013-01-18 08:21:00,
2013-01-18 02:22:00,17.6,5.3,28.88,SE,135,7.8,12.8,58,0.00,,---,0.00,VWS V14.01,2013-01-18 08:22:00,
2013-01-18 02:23:00,17.6,5.3,28.88,ESE,112,8.1,8.1,58,0.00,,---,0.00,VWS V14.01,2013-01-18 08:23:00,
2013-01-18 02:24:00,17.6,5.7,28.88,ESE,112,12.8,12.8,59,0.00,,---,0.00,VWS V14.01,2013-01-18 08:24:00,
2013-01-18 02:25:00,17.6,5.7,28.88,ESE,112,6.3,9.8,59,0.00,,---,0.00,VWS V14.01,2013-01-18 08:25:00,
2013-01-18 02:26:00,17.6,5.7,28.88,ESE,112,7.4,8.1,59,0.00,,---,0.00,VWS V14.01,2013-01-18 08:26:00,
2013-01-18 02:27:00,17.6,5.7,28.88,ESE,112,6.3,7.8,59,0.00,,---,0.00,VWS V14.01,2013-01-18 08:27:00,
2013-01-18 02:28:00,17.6,5.7,28.88,East,90,7.6,7.6,59,0.00,,---,0.00,VWS V14.01,2013-01-18 08:28:00,
2013-01-18 02:29:00,17.8,5.5,28.88,ESE,112,10.3,10.3,58,0.00,,---,0.00,VWS V14.01,2013-01-18 08:29:00,
2013-01-18 02:30:00,17.6,5.7,28.88,ESE,112,8.7,11.0,59,0.00,,---,0.00,VWS V14.01,2013-01-18 08:30:00,
2013-01-18 02:31:00,17.6,5.7,28.88,SE,135,11.0,12.5,59,0.00,,---,0.00,VWS V14.01,2013-01-18 08:31:00,
2013-01-18 02:32:00,17.6,5.7,28.88,ESE,112,11.0,11.0,59,0.00,,---,0.00,VWS V14.01,2013-01-18 08:32:00,
2013-01-18 02:33:00,17.6,5.7,28.88,ESE,112,12.8,12.8,59,0.00,,---,0.00,VWS V14.01,2013-01-18 08:33:00,
2013-01-18 02:34:00,17.8,5.5,28.88,ESE,112,10.1,10.3,58,0.00,,---,0.00,VWS V14.01,2013-01-18 08:34:00,
2013-01-18 02:35:00,17.8,5.5,28.88,ESE,112,10.1,10.7,58,0.00,,---,0.00,VWS V14.01,2013-01-18 08:35:00,
2013-01-18 02:36:00,17.8,5.5,28.88,ESE,112,10.3,12.5,58,0.00,,---,0.00,VWS V14.01,2013-01-18 08:36:00,
2013-01-18 02:37:00,17.8,5.5,28.88,ESE,112,9.8,11.0,58,0.00,,---,0.00,VWS V14.01,2013-01-18 08:37:00,
2013-01-18 02:38:00,17.8,5.5,28.88,ESE,112,11.9,11.9,58,0.00,,---,0.00,VWS V14.01,2013-01-18 08:38:00,
2013-01-18 02:39:00,17.8,5.5,28.88,ESE,112,10.7,10.7,58,0.00,,---,0.00,VWS V14.01,2013-01-18 08:39:00,
2013-01-18 02:40:00,17.8,5.5,28.88,SE,135,12.8,15.4,58,0.00,,---,0.00,VWS V14.01,2013-01-18 08:40:00,
2013-01-18 02:41:00,17.8,5.5,28.88,ESE,112,9.8,14.3,58,0.00,,---,0.00,VWS V14.01,2013-01-18 08:41:00,
2013-01-18 02:42:00,17.8,5.5,28.88,ESE,112,10.3,14.8,58,0.00,,---,0.00,VWS V14.01,2013-01-18 08:42:00,
2013-01-18 02:43:00,17.8,5.5,28.88,ESE,112,9.2,10.3,58,0.00,,---,0.00,VWS V14.01,2013-01-18 08:43:00,
2013-01-18 02:44:00,18.0,5.7,28.88,SE,135,7.8,12.5,58,0.00,,---,0.00,VWS V14.01,2013-01-18 08:44:00,
2013-01-18 02:45:00,17.8,5.5,28.88,ESE,112,10.1,12.5,58,0.00,,---,0.00,VWS V14.01,2013-01-18 08:45:00,
2013-01-18 02:46:00,17.8,5.5,28.88,ESE,112,12.3,12.3,58,0.00,,---,0.00,VWS V14.01,2013-01-18 08:46:00,
2013-01-18 02:47:00,17.8,5.5,28.88,SE,135,10.1,13.6,58,0.00,,---,0.00,VWS V14.01,2013-01-18 08:47:00,
2013-01-18 02:48:00,17.8,5.5,28.88,ESE,112,12.5,12.5,58,0.00,,---,0.00,VWS V14.01,2013-01-18 08:48:00,
2013-01-18 02:49:00,18.1,6.2,28.88,SE,135,7.6,12.1,59,0.00,,---,0.00,VWS V14.01,2013-01-18 08:49:00,
2013-01-18 02:50:00,18.0,5.7,28.88,SE,135,8.5,13.0,58,0.00,,---,0.00,VWS V14.01,2013-01-18 08:50:00,
2013-01-18 02:51:00,18.0,5.7,28.88,ESE,112,12.5,12.5,58,0.00,,---,0.00,VWS V14.01,2013-01-18 08:51:00,
2013-01-18 02:52:00,18.0,5.7,28.88,ESE,112,11.0,12.5,58,0.00,,---,0.00,VWS V14.01,2013-01-18 08:52:00,
2013-01-18 02:53:00,18.0,5.7,28.88,ESE,112,11.0,11.0,58,0.00,,---,0.00,VWS V14.01,2013-01-18 08:53:00,
2013-01-18 02:54:00,18.1,6.2,28.88,SE,135,13.4,16.6,59,0.00,,---,0.00,VWS V14.01,2013-01-18 08:54:00,
2013-01-18 02:55:00,18.0,5.7,28.88,ESE,112,13.2,13.6,58,0.00,,---,0.00,VWS V14.01,2013-01-18 08:55:00,
2013-01-18 02:56:00,18.1,6.2,28.88,SE,135,11.0,13.2,59,0.00,,---,0.00,VWS V14.01,2013-01-18 08:56:00,
2013-01-18 02:57:00,18.1,6.2,28.88,SE,135,11.0,14.8,59,0.00,,---,0.00,VWS V14.01,2013-01-18 08:57:00,
2013-01-18 02:58:00,18.1,6.2,28.88,SE,135,8.7,12.1,59,0.00,,---,0.00,VWS V14.01,2013-01-18 08:58:00,
2013-01-18 02:59:00,18.3,6.4,28.88,SE,135,10.5,12.1,59,0.00,,---,0.00,VWS V14.01,2013-01-18 08:59:00,
2013-01-18 03:00:00,18.1,6.2,28.88,ESE,112,14.5,14.5,59,0.00,,---,0.00,VWS V14.01,2013-01-18 09:00:00,
2013-01-18 03:01:00,18.1,6.2,28.88,SE,135,15.2,16.3,59,0.00,,---,0.00,VWS V14.01,2013-01-18 09:01:00,
2013-01-18 03:02:00,18.1,6.2,28.88,SE,135,16.6,16.6,59,0.00,,---,0.00,VWS V14.01,2013-01-18 09:02:00,
2013-01-18 03:03:00,18.3,6.4,28.88,SE,135,15.7,16.6,59,0.00,,---,0.00,VWS V14.01,2013-01-18 09:03:00,
2013-01-18 03:04:00,18.5,6.6,28.85,SE,135,12.5,15.2,59,0.00,,---,0.00,VWS V14.01,2013-01-18 09:04:00,
2013-01-18 03:05:00,18.3,6.4,28.88,SE,135,12.8,14.5,59,0.00,,---,0.00,VWS V14.01,2013-01-18 09:05:00,
2013-01-18 03:07:00,18.3,6.4,28.88,ESE,112,11.0,12.8,59,0.00,,---,0.00,VWS V14.01,2013-01-18 09:07:00,
2013-01-18 03:08:00,18.3,6.4,28.88,ESE,112,15.2,15.2,59,0.00,,---,0.00,VWS V14.01,2013-01-18 09:08:00,
2013-01-18 03:09:00,18.5,6.6,28.85,SE,135,12.3,12.3,59,0.00,,---,0.00,VWS V14.01,2013-01-18 09:09:00,
2013-01-18 03:10:00,18.3,6.4,28.88,ESE,112,15.2,15.2,59,0.00,,---,0.00,VWS V14.01,2013-01-18 09:10:00,
2013-01-18 03:11:00,18.3,6.4,28.88,ESE,112,15.2,15.2,59,0.00,,---,0.00,VWS V14.01,2013-01-18 09:11:00,
2013-01-18 03:12:00,18.3,6.4,28.88,ESE,112,15.2,15.2,59,0.00,,---,0.00,VWS V14.01,2013-01-18 09:12:00,
2013-01-18 03:13:00,18.5,6.6,28.85,SE,135,12.5,15.2,59,0.00,,---,0.00,VWS V14.01,2013-01-18 09:13:00,
2013-01-18 03:14:00,18.7,7.1,28.85,SE,135,8.7,10.3,60,0.00,,---,0.00,VWS V14.01,2013-01-18 09:14:00,
2013-01-18 03:15:00,18.5,6.6,28.85,SE,135,13.2,15.4,59,0.00,,---,0.00,VWS V14.01,2013-01-18 09:15:00,
2013-01-18 03:16:00,18.5,6.6,28.85,SE,135,8.7,13.2,59,0.00,,---,0.00,VWS V14.01,2013-01-18 09:16:00,
2013-01-18 03:17:00,18.5,6.6,28.85,ESE,112,10.3,10.3,59,0.00,,---,0.00,VWS V14.01,2013-01-18 09:17:00,
2013-01-18 03:18:00,18.5,6.6,28.85,SE,135,14.8,14.8,59,0.00,,---,0.00,VWS V14.01,2013-01-18 09:18:00,
2013-01-18 03:19:00,18.7,7.5,28.82,ESE,112,8.7,10.1,61,0.00,,---,0.00,VWS V14.01,2013-01-18 09:19:00,
2013-01-18 03:20:00,18.5,6.9,28.85,ESE,112,14.8,15.4,60,0.00,,---,0.00,VWS V14.01,2013-01-18 09:20:00,
2013-01-18 03:21:00,18.7,7.1,28.85,SE,135,13.6,14.8,60,0.00,,---,0.00,VWS V14.01,2013-01-18 09:21:00,
2013-01-18 03:22:00,18.7,7.1,28.85,ESE,112,10.1,13.6,60,0.00,,---,0.00,VWS V14.01,2013-01-18 09:22:00,
2013-01-18 03:23:00,18.7,7.1,28.85,SE,135,12.3,12.3,60,0.00,,---,0.00,VWS V14.01,2013-01-18 09:23:00,
2013-01-18 03:24:00,18.9,7.7,28.82,SE,135,10.7,13.2,61,0.00,,---,0.00,VWS V14.01,2013-01-18 09:24:00,
2013-01-18 03:25:00,18.7,7.1,28.85,ESE,112,12.5,14.3,60,0.00,,---,0.00,VWS V14.01,2013-01-18 09:25:00,
2013-01-18 03:26:00,18.7,7.1,28.85,SE,135,7.6,12.5,60,0.00,,---,0.00,VWS V14.01,2013-01-18 09:26:00,
2013-01-18 03:27:00,18.7,7.1,28.82,SE,135,10.1,10.1,60,0.00,,---,0.00,VWS V14.01,2013-01-18 09:27:00,
2013-01-18 03:28:00,18.7,7.5,28.82,ESE,112,13.0,13.0,61,0.00,,---,0.00,VWS V14.01,2013-01-18 09:28:00,
2013-01-18 03:29:00,19.0,7.8,28.82,ESE,112,9.8,12.3,61,0.00,,---,0.00,VWS V14.01,2013-01-18 09:29:00,
2013-01-18 03:30:00,18.9,7.7,28.82,ESE,112,11.9,12.1,61,0.00,,---,0.00,VWS V14.01,2013-01-18 09:30:00,
2013-01-18 03:31:00,18.9,7.7,28.82,ESE,112,12.8,13.2,61,0.00,,---,0.00,VWS V14.01,2013-01-18 09:31:00,
2013-01-18 03:32:00,18.9,7.7,28.82,ESE,112,13.2,13.4,61,0.00,,---,0.00,VWS V14.01,2013-01-18 09:32:00,
2013-01-18 03:33:00,18.9,7.7,28.82,SE,135,10.7,13.2,61,0.00,,---,0.00,VWS V14.01,2013-01-18 09:33:00,
2013-01-18 03:34:00,19.2,8.4,28.85,SE,135,12.1,15.2,62,0.00,,---,0.00,VWS V14.01,2013-01-18 09:34:00,
2013-01-18 03:35:00,19.0,7.8,28.82,ESE,112,10.5,10.5,61,0.00,,---,0.00,VWS V14.01,2013-01-18 09:35:00,
2013-01-18 03:36:00,19.0,7.8,28.82,SE,135,7.6,12.5,61,0.00,,---,0.00,VWS V14.01,2013-01-18 09:36:00,
2013-01-18 03:37:00,19.0,7.8,28.82,SE,135,8.7,8.7,61,0.00,,---,0.00,VWS V14.01,2013-01-18 09:37:00,
2013-01-18 03:38:00,19.0,7.8,28.82,SE,135,9.6,12.3,61,0.00,,---,0.00,VWS V14.01,2013-01-18 09:38:00,
2013-01-18 03:39:00,19.2,8.7,28.85,SE,135,13.0,13.0,63,0.00,,---,0.00,VWS V14.01,2013-01-18 09:39:00,
2013-01-18 03:40:00,19.0,8.2,28.82,SE,135,11.0,12.1,62,0.00,,---,0.00,VWS V14.01,2013-01-18 09:40:00,
2013-01-18 03:41:00,19.2,8.4,28.82,ESE,112,9.6,11.0,62,0.00,,---,0.00,VWS V14.01,2013-01-18 09:41:00,
2013-01-18 03:42:00,19.2,8.4,28.85,ESE,112,11.0,13.0,62,0.00,,---,0.00,VWS V14.01,2013-01-18 09:42:00,
2013-01-18 03:43:00,19.2,8.4,28.85,SE,135,12.3,15.2,62,0.00,,---,0.00,VWS V14.01,2013-01-18 09:43:00,
2013-01-18 03:44:00,19.4,9.2,28.85,SE,135,14.3,15.4,64,0.00,,---,0.00,VWS V14.01,2013-01-18 09:44:00,
2013-01-18 03:45:00,19.2,8.7,28.85,SE,135,11.0,12.3,63,0.00,,---,0.00,VWS V14.01,2013-01-18 09:45:00,
2013-01-18 03:46:00,19.2,8.7,28.85,ESE,112,8.7,11.0,63,0.00,,---,0.00,VWS V14.01,2013-01-18 09:46:00,
2013-01-18 03:47:00,19.2,8.7,28.85,SE,135,12.8,13.0,63,0.00,,---,0.00,VWS V14.01,2013-01-18 09:47:00,
2013-01-18 03:48:00,19.2,8.7,28.85,ESE,112,12.8,13.0,63,0.00,,---,0.00,VWS V14.01,2013-01-18 09:48:00,
2013-01-18 03:49:00,19.4,9.2,28.85,SE,135,12.8,15.2,64,0.00,,---,0.00,VWS V14.01,2013-01-18 09:49:00,
2013-01-18 03:50:00,19.2,8.7,28.85,SE,135,11.4,13.6,63,0.00,,---,0.00,VWS V14.01,2013-01-18 09:50:00,
2013-01-18 03:51:00,19.4,8.9,28.85,SSE,158,10.5,12.1,63,0.00,,---,0.00,VWS V14.01,2013-01-18 09:51:00,
2013-01-18 03:52:00,19.4,8.9,28.85,ESE,112,15.4,15.4,63,0.00,,---,0.00,VWS V14.01,2013-01-18 09:52:00,
2013-01-18 03:53:00,19.4,9.2,28.85,SE,135,11.4,15.4,64,0.00,,---,0.00,VWS V14.01,2013-01-18 09:53:00,
2013-01-18 03:54:00,19.6,9.4,28.85,ESE,112,14.8,14.8,64,0.00,,---,0.00,VWS V14.01,2013-01-18 09:54:00,
2013-01-18 03:55:00,19.4,9.2,28.85,ESE,112,12.1,13.0,64,0.00,,---,0.00,VWS V14.01,2013-01-18 09:55:00,
2013-01-18 03:56:00,19.4,9.2,28.85,SE,135,12.3,12.5,64,0.00,,---,0.00,VWS V14.01,2013-01-18 09:56:00,
2013-01-18 03:57:00,19.4,9.2,28.85,SE,135,14.8,14.8,64,0.00,,---,0.00,VWS V14.01,2013-01-18 09:57:00,
2013-01-18 03:58:00,19.4,9.2,28.85,SE,135,11.0,15.2,64,0.00,,---,0.00,VWS V14.01,2013-01-18 09:58:00,
2013-01-18 03:59:00,19.6,9.7,28.85,SE,135,16.1,16.1,65,0.00,,---,0.00,VWS V14.01,2013-01-18 09:59:00,
2013-01-18 04:00:00,19.4,9.2,28.85,SE,135,13.2,15.4,64,0.00,,---,0.00,VWS V14.01,2013-01-18 10:00:00,
2013-01-18 04:01:00,19.6,9.4,28.85,SE,135,13.0,13.2,64,0.00,,---,0.00,VWS V14.01,2013-01-18 10:01:00,
2013-01-18 04:02:00,19.6,9.4,28.85,SE,135,11.9,13.0,64,0.00,,---,0.00,VWS V14.01,2013-01-18 10:02:00,
2013-01-18 04:03:00,19.6,9.4,28.85,ESE,112,14.8,14.8,64,0.00,,---,0.00,VWS V14.01,2013-01-18 10:03:00,
2013-01-18 04:04:00,19.6,9.7,28.82,SE,135,10.3,12.3,65,0.00,,---,0.00,VWS V14.01,2013-01-18 10:04:00,
2013-01-18 04:05:00,19.6,9.4,28.85,SE,135,13.2,15.2,64,0.00,,---,0.00,VWS V14.01,2013-01-18 10:05:00,
2013-01-18 04:06:00,19.6,9.7,28.85,SE,135,13.0,14.8,65,0.00,,---,0.00,VWS V14.01,2013-01-18 10:06:00,
2013-01-18 04:07:00,19.6,9.7,28.85,SE,135,13.2,13.2,65,0.00,,---,0.00,VWS V14.01,2013-01-18 10:07:00,
2013-01-18 04:08:00,19.6,9.7,28.85,SE,135,12.1,16.1,65,0.00,,---,0.00,VWS V14.01,2013-01-18 10:08:00,
2013-01-18 04:09:00,19.8,9.9,28.82,ESE,112,10.5,15.2,65,0.00,,---,0.00,VWS V14.01,2013-01-18 10:09:00,
2013-01-18 04:10:00,19.6,9.7,28.85,SE,135,10.1,15.2,65,0.00,,---,0.00,VWS V14.01,2013-01-18 10:10:00,
2013-01-18 04:11:00,19.6,9.7,28.85,SE,135,7.8,10.5,65,0.00,,---,0.00,VWS V14.01,2013-01-18 10:11:00,
2013-01-18 04:12:00,19.6,9.7,28.82,SE,135,11.0,13.2,65,0.00,,---,0.00,VWS V14.01,2013-01-18 10:12:00,
2013-01-18 04:13:00,19.6,9.7,28.82,SE,135,10.3,12.3,65,0.00,,---,0.00,VWS V14.01,2013-01-18 10:13:00,
2013-01-18 04:14:00,19.9,10.4,28.82,SE,135,9.8,11.0,66,0.00,,---,0.00,VWS V14.01,2013-01-18 10:14:00,
2013-01-18 04:15:00,19.8,9.9,28.82,SE,135,13.0,13.0,65,0.00,,---,0.00,VWS V14.01,2013-01-18 10:15:00,
2013-01-18 04:16:00,19.8,9.9,28.82,SE,135,9.8,13.0,65,0.00,,---,0.00,VWS V14.01,2013-01-18 10:16:00,
2013-01-18 04:17:00,19.8,9.9,28.82,SE,135,15.2,15.2,65,0.00,,---,0.00,VWS V14.01,2013-01-18 10:17:00,
2013-01-18 04:18:00,19.8,9.9,28.82,SE,135,9.6,15.2,65,0.00,,---,0.00,VWS V14.01,2013-01-18 10:18:00,
2013-01-18 04:19:00,20.1,11.3,28.79,SSE,158,12.3,16.1,68,0.00,,---,0.00,VWS V14.01,2013-01-18 10:19:00,
2013-01-18 04:20:00,19.8,10.3,28.82,SE,135,13.4,15.2,66,0.00,,---,0.00,VWS V14.01,2013-01-18 10:20:00,
2013-01-18 04:21:00,19.8,10.3,28.82,SE,135,11.0,13.4,66,0.00,,---,0.00,VWS V14.01,2013-01-18 10:21:00,
2013-01-18 04:22:00,19.9,10.4,28.82,SE,135,9.8,11.0,66,0.00,,---,0.00,VWS V14.01,2013-01-18 10:22:00,
2013-01-18 04:23:00,19.9,10.4,28.82,SE,135,12.8,12.8,66,0.00,,---,0.00,VWS V14.01,2013-01-18 10:23:00,
2013-01-18 04:24:00,20.1,11.3,28.79,SSE,158,13.0,13.0,68,0.00,,---,0.00,VWS V14.01,2013-01-18 10:24:00,
2013-01-18 04:25:00,19.9,10.8,28.82,SE,135,10.7,14.8,67,0.00,,---,0.00,VWS V14.01,2013-01-18 10:25:00,
2013-01-18 04:26:00,19.9,10.8,28.82,SE,135,13.4,14.8,67,0.00,,---,0.00,VWS V14.01,2013-01-18 10:26:00,
2013-01-18 04:27:00,19.9,10.8,28.79,SE,135,13.2,13.4,67,0.00,,---,0.00,VWS V14.01,2013-01-18 10:27:00,
2013-01-18 04:28:00,20.1,11.3,28.79,SE,135,15.9,16.1,68,0.00,,---,0.00,VWS V14.01,2013-01-18 10:28:00,
2013-01-18 04:29:00,20.1,11.3,28.79,SE,135,13.2,16.8,68,0.00,,---,0.00,VWS V14.01,2013-01-18 10:29:00,
2013-01-18 04:30:00,20.1,11.3,28.79,SE,135,7.8,7.8,68,0.00,,---,0.00,VWS V14.01,2013-01-18 10:30:00,
2013-01-18 04:31:00,20.1,11.3,28.79,SE,135,11.0,11.0,68,0.00,,---,0.00,VWS V14.01,2013-01-18 10:31:00,
2013-01-18 04:32:00,20.1,11.3,28.79,SSE,158,13.0,13.0,68,0.00,,---,0.00,VWS V14.01,2013-01-18 10:32:00,
2013-01-18 04:33:00,20.1,11.3,28.79,SE,135,12.8,13.0,68,0.00,,---,0.00,VWS V14.01,2013-01-18 10:33:00,
2013-01-18 04:34:00,20.3,11.8,28.76,SE,135,17.0,17.0,69,0.00,,---,0.00,VWS V14.01,2013-01-18 10:34:00,
2013-01-18 04:35:00,20.1,11.3,28.79,SE,135,14.8,17.5,68,0.00,,---,0.00,VWS V14.01,2013-01-18 10:35:00,
2013-01-18 04:36:00,20.1,11.3,28.79,SE,135,14.5,17.2,68,0.00,,---,0.00,VWS V14.01,2013-01-18 10:36:00,
2013-01-18 04:37:00,20.1,11.3,28.79,SE,135,11.0,15.2,68,0.00,,---,0.00,VWS V14.01,2013-01-18 10:37:00,
2013-01-18 04:38:00,20.1,11.3,28.79,SE,135,14.5,16.8,68,0.00,,---,0.00,VWS V14.01,2013-01-18 10:38:00,
2013-01-18 04:39:00,20.3,11.8,28.76,SE,135,9.8,11.0,69,0.00,,---,0.00,VWS V14.01,2013-01-18 10:39:00,
2013-01-18 04:40:00,20.3,11.8,28.79,SE,135,11.9,17.2,69,0.00,,---,0.00,VWS V14.01,2013-01-18 10:40:00,
2013-01-18 04:41:00,20.3,11.8,28.79,SE,135,13.2,14.1,69,0.00,,---,0.00,VWS V14.01,2013-01-18 10:41:00,
2013-01-18 04:42:00,20.3,11.8,28.76,ESE,112,11.4,13.2,69,0.00,,---,0.00,VWS V14.01,2013-01-18 10:42:00,
2013-01-18 04:43:00,20.3,11.8,28.76,SE,135,17.0,17.0,69,0.00,,---,0.00,VWS V14.01,2013-01-18 10:43:00,
2013-01-18 04:44:00,20.3,12.1,28.76,SE,135,5.4,10.3,70,0.00,,---,0.00,VWS V14.01,2013-01-18 10:44:00,
2013-01-18 04:45:00,20.3,11.8,28.76,SE,135,7.4,14.8,69,0.00,,---,0.00,VWS V14.01,2013-01-18 10:45:00,
2013-01-18 04:46:00,20.3,11.8,28.76,SE,135,9.8,12.5,69,0.00,,---,0.00,VWS V14.01,2013-01-18 10:46:00,
2013-01-18 04:47:00,20.3,11.8,28.76,SE,135,10.3,11.0,69,0.00,,---,0.00,VWS V14.01,2013-01-18 10:47:00,
2013-01-18 04:48:00,20.3,11.8,28.76,SE,135,9.8,11.0,69,0.00,,---,0.00,VWS V14.01,2013-01-18 10:48:00,
2013-01-18 04:49:00,20.5,12.3,28.76,SE,135,8.7,8.7,70,0.00,,---,0.00,VWS V14.01,2013-01-18 10:49:00,
2013-01-18 04:50:00,20.3,12.1,28.76,SE,135,9.8,9.8,70,0.00,,---,0.00,VWS V14.01,2013-01-18 10:50:00,
2013-01-18 04:51:00,20.3,12.1,28.76,SE,135,8.5,10.5,70,0.00,,---,0.00,VWS V14.01,2013-01-18 10:51:00,
2013-01-18 04:52:00,20.3,12.1,28.76,SE,135,7.8,9.4,70,0.00,,---,0.00,VWS V14.01,2013-01-18 10:52:00,
2013-01-18 04:53:00,20.3,12.1,28.76,SE,135,5.4,10.3,70,0.00,,---,0.00,VWS V14.01,2013-01-18 10:53:00,
2013-01-18 04:54:00,20.3,12.1,28.76,SE,135,13.6,13.6,70,0.00,,---,0.00,VWS V14.01,2013-01-18 10:54:00,
2013-01-18 04:55:00,20.5,12.3,28.76,SE,135,8.1,12.5,70,0.00,,---,0.00,VWS V14.01,2013-01-18 10:55:00,
2013-01-18 04:56:00,20.3,12.1,28.76,SE,135,10.3,11.0,70,0.00,,---,0.00,VWS V14.01,2013-01-18 10:56:00,
2013-01-18 04:57:00,20.3,12.1,28.76,SE,135,6.5,10.3,70,0.00,,---,0.00,VWS V14.01,2013-01-18 10:57:00,
2013-01-18 04:58:00,20.5,12.3,28.76,SE,135,8.7,8.7,70,0.00,,---,0.00,VWS V14.01,2013-01-18 10:58:00,
2013-01-18 04:59:00,20.5,12.3,28.76,ESE,112,9.8,10.5,70,0.00,,---,0.00,VWS V14.01,2013-01-18 10:59:00,
2013-01-18 05:00:00,20.5,12.6,28.76,SE,135,10.1,10.1,71,0.00,,---,0.00,VWS V14.01,2013-01-18 11:00:00,
2013-01-18 05:01:00,20.5,12.3,28.76,SE,135,10.3,10.3,70,0.00,,---,0.00,VWS V14.01,2013-01-18 11:01:00,
2013-01-18 05:02:00,20.5,12.3,28.76,SE,135,12.5,12.5,70,0.00,,---,0.00,VWS V14.01,2013-01-18 11:02:00,
2013-01-18 05:03:00,20.5,12.3,28.76,South,180,8.7,12.5,70,0.00,,---,0.00,VWS V14.01,2013-01-18 11:03:00,
2013-01-18 05:04:00,20.5,12.6,28.76,SE,135,9.4,9.4,71,0.00,,---,0.00,VWS V14.01,2013-01-18 11:04:00,
2013-01-18 05:05:00,20.5,12.9,28.73,SE,135,10.3,12.3,72,0.00,,---,0.00,VWS V14.01,2013-01-18 11:05:00,
2013-01-18 05:06:00,20.5,12.6,28.76,SE,135,10.1,10.1,71,0.00,,---,0.00,VWS V14.01,2013-01-18 11:06:00,
2013-01-18 05:07:00,20.5,12.6,28.76,SE,135,11.4,11.4,71,0.00,,---,0.00,VWS V14.01,2013-01-18 11:07:00,
2013-01-18 05:08:00,20.5,12.6,28.76,SE,135,10.1,12.1,71,0.00,,---,0.00,VWS V14.01,2013-01-18 11:08:00,
2013-01-18 05:09:00,20.5,12.6,28.76,SE,135,7.6,10.1,71,0.00,,---,0.00,VWS V14.01,2013-01-18 11:09:00,
2013-01-18 05:10:00,20.7,13.1,28.73,SE,135,8.1,8.1,72,0.00,,---,0.00,VWS V14.01,2013-01-18 11:10:00,
2013-01-18 05:11:00,20.5,12.9,28.76,SE,135,10.7,14.5,72,0.00,,---,0.00,VWS V14.01,2013-01-18 11:11:00,
2013-01-18 05:12:00,20.5,12.9,28.76,SE,135,12.3,12.3,72,0.00,,---,0.00,VWS V14.01,2013-01-18 11:12:00,
2013-01-18 05:13:00,20.5,12.9,28.73,SE,135,10.3,12.3,72,0.00,,---,0.00,VWS V14.01,2013-01-18 11:13:00,
2013-01-18 05:14:00,20.7,13.1,28.73,SE,135,7.8,10.3,72,0.00,,---,0.00,VWS V14.01,2013-01-18 11:14:00,
2013-01-18 05:15:00,20.7,13.4,28.73,SE,135,6.5,12.8,73,0.00,,---,0.00,VWS V14.01,2013-01-18 11:15:00,
2013-01-18 05:16:00,20.7,13.1,28.73,SE,135,10.7,11.0,72,0.00,,---,0.00,VWS V14.01,2013-01-18 11:16:00,
2013-01-18 05:17:00,20.7,13.1,28.73,SSE,158,10.3,10.7,72,0.00,,---,0.00,VWS V14.01,2013-01-18 11:17:00,
2013-01-18 05:18:00,20.7,13.1,28.73,SE,135,8.1,10.3,72,0.00,,---,0.00,VWS V14.01,2013-01-18 11:18:00,
2013-01-18 05:19:00,20.7,13.1,28.73,SE,135,10.7,10.7,72,0.00,,---,0.00,VWS V14.01,2013-01-18 11:19:00,
2013-01-18 05:20:00,20.8,13.9,28.73,SE,135,8.7,8.7,74,0.00,,---,0.00,VWS V14.01,2013-01-18 11:20:00,
2013-01-18 05:21:00,20.7,13.4,28.73,SE,135,7.8,8.7,73,0.00,,---,0.00,VWS V14.01,2013-01-18 11:21:00,
2013-01-18 05:22:00,20.7,13.4,28.73,SE,135,10.1,10.1,73,0.00,,---,0.00,VWS V14.01,2013-01-18 11:22:00,
2013-01-18 05:23:00,20.7,13.4,28.73,SE,135,6.5,12.8,73,0.00,,---,0.00,VWS V14.01,2013-01-18 11:23:00,
2013-01-18 05:24:00,20.7,13.4,28.73,SE,135,9.8,10.7,73,0.00,,---,0.00,VWS V14.01,2013-01-18 11:24:00,
2013-01-18 05:25:00,20.8,13.9,28.73,SE,135,7.4,7.4,74,0.00,,---,0.00,VWS V14.01,2013-01-18 11:25:00,
2013-01-18 05:26:00,20.7,13.4,28.73,SE,135,9.4,13.4,73,0.00,,---,0.00,VWS V14.01,2013-01-18 11:26:00,
2013-01-18 05:27:00,20.7,13.4,28.73,SE,135,10.3,12.1,73,0.00,,---,0.00,VWS V14.01,2013-01-18 11:27:00,
2013-01-18 05:28:00,20.8,13.9,28.73,SE,135,8.7,14.8,74,0.00,,---,0.00,VWS V14.01,2013-01-18 11:28:00,
2013-01-18 05:29:00,20.8,13.9,28.73,SE,135,9.6,10.3,74,0.00,,---,0.00,VWS V14.01,2013-01-18 11:29:00,
2013-01-18 05:30:00,21.0,14.4,28.73,SE,135,10.1,10.1,75,0.00,,---,0.00,VWS V14.01,2013-01-18 11:30:00,
2013-01-18 05:31:00,20.8,13.9,28.73,SE,135,9.8,10.1,74,0.00,,---,0.00,VWS V14.01,2013-01-18 11:31:00,
2013-01-18 05:32:00,20.8,13.9,28.73,SSE,158,8.5,9.8,74,0.00,,---,0.00,VWS V14.01,2013-01-18 11:32:00,
2013-01-18 05:33:00,20.8,13.9,28.73,SE,135,7.4,9.8,74,0.00,,---,0.00,VWS V14.01,2013-01-18 11:33:00,
2013-01-18 05:34:00,20.8,13.9,28.73,SE,135,7.8,7.8,74,0.00,,---,0.00,VWS V14.01,2013-01-18 11:34:00,
2013-01-18 05:35:00,21.2,14.5,28.73,SSE,158,6.0,8.1,75,0.00,,---,0.00,VWS V14.01,2013-01-18 11:35:00,
2013-01-18 05:36:00,21.0,14.1,28.73,SE,135,9.8,10.5,74,0.00,,---,0.00,VWS V14.01,2013-01-18 11:36:00,
2013-01-18 05:37:00,21.0,14.1,28.73,SE,135,8.7,9.8,74,0.00,,---,0.00,VWS V14.01,2013-01-18 11:37:00,
2013-01-18 05:38:00,21.0,14.4,28.73,SE,135,10.1,10.1,75,0.00,,---,0.00,VWS V14.01,2013-01-18 11:38:00,
2013-01-18 05:39:00,21.0,14.4,28.73,SE,135,7.6,10.1,75,0.00,,---,0.00,VWS V14.01,2013-01-18 11:39:00,
2013-01-18 05:40:00,21.2,14.8,28.73,SSE,158,8.5,8.5,76,0.00,,---,0.00,VWS V14.01,2013-01-18 11:40:00,
2013-01-18 05:41:00,21.0,14.4,28.73,SE,135,7.8,9.4,75,0.00,,---,0.00,VWS V14.01,2013-01-18 11:41:00,
2013-01-18 05:42:00,21.0,14.4,28.73,SE,135,8.5,9.6,75,0.00,,---,0.00,VWS V14.01,2013-01-18 11:42:00,
2013-01-18 05:43:00,21.2,14.5,28.73,SSE,158,8.1,8.5,75,0.00,,---,0.00,VWS V14.01,2013-01-18 11:43:00,
2013-01-18 05:44:00,21.2,14.5,28.73,SSE,158,7.8,8.1,75,0.00,,---,0.00,VWS V14.01,2013-01-18 11:44:00,
2013-01-18 05:45:00,21.2,14.8,28.73,SSE,158,8.5,8.5,76,0.00,,---,0.00,VWS V14.01,2013-01-18 11:45:00,
2013-01-18 05:46:00,21.2,14.5,28.73,SSE,158,9.8,9.8,75,0.00,,---,0.00,VWS V14.01,2013-01-18 11:46:00,
2013-01-18 05:47:00,21.2,14.5,28.73,SE,135,6.3,9.8,75,0.00,,---,0.00,VWS V14.01,2013-01-18 11:47:00,
2013-01-18 05:48:00,21.2,14.8,28.73,SSE,158,6.3,8.1,76,0.00,,---,0.00,VWS V14.01,2013-01-18 11:48:00,
2013-01-18 05:49:00,21.2,14.8,28.73,SE,135,7.6,8.7,76,0.00,,---,0.00,VWS V14.01,2013-01-18 11:49:00,
2013-01-18 05:50:00,21.6,15.5,28.70,SSE,158,6.5,6.5,77,0.00,,---,0.00,VWS V14.01,2013-01-18 11:50:00,
2013-01-18 05:51:00,21.2,14.8,28.73,SSE,158,4.9,8.1,76,0.00,,---,0.00,VWS V14.01,2013-01-18 11:51:00,
2013-01-18 05:53:00,21.2,14.8,28.73,SSE,158,8.5,8.5,76,0.00,,---,0.00,VWS V14.01,2013-01-18 11:53:00,
2013-01-18 05:54:00,21.2,14.8,28.73,SE,135,6.5,8.5,76,0.00,,---,0.00,VWS V14.01,2013-01-18 11:54:00,
2013-01-18 05:55:00,21.6,15.5,28.70,SSW,202,8.1,8.7,77,0.00,,---,0.00,VWS V14.01,2013-01-18 11:55:00,
2013-01-18 05:56:00,21.4,15.0,28.73,SE,135,8.1,8.1,76,0.00,,---,0.00,VWS V14.01,2013-01-18 11:56:00,
2013-01-18 05:57:00,21.4,15.0,28.70,SE,135,8.1,8.1,76,0.00,,---,0.00,VWS V14.01,2013-01-18 11:57:00,
2013-01-18 05:58:00,21.6,15.5,28.70,SSE,158,5.8,11.2,77,0.00,,---,0.00,VWS V14.01,2013-01-18 11:58:00,
2013-01-18 05:59:00,21.6,15.5,28.70,SE,135,8.7,9.8,77,0.00,,---,0.00,VWS V14.01,2013-01-18 11:59:00,
2013-01-18 06:00:00,21.7,15.6,28.70,SE,135,6.3,6.9,77,0.00,,---,0.00,VWS V14.01,2013-01-18 12:00:00,
2013-01-18 06:01:00,21.6,15.5,28.70,SE,135,8.7,8.7,77,0.00,,---,0.00,VWS V14.01,2013-01-18 12:01:00,
2013-01-18 06:02:00,21.6,15.5,28.70,SSE,158,7.8,8.7,77,0.00,,---,0.00,VWS V14.01,2013-01-18 12:02:00,
2013-01-18 06:03:00,21.6,15.5,28.70,SE,135,8.7,11.0,77,0.00,,---,0.00,VWS V14.01,2013-01-18 12:03:00,
2013-01-18 06:04:00,21.6,15.5,28.70,SSE,158,7.6,8.7,77,0.00,,---,0.00,VWS V14.01,2013-01-18 12:04:00,
2013-01-18 06:05:00,21.9,15.8,28.67,SE,135,5.4,7.4,77,0.00,,---,0.00,VWS V14.01,2013-01-18 12:05:00,
2013-01-18 06:06:00,21.7,15.6,28.70,SSE,158,7.4,7.8,77,0.00,,---,0.00,VWS V14.01,2013-01-18 12:06:00,
2013-01-18 06:07:00,21.7,15.6,28.70,SE,135,6.9,10.7,77,0.00,,---,0.00,VWS V14.01,2013-01-18 12:07:00,
2013-01-18 06:08:00,21.7,15.6,28.70,SE,135,6.9,6.9,77,0.00,,---,0.00,VWS V14.01,2013-01-18 12:08:00,
2013-01-18 06:09:00,21.7,15.6,28.70,SE,135,7.6,7.6,77,0.00,,---,0.00,VWS V14.01,2013-01-18 12:09:00,
2013-01-18 06:10:00,21.9,15.8,28.67,SE,135,5.8,7.8,77,0.00,,---,0.00,VWS V14.01,2013-01-18 12:10:00,
2013-01-18 06:11:00,21.7,15.6,28.70,SE,135,5.8,8.1,77,0.00,,---,0.00,VWS V14.01,2013-01-18 12:11:00,
2013-01-18 06:12:00,21.7,15.6,28.67,South,180,6.3,10.1,77,0.00,,---,0.00,VWS V14.01,2013-01-18 12:12:00,
2013-01-18 06:13:00,21.9,15.8,28.67,SSE,158,7.4,12.8,77,0.00,,---,0.00,VWS V14.01,2013-01-18 12:13:00,
2013-01-18 06:14:00,21.9,15.8,28.67,SE,135,9.8,9.8,77,0.00,,---,0.00,VWS V14.01,2013-01-18 12:14:00,
2013-01-18 06:15:00,22.1,16.3,28.67,SE,135,7.6,7.6,78,0.00,,---,0.00,VWS V14.01,2013-01-18 12:15:00,
2013-01-18 06:16:00,21.9,15.8,28.67,SE,135,6.3,8.1,77,0.00,,---,0.00,VWS V14.01,2013-01-18 12:16:00,
2013-01-18 06:17:00,21.9,15.8,28.67,SSE,158,6.5,9.4,77,0.00,,---,0.00,VWS V14.01,2013-01-18 12:17:00,
2013-01-18 06:18:00,21.9,15.8,28.67,SSE,158,7.8,7.8,77,0.00,,---,0.00,VWS V14.01,2013-01-18 12:18:00,
2013-01-18 06:19:00,21.9,15.8,28.67,SSE,158,8.7,9.6,77,0.00,,---,0.00,VWS V14.01,2013-01-18 12:19:00,
2013-01-18 06:20:00,22.1,16.3,28.67,SE,135,6.3,6.3,78,0.00,,---,0.00,VWS V14.01,2013-01-18 12:20:00,
2013-01-18 06:21:00,21.9,16.1,28.67,SE,135,8.5,10.1,78,0.00,,---,0.00,VWS V14.01,2013-01-18 12:21:00,
2013-01-18 06:22:00,21.9,16.1,28.67,SE,135,8.5,8.5,78,0.00,,---,0.00,VWS V14.01,2013-01-18 12:22:00,
2013-01-18 06:23:00,22.1,16.3,28.67,SE,135,6.5,8.7,78,0.00,,---,0.00,VWS V14.01,2013-01-18 12:23:00,
2013-01-18 06:24:00,22.1,16.3,28.67,SE,135,4.3,7.6,78,0.00,,---,0.00,VWS V14.01,2013-01-18 12:24:00,
2013-01-18 06:25:00,22.3,16.8,28.67,SE,135,8.7,8.7,79,0.00,,---,0.00,VWS V14.01,2013-01-18 12:25:00,
2013-01-18 06:26:00,22.1,16.3,28.67,South,180,2.9,7.4,78,0.00,,---,0.00,VWS V14.01,2013-01-18 12:26:00,
2013-01-18 06:27:00,22.1,16.3,28.67,SSE,158,5.4,5.4,78,0.00,,---,0.00,VWS V14.01,2013-01-18 12:27:00,
2013-01-18 06:28:00,22.1,16.3,28.67,SE,135,6.3,6.3,78,0.00,,---,0.00,VWS V14.01,2013-01-18 12:28:00,
2013-01-18 06:29:00,22.1,16.3,28.67,SE,135,6.3,6.3,78,0.00,,---,0.00,VWS V14.01,2013-01-18 12:29:00,
2013-01-18 06:30:00,22.3,16.8,28.67,SE,135,6.9,7.4,79,0.00,,---,0.00,VWS V14.01,2013-01-18 12:30:00,
2013-01-18 06:32:00,22.1,16.6,28.67,SE,135,6.5,6.5,79,0.00,,---,0.00,VWS V14.01,2013-01-18 12:32:00,
2013-01-18 06:33:00,22.1,16.6,28.67,SE,135,8.1,8.1,79,0.00,,---,0.00,VWS V14.01,2013-01-18 12:33:00,
2013-01-18 06:34:00,22.3,16.8,28.67,SSE,158,10.3,10.3,79,0.00,,---,0.00,VWS V14.01,2013-01-18 12:34:00,
2013-01-18 06:35:00,22.5,16.9,28.67,SSE,158,4.3,4.9,79,0.00,,---,0.00,VWS V14.01,2013-01-18 12:35:00,
2013-01-18 06:36:00,22.3,16.8,28.67,SE,135,6.0,7.4,79,0.00,,---,0.00,VWS V14.01,2013-01-18 12:36:00,
2013-01-18 06:37:00,22.3,16.8,28.67,SE,135,8.5,8.5,79,0.00,,---,0.00,VWS V14.01,2013-01-18 12:37:00,
2013-01-18 06:38:00,22.3,16.8,28.67,SSE,158,7.4,8.5,79,0.00,,---,0.00,VWS V14.01,2013-01-18 12:38:00,
2013-01-18 06:39:00,22.3,16.8,28.67,SSE,158,6.3,7.4,79,0.00,,---,0.00,VWS V14.01,2013-01-18 12:39:00,
2013-01-18 06:40:00,22.5,16.9,28.67,South,180,4.3,6.5,79,0.00,,---,0.00,VWS V14.01,2013-01-18 12:40:00,
2013-01-18 06:41:00,22.3,16.8,28.67,SSE,158,6.5,8.1,79,0.00,,---,0.00,VWS V14.01,2013-01-18 12:41:00,
2013-01-18 06:42:00,22.3,16.8,28.67,SSE,158,6.0,6.5,79,0.00,,---,0.00,VWS V14.01,2013-01-18 12:42:00,
2013-01-18 06:43:00,22.5,16.9,28.67,SE,135,4.9,6.0,79,0.00,,---,0.00,VWS V14.01,2013-01-18 12:43:00,
2013-01-18 06:44:00,22.5,16.9,28.67,SSE,158,5.6,5.6,79,0.00,,---,0.00,VWS V14.01,2013-01-18 12:44:00,
2013-01-18 06:45:00,22.6,17.4,28.67,SE,135,3.4,4.7,80,0.00,,---,0.00,VWS V14.01,2013-01-18 12:45:00,
2013-01-18 06:46:00,22.5,16.9,28.67,SSE,158,5.8,7.6,79,0.00,,---,0.00,VWS V14.01,2013-01-18 12:46:00,
2013-01-18 06:47:00,22.5,16.9,28.67,SE,135,4.0,6.3,79,0.00,,---,0.00,VWS V14.01,2013-01-18 12:47:00,
2013-01-18 06:48:00,22.5,16.9,28.67,South,180,6.5,6.5,79,0.00,,---,0.00,VWS V14.01,2013-01-18 12:48:00,
2013-01-18 06:49:00,22.5,16.9,28.67,SSE,158,4.9,6.5,79,0.00,,---,0.00,VWS V14.01,2013-01-18 12:49:00,
2013-01-18 06:50:00,22.8,17.9,28.67,SSE,158,3.8,5.6,81,0.00,,---,0.00,VWS V14.01,2013-01-18 12:50:00,
2013-01-18 06:51:00,22.6,17.4,28.67,SSW,202,4.9,6.5,80,0.00,,---,0.00,VWS V14.01,2013-01-18 12:51:00,
2013-01-18 06:52:00,22.6,17.4,28.67,SSE,158,4.3,5.4,80,0.00,,---,0.00,VWS V14.01,2013-01-18 12:52:00,
2013-01-18 06:53:00,22.6,17.4,28.67,SSE,158,4.7,7.2,80,0.00,,---,0.00,VWS V14.01,2013-01-18 12:53:00,
2013-01-18 06:54:00,22.6,17.4,28.67,South,180,3.8,4.7,80,0.00,,---,0.00,VWS V14.01,2013-01-18 12:54:00,
2013-01-18 06:55:00,22.8,17.6,28.67,SSE,158,2.9,4.3,80,0.00,,---,0.00,VWS V14.01,2013-01-18 12:55:00,
2013-01-18 06:56:00,22.6,17.4,28.67,SSE,158,7.2,7.2,80,0.00,,---,0.00,VWS V14.01,2013-01-18 12:56:00,
2013-01-18 06:57:00,22.8,17.6,28.67,SSW,202,6.0,7.2,80,0.00,,---,0.00,VWS V14.01,2013-01-18 12:57:00,
2013-01-18 06:58:00,22.8,17.9,28.67,SSE,158,5.6,6.0,81,0.00,,---,0.00,VWS V14.01,2013-01-18 12:58:00,
2013-01-18 07:00:00,22.8,17.6,28.67,South,180,5.4,6.3,80,0.00,,---,0.00,VWS V14.01,2013-01-18 13:00:00,
2013-01-18 07:01:00,22.8,17.9,28.67,SSE,158,3.4,3.6,81,0.00,,---,0.00,VWS V14.01,2013-01-18 13:01:00,
2013-01-18 07:02:00,22.8,17.6,28.67,SE,135,3.1,4.7,80,0.00,,---,0.00,VWS V14.01,2013-01-18 13:02:00,
2013-01-18 07:03:00,22.8,17.6,28.67,SSE,158,4.3,5.8,80,0.00,,---,0.00,VWS V14.01,2013-01-18 13:03:00,
2013-01-18 07:04:00,22.8,17.6,28.67,SSE,158,2.0,4.3,80,0.00,,---,0.00,VWS V14.01,2013-01-18 13:04:00,
2013-01-18 07:05:00,22.8,17.6,28.64,SSE,158,2.7,2.7,80,0.00,,---,0.00,VWS V14.01,2013-01-18 13:05:00,
2013-01-18 07:06:00,22.8,17.6,28.67,SSE,158,3.4,6.0,80,0.00,,---,0.00,VWS V14.01,2013-01-18 13:06:00,
2013-01-18 07:07:00,22.8,17.6,28.67,SSE,158,3.1,4.7,80,0.00,,---,0.00,VWS V14.01,2013-01-18 13:07:00,
2013-01-18 07:08:00,22.8,17.6,28.67,South,180,6.3,6.3,80,0.00,,---,0.00,VWS V14.01,2013-01-18 13:08:00,
2013-01-18 07:09:00,22.8,17.6,28.67,SE,135,2.9,6.3,80,0.00,,---,0.00,VWS V14.01,2013-01-18 13:09:00,
2013-01-18 07:10:00,23.0,17.8,28.64,SSW,202,2.9,4.7,80,0.00,,---,0.00,VWS V14.01,2013-01-18 13:10:00,
2013-01-18 07:11:00,22.8,17.6,28.67,SSW,202,3.4,4.0,80,0.00,,---,0.00,VWS V14.01,2013-01-18 13:11:00,
2013-01-18 07:12:00,22.8,17.6,28.64,ESE,112,4.3,6.3,80,0.00,,---,0.00,VWS V14.01,2013-01-18 13:12:00,
2013-01-18 07:13:00,22.8,17.6,28.64,SE,135,2.5,4.3,80,0.00,,---,0.00,VWS V14.01,2013-01-18 13:13:00,
2013-01-18 07:14:00,22.8,17.6,28.64,SSW,202,2.9,2.9,80,0.00,,---,0.00,VWS V14.01,2013-01-18 13:14:00,
2013-01-18 07:15:00,23.2,17.9,28.64,SSW,202,2.5,5.4,80,0.00,,---,0.00,VWS V14.01,2013-01-18 13:15:00,
2013-01-18 07:16:00,23.0,17.8,28.64,SSW,202,2.5,3.1,80,0.00,,---,0.00,VWS V14.01,2013-01-18 13:16:00,
2013-01-18 07:17:00,23.0,17.8,28.64,SSE,158,4.7,4.7,80,0.00,,---,0.00,VWS V14.01,2013-01-18 13:17:00,
2013-01-18 07:18:00,23.0,17.8,28.64,SSE,158,4.7,4.7,80,0.00,,---,0.00,VWS V14.01,2013-01-18 13:18:00,
2013-01-18 07:19:00,23.0,17.8,28.64,South,180,4.3,4.7,80,0.00,,---,0.00,VWS V14.01,2013-01-18 13:19:00,
2013-01-18 07:20:00,23.4,18.4,28.64,SSE,158,2.5,5.4,81,0.00,,---,0.00,VWS V14.01,2013-01-18 13:20:00,
2013-01-18 07:21:00,23.2,17.9,28.64,SSW,202,4.9,6.3,80,0.00,,---,0.00,VWS V14.01,2013-01-18 13:21:00,
2013-01-18 07:22:00,23.2,17.9,28.64,SSW,202,2.9,4.9,80,0.00,,---,0.00,VWS V14.01,2013-01-18 13:22:00,
2013-01-18 07:23:00,23.2,17.9,28.64,SE,135,1.6,3.6,80,0.00,,---,0.00,VWS V14.01,2013-01-18 13:23:00,
2013-01-18 07:24:00,23.2,17.9,28.64,SE,135,2.7,5.4,80,0.00,,---,0.00,VWS V14.01,2013-01-18 13:24:00,
2013-01-18 07:25:00,23.4,18.4,28.64,East,90,2.9,4.0,81,0.00,,---,0.00,VWS V14.01,2013-01-18 13:25:00,
2013-01-18 07:26:00,23.2,18.2,28.64,SSW,202,2.0,2.5,81,0.00,,---,0.00,VWS V14.01,2013-01-18 13:26:00,
2013-01-18 07:27:00,23.2,18.2,28.64,ESE,112,2.9,2.9,81,0.00,,---,0.00,VWS V14.01,2013-01-18 13:27:00,
2013-01-18 07:28:00,23.2,18.2,28.64,WSW,248,3.8,3.8,81,0.00,,---,0.00,VWS V14.01,2013-01-18 13:28:00,
2013-01-18 07:29:00,23.4,18.4,28.64,SSE,158,2.2,5.4,81,0.00,,---,0.00,VWS V14.01,2013-01-18 13:29:00,
2013-01-18 07:30:00,23.5,18.6,28.64,South,180,1.1,2.9,81,0.00,,---,0.00,VWS V14.01,2013-01-18 13:30:00,
2013-01-18 07:31:00,23.4,18.4,28.64,South,180,3.4,3.6,81,0.00,,---,0.00,VWS V14.01,2013-01-18 13:31:00,
2013-01-18 07:32:00,23.4,18.4,28.64,WSW,248,2.5,4.3,81,0.00,,---,0.00,VWS V14.01,2013-01-18 13:32:00,
2013-01-18 07:34:00,23.4,18.4,28.64,SSE,158,3.6,4.0,81,0.00,,---,0.00,VWS V14.01,2013-01-18 13:34:00,
2013-01-18 07:35:00,23.9,19.5,28.61,SSW,202,5.4,5.8,83,0.00,,---,0.00,VWS V14.01,2013-01-18 13:35:00,
2013-01-18 07:36:00,23.5,18.6,28.64,South,180,4.0,4.0,81,0.00,,---,0.00,VWS V14.01,2013-01-18 13:36:00,
2013-01-18 07:37:00,23.5,18.6,28.64,SSE,158,3.1,4.0,81,0.00,,---,0.00,VWS V14.01,2013-01-18 13:37:00,
2013-01-18 07:38:00,23.5,18.6,28.64,SSE,158,2.9,3.1,81,0.00,,---,0.00,VWS V14.01,2013-01-18 13:38:00,
2013-01-18 07:39:00,23.5,18.9,28.64,SSE,158,4.9,4.9,82,0.00,,---,0.00,VWS V14.01,2013-01-18 13:39:00,
2013-01-18 07:40:00,24.1,20.0,28.61,South,180,6.0,6.0,84,0.00,,---,0.00,VWS V14.01,2013-01-18 13:40:00,
2013-01-18 07:41:00,23.7,19.0,28.64,SSW,202,5.4,5.4,82,0.00,,---,0.00,VWS V14.01,2013-01-18 13:41:00,
2013-01-18 07:42:00,23.7,19.3,28.61,South,180,2.9,5.4,83,0.00,,---,0.00,VWS V14.01,2013-01-18 13:42:00,
2013-01-18 07:43:00,23.7,19.3,28.61,SSW,202,5.8,6.5,83,0.00,,---,0.00,VWS V14.01,2013-01-18 13:43:00,
2013-01-18 07:44:00,23.9,19.5,28.61,SSW,202,3.8,5.8,83,0.00,,---,0.00,VWS V14.01,2013-01-18 13:44:00,
2013-01-18 07:45:00,24.1,20.0,28.61,SSE,158,1.6,2.2,84,0.00,,---,0.00,VWS V14.01,2013-01-18 13:45:00,
2013-01-18 07:46:00,23.9,19.5,28.61,SSE,158,3.1,4.0,83,0.00,,---,0.00,VWS V14.01,2013-01-18 13:46:00,
2013-01-18 07:47:00,23.9,19.5,28.61,SE,135,6.3,6.3,83,0.00,,---,0.00,VWS V14.01,2013-01-18 13:47:00,
2013-01-18 07:48:00,23.9,19.5,28.61,SSW,202,3.4,6.3,83,0.00,,---,0.00,VWS V14.01,2013-01-18 13:48:00,
2013-01-18 07:49:00,24.1,20.0,28.61,SSW,202,6.5,6.5,84,0.00,,---,0.00,VWS V14.01,2013-01-18 13:49:00,
2013-01-18 07:50:00,23.9,19.5,28.61,South,180,4.3,6.5,83,0.00,,---,0.00,VWS V14.01,2013-01-18 13:50:00,
2013-01-18 07:51:00,24.1,20.0,28.61,SSW,202,3.8,5.4,84,0.00,,---,0.00,VWS V14.01,2013-01-18 13:51:00,
2013-01-18 07:52:00,24.1,20.0,28.61,SSW,202,4.3,6.0,84,0.00,,---,0.00,VWS V14.01,2013-01-18 13:52:00,
2013-01-18 07:53:00,24.1,20.0,28.61,SSW,202,2.2,5.6,84,0.00,,---,0.00,VWS V14.01,2013-01-18 13:53:00,
2013-01-18 07:54:00,24.1,20.0,28.61,SSW,202,3.6,3.6,84,0.00,,---,0.00,VWS V14.01,2013-01-18 13:54:00,
2013-01-18 07:55:00,23.9,19.5,28.61,SE,135,3.1,3.1,83,0.00,,---,0.00,VWS V14.01,2013-01-18 13:55:00,
2013-01-18 07:56:00,24.1,19.7,28.61,SSW,202,3.6,6.0,83,0.00,,---,0.00,VWS V14.01,2013-01-18 13:56:00,
2013-01-18 07:57:00,24.1,19.7,28.61,SSW,202,3.6,4.7,83,0.00,,---,0.00,VWS V14.01,2013-01-18 13:57:00,
2013-01-18 07:58:00,23.9,19.5,28.61,SSW,202,2.0,3.6,83,0.00,,---,0.00,VWS V14.01,2013-01-18 13:58:00,
2013-01-18 07:59:00,24.1,19.7,28.61,South,180,3.8,6.5,83,0.00,,---,0.00,VWS V14.01,2013-01-18 13:59:00,
2013-01-18 08:00:00,23.7,19.3,28.61,ESE,112,3.6,3.6,83,0.00,,---,0.00,VWS V14.01,2013-01-18 14:00:00,
2013-01-18 08:01:00,23.9,19.8,28.61,SSW,202,4.0,4.0,84,0.00,,---,0.00,VWS V14.01,2013-01-18 14:01:00,
2013-01-18 08:02:00,23.9,19.5,28.61,SSE,158,2.9,4.0,83,0.00,,---,0.00,VWS V14.01,2013-01-18 14:02:00,
2013-01-18 08:03:00,23.9,19.5,28.61,SSW,202,2.5,2.9,83,0.00,,---,0.00,VWS V14.01,2013-01-18 14:03:00,
2013-01-18 08:04:00,23.9,19.5,28.61,SE,135,3.1,3.1,83,0.00,,---,0.00,VWS V14.01,2013-01-18 14:04:00,
2013-01-18 08:05:00,23.7,19.0,28.61,SE,135,4.0,4.3,82,0.00,,---,0.00,VWS V14.01,2013-01-18 14:05:00,
2013-01-18 08:06:00,23.7,19.3,28.61,SSE,158,2.2,3.6,83,0.00,,---,0.00,VWS V14.01,2013-01-18 14:06:00,
2013-01-18 08:07:00,23.7,19.3,28.61,SE,135,0.0,2.2,83,0.00,,---,0.00,VWS V14.01,2013-01-18 14:07:00,
2013-01-18 08:08:00,23.7,19.3,28.61,SSW,202,2.7,2.7,83,0.00,,---,0.00,VWS V14.01,2013-01-18 14:08:00,
2013-01-18 08:09:00,23.7,19.3,28.61,SSE,158,2.7,3.8,83,0.00,,---,0.00,VWS V14.01,2013-01-18 14:09:00,
2013-01-18 08:10:00,23.7,19.0,28.61,South,180,3.1,3.1,82,0.00,,---,0.00,VWS V14.01,2013-01-18 14:10:00,
2013-01-18 08:11:00,23.7,19.0,28.61,SSW,202,3.1,3.1,82,0.00,,---,0.00,VWS V14.01,2013-01-18 14:11:00,
2013-01-18 08:12:00,23.7,19.0,28.61,ESE,112,2.7,3.1,82,0.00,,---,0.00,VWS V14.01,2013-01-18 14:12:00,
2013-01-18 08:13:00,23.7,19.0,28.61,South,180,2.5,2.7,82,0.00,,---,0.00,VWS V14.01,2013-01-18 14:13:00,
2013-01-18 08:14:00,23.7,19.0,28.61,SSE,158,3.1,4.3,82,0.00,,---,0.00,VWS V14.01,2013-01-18 14:14:00,
2013-01-18 08:15:00,23.9,19.5,28.61,SSW,202,3.4,3.8,83,0.00,,---,0.00,VWS V14.01,2013-01-18 14:15:00,
2013-01-18 08:16:00,23.7,19.0,28.61,SSW,202,1.1,3.1,82,0.00,,---,0.00,VWS V14.01,2013-01-18 14:16:00,
2013-01-18 08:17:00,23.7,19.0,28.61,SSW,202,3.1,3.4,82,0.00,,---,0.00,VWS V14.01,2013-01-18 14:17:00,
2013-01-18 08:18:00,23.7,19.0,28.61,SSE,158,3.1,3.1,82,0.00,,---,0.00,VWS V14.01,2013-01-18 14:18:00,
2013-01-18 08:19:00,23.7,19.0,28.61,SSE,158,2.2,3.1,82,0.00,,---,0.00,VWS V14.01,2013-01-18 14:19:00,
2013-01-18 08:20:00,23.9,19.5,28.61,SSE,158,1.3,3.4,83,0.00,,---,0.00,VWS V14.01,2013-01-18 14:20:00,
2013-01-18 08:21:00,23.7,19.0,28.61,SSE,158,4.7,4.7,82,0.00,,---,0.00,VWS V14.01,2013-01-18 14:21:00,
2013-01-18 08:22:00,23.7,19.0,28.61,SSE,158,4.7,4.7,82,0.00,,---,0.00,VWS V14.01,2013-01-18 14:22:00,
2013-01-18 08:23:00,23.7,19.3,28.61,SSW,202,2.5,4.7,83,0.00,,---,0.00,VWS V14.01,2013-01-18 14:23:00,
2013-01-18 08:24:00,23.9,19.5,28.61,SSW,202,1.6,3.8,83,0.00,,---,0.00,VWS V14.01,2013-01-18 14:24:00,
2013-01-18 08:25:00,24.1,19.7,28.61,South,180,0.0,2.9,83,0.00,,---,0.00,VWS V14.01,2013-01-18 14:25:00,
2013-01-18 08:26:00,23.9,19.5,28.61,SE,135,3.1,4.0,83,0.00,,---,0.00,VWS V14.01,2013-01-18 14:26:00,
2013-01-18 08:27:00,23.9,19.5,28.61,SE,135,1.1,3.1,83,0.00,,---,0.00,VWS V14.01,2013-01-18 14:27:00,
2013-01-18 08:28:00,23.9,19.5,28.61,SSE,158,3.1,3.4,83,0.00,,---,0.00,VWS V14.01,2013-01-18 14:28:00,
2013-01-18 08:29:00,23.9,19.5,28.61,SSW,202,4.7,4.7,83,0.00,,---,0.00,VWS V14.01,2013-01-18 14:29:00,
2013-01-18 08:30:00,24.1,19.7,28.61,SSW,202,1.3,2.0,83,0.00,,---,0.00,VWS V14.01,2013-01-18 14:30:00,
2013-01-18 08:31:00,23.9,19.5,28.61,SSW,202,3.4,3.4,83,0.00,,---,0.00,VWS V14.01,2013-01-18 14:31:00,
2013-01-18 08:32:00,23.9,19.5,28.61,SW,225,3.4,3.4,83,0.00,,---,0.00,VWS V14.01,2013-01-18 14:32:00,
2013-01-18 08:33:00,24.1,19.7,28.61,SW,225,1.3,3.4,83,0.00,,---,0.00,VWS V14.01,2013-01-18 14:33:00,
2013-01-18 08:34:00,24.1,19.7,28.61,South,180,2.5,2.9,83,0.00,,---,0.00,VWS V14.01,2013-01-18 14:34:00,
2013-01-18 08:35:00,24.1,19.7,28.61,SE,135,2.7,2.7,83,0.00,,---,0.00,VWS V14.01,2013-01-18 14:35:00,
2013-01-18 08:36:00,24.1,19.7,28.61,SSW,202,2.7,3.1,83,0.00,,---,0.00,VWS V14.01,2013-01-18 14:36:00,
2013-01-18 08:37:00,24.1,19.7,28.61,SSW,202,1.1,2.7,83,0.00,,---,0.00,VWS V14.01,2013-01-18 14:37:00,
2013-01-18 08:38:00,24.1,19.7,28.61,SSW,202,2.0,3.8,83,0.00,,---,0.00,VWS V14.01,2013-01-18 14:38:00,
2013-01-18 08:39:00,24.1,19.7,28.61,SSW,202,1.6,2.0,83,0.00,,---,0.00,VWS V14.01,2013-01-18 14:39:00,
2013-01-18 08:40:00,24.1,19.7,28.61,SSW,202,0.0,0.0,83,0.00,,---,0.00,VWS V14.01,2013-01-18 14:40:00,
2013-01-18 08:41:00,24.1,19.7,28.61,South,180,2.9,2.9,83,0.00,,---,0.00,VWS V14.01,2013-01-18 14:41:00,
2013-01-18 08:42:00,24.1,19.7,28.61,SSW,202,1.6,3.4,83,0.00,,---,0.00,VWS V14.01,2013-01-18 14:42:00,
2013-01-18 08:43:00,24.1,19.7,28.61,SSW,202,0.0,1.6,83,0.00,,---,0.00,VWS V14.01,2013-01-18 14:43:00,
2013-01-18 08:44:00,24.1,19.7,28.61,SSW,202,2.5,2.7,83,0.00,,---,0.00,VWS V14.01,2013-01-18 14:44:00,
2013-01-18 08:45:00,24.1,19.7,28.61,SSW,202,2.9,3.6,83,0.00,,---,0.00,VWS V14.01,2013-01-18 14:45:00,
2013-01-18 08:47:00,24.1,19.7,28.61,SSE,158,3.1,3.1,83,0.00,,---,0.00,VWS V14.01,2013-01-18 14:47:00,
2013-01-18 08:48:00,24.1,19.7,28.61,NNW,338,0.0,3.1,83,0.00,,---,0.00,VWS V14.01,2013-01-18 14:48:00,
2013-01-18 08:49:00,24.1,19.7,28.61,South,180,0.0,0.0,83,0.00,,---,0.00,VWS V14.01,2013-01-18 14:49:00,
2013-01-18 08:50:00,24.3,19.9,28.61,SSW,202,2.0,2.5,83,0.00,,---,0.00,VWS V14.01,2013-01-18 14:50:00,
2013-01-18 08:51:00,24.1,19.7,28.61,South,180,0.0,1.6,83,0.00,,---,0.00,VWS V14.01,2013-01-18 14:51:00,
2013-01-18 08:52:00,24.1,19.7,28.61,South,180,3.6,3.6,83,0.00,,---,0.00,VWS V14.01,2013-01-18 14:52:00,
2013-01-18 08:53:00,24.1,19.7,28.61,SSE,158,3.6,3.6,83,0.00,,---,0.00,VWS V14.01,2013-01-18 14:53:00,
2013-01-18 08:54:00,24.1,19.7,28.61,SSW,202,2.9,3.6,83,0.00,,---,0.00,VWS V14.01,2013-01-18 14:54:00,
2013-01-18 08:55:00,24.6,20.5,28.61,SSW,202,2.5,2.9,84,0.00,,---,0.00,VWS V14.01,2013-01-18 14:55:00,
2013-01-18 08:56:00,24.3,19.9,28.61,SSW,202,4.0,4.3,83,0.00,,---,0.00,VWS V14.01,2013-01-18 14:56:00,
2013-01-18 08:57:00,24.3,19.9,28.61,South,180,2.7,4.0,83,0.00,,---,0.00,VWS V14.01,2013-01-18 14:57:00,
2013-01-18 08:58:00,24.3,19.9,28.61,SSW,202,2.5,2.7,83,0.00,,---,0.00,VWS V14.01,2013-01-18 14:58:00,
2013-01-18 08:59:00,24.3,19.9,28.61,SSW,202,2.0,2.5,83,0.00,,---,0.00,VWS V14.01,2013-01-18 14:59:00,
2013-01-18 09:00:00,24.8,20.7,28.61,WSW,248,2.0,2.5,84,0.00,,---,0.00,VWS V14.01,2013-01-18 15:00:00,
2013-01-18 09:01:00,24.4,20.0,28.61,SE,135,3.6,3.6,83,0.00,,---,0.00,VWS V14.01,2013-01-18 15:01:00,
2013-01-18 09:02:00,24.4,20.3,28.61,WSW,248,2.0,3.6,84,0.00,,---,0.00,VWS V14.01,2013-01-18 15:02:00,
2013-01-18 09:03:00,24.6,20.5,28.61,SW,225,2.9,2.9,84,0.00,,---,0.00,VWS V14.01,2013-01-18 15:03:00,
2013-01-18 09:04:00,24.6,20.5,28.61,SSW,202,2.5,2.9,84,0.00,,---,0.00,VWS V14.01,2013-01-18 15:04:00,
2013-01-18 09:05:00,24.4,20.0,28.61,SW,225,0.0,0.0,83,0.00,,---,0.00,VWS V14.01,2013-01-18 15:05:00,
2013-01-18 09:06:00,24.6,20.5,28.61,SW,225,2.2,2.5,84,0.00,,---,0.00,VWS V14.01,2013-01-18 15:06:00,
2013-01-18 09:07:00,24.8,20.7,28.61,SE,135,2.5,2.5,84,0.00,,---,0.00,VWS V14.01,2013-01-18 15:07:00,
2013-01-18 09:08:00,24.8,20.7,28.61,WSW,248,2.2,2.5,84,0.00,,---,0.00,VWS V14.01,2013-01-18 15:08:00,
2013-01-18 09:09:00,24.8,20.7,28.61,WSW,248,1.3,2.5,84,0.00,,---,0.00,VWS V14.01,2013-01-18 15:09:00,
2013-01-18 09:10:00,24.6,20.5,28.61,SW,225,2.5,2.5,84,0.00,,---,0.00,VWS V14.01,2013-01-18 15:10:00,
2013-01-18 09:11:00,24.6,20.2,28.61,SSW,202,2.0,2.0,83,0.00,,---,0.00,VWS V14.01,2013-01-18 15:11:00,
2013-01-18 09:12:00,24.6,20.2,28.61,SW,225,0.0,0.0,83,0.00,,---,0.00,VWS V14.01,2013-01-18 15:12:00,
2013-01-18 09:13:00,24.4,20.0,28.61,SW,225,0.0,0.0,83,0.00,,---,0.00,VWS V14.01,2013-01-18 15:13:00,
2013-01-18 09:14:00,24.4,20.0,28.61,SW,225,0.0,0.0,83,0.00,,---,0.00,VWS V14.01,2013-01-18 15:14:00,
2013-01-18 09:15:00,24.4,20.0,28.61,South,180,0.0,0.0,83,0.00,,---,0.00,VWS V14.01,2013-01-18 15:15:00,
2013-01-18 09:16:00,25.0,20.8,28.61,SW,225,1.6,1.6,84,0.00,,---,0.00,VWS V14.01,2013-01-18 15:16:00,
2013-01-18 09:17:00,24.6,20.2,28.61,SW,225,0.0,0.0,83,0.00,,---,0.00,VWS V14.01,2013-01-18 15:17:00,
2013-01-18 09:18:00,24.6,20.2,28.61,SSW,202,2.2,2.5,83,0.00,,---,0.00,VWS V14.01,2013-01-18 15:18:00,
2013-01-18 09:19:00,24.6,20.2,28.61,SSW,202,2.0,2.2,83,0.00,,---,0.00,VWS V14.01,2013-01-18 15:19:00,
2013-01-18 09:20:00,24.6,20.2,28.61,SSW,202,0.9,2.0,83,0.00,,---,0.00,VWS V14.01,2013-01-18 15:20:00,
2013-01-18 09:21:00,25.2,21.0,28.61,SW,225,3.1,3.4,84,0.00,,---,0.00,VWS V14.01,2013-01-18 15:21:00,
2013-01-18 09:22:00,24.8,20.4,28.61,SW,225,2.9,3.8,83,0.00,,---,0.00,VWS V14.01,2013-01-18 15:22:00,
2013-01-18 09:23:00,25.0,20.6,28.61,SSW,202,2.5,2.9,83,0.00,,---,0.00,VWS V14.01,2013-01-18 15:23:00,
2013-01-18 09:24:00,25.0,20.8,28.61,SW,225,1.6,2.5,84,0.00,,---,0.00,VWS V14.01,2013-01-18 15:24:00,
2013-01-18 09:25:00,25.0,20.8,28.61,SSW,202,1.1,1.6,84,0.00,,---,0.00,VWS V14.01,2013-01-18 15:25:00,
2013-01-18 09:26:00,25.3,21.5,28.61,SSW,202,3.1,3.1,85,0.00,,---,0.00,VWS V14.01,2013-01-18 15:26:00,
2013-01-18 09:27:00,25.2,21.0,28.61,WSW,248,2.9,3.8,84,0.00,,---,0.00,VWS V14.01,2013-01-18 15:27:00,
2013-01-18 09:28:00,25.2,21.0,28.61,WSW,248,2.7,3.4,84,0.00,,---,0.00,VWS V14.01,2013-01-18 15:28:00,
2013-01-18 09:29:00,25.2,21.0,28.61,SW,225,3.4,3.4,84,0.00,,---,0.00,VWS V14.01,2013-01-18 15:29:00,
2013-01-18 09:30:00,25.3,21.2,28.61,WSW,248,2.7,3.4,84,0.00,,---,0.00,VWS V14.01,2013-01-18 15:30:00,
2013-01-18 09:31:00,26.1,22.5,28.61,SW,225,2.0,2.5,86,0.00,,---,0.00,VWS V14.01,2013-01-18 15:31:00,
2013-01-18 09:32:00,25.3,21.5,28.61,SSW,202,1.1,2.7,85,0.00,,---,0.00,VWS V14.01,2013-01-18 15:32:00,
2013-01-18 09:33:00,25.3,21.5,28.61,SSW,202,1.1,1.1,85,0.00,,---,0.00,VWS V14.01,2013-01-18 15:33:00,
2013-01-18 09:34:00,25.3,21.5,28.61,SSW,202,3.1,3.1,85,0.00,,---,0.00,VWS V14.01,2013-01-18 15:34:00,
2013-01-18 09:35:00,25.7,21.8,28.61,SSW,202,2.2,3.1,85,0.00,,---,0.00,VWS V14.01,2013-01-18 15:35:00,
2013-01-18 09:36:00,26.8,23.2,28.61,South,180,3.4,3.4,86,0.00,,---,0.00,VWS V14.01,2013-01-18 15:36:00,
2013-01-18 09:37:00,25.9,22.3,28.61,SW,225,3.1,3.6,86,0.00,,---,0.00,VWS V14.01,2013-01-18 15:37:00,
2013-01-18 09:38:00,26.1,22.5,28.61,SSW,202,1.1,3.1,86,0.00,,---,0.00,VWS V14.01,2013-01-18 15:38:00,
2013-01-18 09:39:00,26.1,22.5,28.61,SSW,202,2.5,2.5,86,0.00,,---,0.00,VWS V14.01,2013-01-18 15:39:00,
2013-01-18 09:40:00,26.2,22.6,28.61,SW,225,3.1,4.0,86,0.00,,---,0.00,VWS V14.01,2013-01-18 15:40:00,
2013-01-18 09:41:00,27.5,23.6,28.61,SW,225,3.8,4.3,85,0.00,,---,0.00,VWS V14.01,2013-01-18 15:41:00,
2013-01-18 09:42:00,26.6,23.3,28.61,SW,225,5.6,5.6,87,0.00,,---,0.00,VWS V14.01,2013-01-18 15:42:00,
2013-01-18 09:43:00,26.8,23.2,28.61,South,180,3.4,5.6,86,0.00,,---,0.00,VWS V14.01,2013-01-18 15:43:00,
2013-01-18 09:44:00,26.8,23.2,28.61,South,180,3.4,3.4,86,0.00,,---,0.00,VWS V14.01,2013-01-18 15:44:00,
2013-01-18 09:45:00,27.0,23.3,28.61,SW,225,2.5,3.4,86,0.00,,---,0.00,VWS V14.01,2013-01-18 15:45:00,
2013-01-18 09:46:00,27.9,23.1,28.61,WSW,248,3.8,3.8,82,0.00,,---,0.00,VWS V14.01,2013-01-18 15:46:00,
2013-01-18 09:47:00,27.1,23.2,28.61,SW,225,3.8,3.8,85,0.00,,---,0.00,VWS V14.01,2013-01-18 15:47:00,
2013-01-18 09:48:00,27.1,23.2,28.61,SSW,202,4.0,4.0,85,0.00,,---,0.00,VWS V14.01,2013-01-18 15:48:00,
2013-01-18 09:49:00,27.5,23.6,28.61,WSW,248,4.3,4.3,85,0.00,,---,0.00,VWS V14.01,2013-01-18 15:49:00,
2013-01-18 09:50:00,27.5,23.3,28.61,SW,225,5.4,6.3,84,0.00,,---,0.00,VWS V14.01,2013-01-18 15:50:00,
2013-01-18 09:51:00,28.0,22.7,28.61,SW,225,4.3,4.3,80,0.00,,---,0.00,VWS V14.01,2013-01-18 15:51:00,
2013-01-18 09:52:00,27.7,23.2,28.61,SW,225,5.8,5.8,83,0.00,,---,0.00,VWS V14.01,2013-01-18 15:52:00,
2013-01-18 09:53:00,27.9,23.1,28.61,SW,225,6.0,6.0,82,0.00,,---,0.00,VWS V14.01,2013-01-18 15:53:00,
2013-01-18 09:54:00,27.9,23.1,28.61,WSW,248,3.8,6.0,82,0.00,,---,0.00,VWS V14.01,2013-01-18 15:54:00,
2013-01-18 09:55:00,27.9,22.8,28.61,WSW,248,4.7,5.4,81,0.00,,---,0.00,VWS V14.01,2013-01-18 15:55:00,
2013-01-18 09:56:00,28.4,22.7,28.61,SW,225,3.1,4.3,79,0.00,,---,0.00,VWS V14.01,2013-01-18 15:56:00,
2013-01-18 09:57:00,28.0,22.7,28.61,SW,225,3.6,4.0,80,0.00,,---,0.00,VWS V14.01,2013-01-18 15:57:00,
2013-01-18 09:58:00,28.0,22.7,28.61,SW,225,4.3,4.3,80,0.00,,---,0.00,VWS V14.01,2013-01-18 15:58:00,
2013-01-18 10:00:00,28.0,22.7,28.61,SW,225,4.3,4.3,80,0.00,,---,0.00,VWS V14.01,2013-01-18 16:00:00,
2013-01-18 10:01:00,28.8,22.5,28.61,SW,225,6.0,6.0,77,0.00,,---,0.00,VWS V14.01,2013-01-18 16:01:00,
2013-01-18 10:02:00,28.4,22.7,28.61,SSW,202,5.6,5.8,79,0.00,,---,0.00,VWS V14.01,2013-01-18 16:02:00,
2013-01-18 10:03:00,28.4,22.7,28.61,SSW,202,4.3,5.6,79,0.00,,---,0.00,VWS V14.01,2013-01-18 16:03:00,
2013-01-18 10:04:00,28.4,22.7,28.61,WSW,248,4.0,4.9,79,0.00,,---,0.00,VWS V14.01,2013-01-18 16:04:00,
2013-01-18 10:05:00,28.4,22.7,28.61,SSW,202,4.3,4.3,79,0.00,,---,0.00,VWS V14.01,2013-01-18 16:05:00,
2013-01-18 10:06:00,28.8,22.5,28.58,SSW,202,3.1,4.3,77,0.00,,---,0.00,VWS V14.01,2013-01-18 16:06:00,
2013-01-18 10:07:00,28.4,22.7,28.61,SW,225,5.8,7.2,79,0.00,,---,0.00,VWS V14.01,2013-01-18 16:07:00,
2013-01-18 10:08:00,28.8,22.8,28.61,SW,225,5.6,5.8,78,0.00,,---,0.00,VWS V14.01,2013-01-18 16:08:00,
2013-01-18 10:09:00,28.8,22.5,28.61,SW,225,5.4,6.0,77,0.00,,---,0.00,VWS V14.01,2013-01-18 16:09:00,
2013-01-18 10:10:00,28.8,22.5,28.61,SW,225,6.0,6.0,77,0.00,,---,0.00,VWS V14.01,2013-01-18 16:10:00,
2013-01-18 10:11:00,29.3,22.7,28.58,SW,225,2.9,3.6,76,0.00,,---,0.00,VWS V14.01,2013-01-18 16:11:00,
2013-01-18 10:12:00,28.8,22.5,28.58,SW,225,4.5,4.5,77,0.00,,---,0.00,VWS V14.01,2013-01-18 16:12:00,
2013-01-18 10:13:00,28.8,22.5,28.58,SW,225,4.3,5.8,77,0.00,,---,0.00,VWS V14.01,2013-01-18 16:13:00,
2013-01-18 10:14:00,28.8,22.5,28.58,SSW,202,3.1,4.3,77,0.00,,---,0.00,VWS V14.01,2013-01-18 16:14:00,
2013-01-18 10:15:00,28.8,22.5,28.58,SSW,202,3.1,3.1,77,0.00,,---,0.00,VWS V14.01,2013-01-18 16:15:00,
2013-01-18 10:16:00,29.7,22.7,28.58,SSW,202,4.0,4.9,75,0.00,,---,0.00,VWS V14.01,2013-01-18 16:16:00,
2013-01-18 10:17:00,29.3,22.7,28.58,SW,225,6.0,6.3,76,0.00,,---,0.00,VWS V14.01,2013-01-18 16:17:00,
2013-01-18 10:18:00,29.3,22.7,28.58,SW,225,5.8,7.4,76,0.00,,---,0.00,VWS V14.01,2013-01-18 16:18:00,
2013-01-18 10:19:00,29.3,22.7,28.58,South,180,3.6,6.5,76,0.00,,---,0.00,VWS V14.01,2013-01-18 16:19:00,
2013-01-18 10:20:00,29.3,22.7,28.58,SW,225,3.1,4.0,76,0.00,,---,0.00,VWS V14.01,2013-01-18 16:20:00,
2013-01-18 10:21:00,30.2,22.9,28.61,SW,225,4.9,7.6,74,0.00,,---,0.00,VWS V14.01,2013-01-18 16:21:00,
2013-01-18 10:22:00,29.5,22.5,28.58,SSW,202,5.4,5.6,75,0.00,,---,0.00,VWS V14.01,2013-01-18 16:22:00,
2013-01-18 10:23:00,29.5,22.5,28.58,SW,225,6.0,6.3,75,0.00,,---,0.00,VWS V14.01,2013-01-18 16:23:00,
2013-01-18 10:24:00,29.7,22.7,28.58,SSW,202,4.9,6.0,75,0.00,,---,0.00,VWS V14.01,2013-01-18 16:24:00,
2013-01-18 10:25:00,29.7,22.7,28.58,SSW,202,3.4,4.9,75,0.00,,---,0.00,VWS V14.01,2013-01-18 16:25:00,
2013-01-18 10:26:00,30.7,23.1,28.61,WSW,248,7.6,8.1,73,0.00,,---,0.00,VWS V14.01,2013-01-18 16:26:00,
2013-01-18 10:27:00,29.8,22.6,28.61,SW,225,7.8,7.8,74,0.00,,---,0.00,VWS V14.01,2013-01-18 16:27:00,
2013-01-18 10:28:00,30.0,22.8,28.61,SW,225,6.3,7.8,74,0.00,,---,0.00,VWS V14.01,2013-01-18 16:28:00,
2013-01-18 10:29:00,30.2,22.9,28.61,WSW,248,7.2,7.6,74,0.00,,---,0.00,VWS V14.01,2013-01-18 16:29:00,
2013-01-18 10:30:00,30.2,22.9,28.61,WSW,248,9.2,9.2,74,0.00,,---,0.00,VWS V14.01,2013-01-18 16:30:00,
2013-01-18 10:31:00,30.9,22.6,28.61,SW,225,10.7,10.7,71,0.00,,---,0.00,VWS V14.01,2013-01-18 16:31:00,
2013-01-18 10:32:00,30.6,23.0,28.61,SW,225,6.5,6.5,73,0.00,,---,0.00,VWS V14.01,2013-01-18 16:32:00,
2013-01-18 10:33:00,30.7,23.1,28.61,WSW,248,7.4,8.1,73,0.00,,---,0.00,VWS V14.01,2013-01-18 16:33:00,
2013-01-18 10:34:00,30.7,23.1,28.61,WSW,248,5.6,7.4,73,0.00,,---,0.00,VWS V14.01,2013-01-18 16:34:00,
2013-01-18 10:35:00,30.9,23.3,28.61,SW,225,7.2,8.1,73,0.00,,---,0.00,VWS V14.01,2013-01-18 16:35:00,
2013-01-18 10:36:00,31.3,23.0,28.58,SW,225,8.1,8.1,71,0.00,,---,0.00,VWS V14.01,2013-01-18 16:36:00,
2013-01-18 10:37:00,30.9,23.0,28.61,SW,225,7.6,8.7,72,0.00,,---,0.00,VWS V14.01,2013-01-18 16:37:00,
2013-01-18 10:38:00,30.9,22.6,28.61,SW,225,8.1,8.5,71,0.00,,---,0.00,VWS V14.01,2013-01-18 16:38:00,
2013-01-18 10:39:00,30.9,22.6,28.61,SW,225,7.6,8.1,71,0.00,,---,0.00,VWS V14.01,2013-01-18 16:39:00,
2013-01-18 10:40:00,31.1,22.8,28.61,SW,225,7.2,10.7,71,0.00,,---,0.00,VWS V14.01,2013-01-18 16:40:00,
2013-01-18 10:41:00,31.6,23.0,28.58,SW,225,8.7,8.7,70,0.00,,---,0.00,VWS V14.01,2013-01-18 16:41:00,
2013-01-18 10:42:00,31.1,22.8,28.58,SW,225,7.8,11.0,71,0.00,,---,0.00,VWS V14.01,2013-01-18 16:42:00,
2013-01-18 10:43:00,31.1,22.8,28.58,WSW,248,8.7,10.3,71,0.00,,---,0.00,VWS V14.01,2013-01-18 16:43:00,
2013-01-18 10:44:00,31.3,23.0,28.58,SW,225,8.1,8.7,71,0.00,,---,0.00,VWS V14.01,2013-01-18 16:44:00,
2013-01-18 10:45:00,31.3,22.6,28.58,SW,225,9.8,11.0,70,0.00,,---,0.00,VWS V14.01,2013-01-18 16:45:00,
2013-01-18 10:46:00,31.8,23.2,28.58,SW,225,10.5,10.5,70,0.00,,---,0.00,VWS V14.01,2013-01-18 16:46:00,
2013-01-18 10:47:00,31.5,22.8,28.58,SW,225,9.8,12.5,70,0.00,,---,0.00,VWS V14.01,2013-01-18 16:47:00,
2013-01-18 10:48:00,31.5,22.8,28.58,WSW,248,7.4,10.3,70,0.00,,---,0.00,VWS V14.01,2013-01-18 16:48:00,
2013-01-18 10:49:00,31.6,23.0,28.58,SW,225,6.0,8.1,70,0.00,,---,0.00,VWS V14.01,2013-01-18 16:49:00,
2013-01-18 10:50:00,31.6,23.0,28.58,SW,225,9.8,9.8,70,0.00,,---,0.00,VWS V14.01,2013-01-18 16:50:00,
2013-01-18 10:51:00,32.2,23.2,28.58,SW,225,9.2,10.1,69,0.00,,---,0.00,VWS V14.01,2013-01-18 16:51:00,
2013-01-18 10:52:00,31.8,23.2,28.58,SW,225,8.7,8.7,70,0.00,,---,0.00,VWS V14.01,2013-01-18 16:52:00,
2013-01-18 10:53:00,31.8,23.2,28.58,SW,225,8.1,8.7,70,0.00,,---,0.00,VWS V14.01,2013-01-18 16:53:00,
2013-01-18 10:54:00,31.8,23.2,28.58,SW,225,10.1,10.1,70,0.00,,---,0.00,VWS V14.01,2013-01-18 16:54:00,
2013-01-18 10:55:00,32.0,23.0,28.58,SW,225,9.8,10.5,69,0.00,,---,0.00,VWS V14.01,2013-01-18 16:55:00,
2013-01-18 10:56:00,32.5,23.2,28.58,WSW,248,8.5,8.7,68,0.00,,---,0.00,VWS V14.01,2013-01-18 16:56:00,
2013-01-18 10:57:00,32.2,23.2,28.58,SW,225,9.4,9.8,69,0.00,,---,0.00,VWS V14.01,2013-01-18 16:57:00,
2013-01-18 10:58:00,32.2,23.2,28.58,WSW,248,9.2,9.4,69,0.00,,---,0.00,VWS V14.01,2013-01-18 16:58:00,
2013-01-18 10:59:00,32.2,23.2,28.58,WSW,248,10.1,10.5,69,0.00,,---,0.00,VWS V14.01,2013-01-18 16:59:00,
2013-01-18 11:00:00,32.2,23.2,28.58,SW,225,9.2,10.1,69,0.00,,---,0.00,VWS V14.01,2013-01-18 17:00:00,
2013-01-18 11:01:00,32.7,23.0,28.58,WSW,248,8.5,8.5,67,0.00,,---,0.00,VWS V14.01,2013-01-18 17:01:00,
2013-01-18 11:02:00,32.4,23.3,28.58,SW,225,10.1,10.5,69,0.00,,---,0.00,VWS V14.01,2013-01-18 17:02:00,
2013-01-18 11:03:00,32.4,23.0,28.58,SW,225,9.4,10.1,68,0.00,,---,0.00,VWS V14.01,2013-01-18 17:03:00,
2013-01-18 11:04:00,32.4,23.0,28.58,SW,225,7.8,10.3,68,0.00,,---,0.00,VWS V14.01,2013-01-18 17:04:00,
2013-01-18 11:05:00,32.5,23.2,28.58,WSW,248,8.7,9.0,68,0.00,,---,0.00,VWS V14.01,2013-01-18 17:05:00,
2013-01-18 11:06:00,33.1,23.0,28.58,WSW,248,7.8,7.8,66,0.00,,---,0.00,VWS V14.01,2013-01-18 17:06:00,
2013-01-18 11:07:00,32.5,23.2,28.58,WSW,248,9.6,9.6,68,0.00,,---,0.00,VWS V14.01,2013-01-18 17:07:00,
2013-01-18 11:08:00,32.5,23.2,28.58,SW,225,7.6,9.6,68,0.00,,---,0.00,VWS V14.01,2013-01-18 17:08:00,
2013-01-18 11:09:00,32.7,23.0,28.58,WSW,248,7.8,8.1,67,0.00,,---,0.00,VWS V14.01,2013-01-18 17:09:00,
2013-01-18 11:10:00,32.9,23.2,28.58,WSW,248,9.2,9.2,67,0.00,,---,0.00,VWS V14.01,2013-01-18 17:10:00,
2013-01-18 11:11:00,33.8,22.5,28.58,WSW,248,6.5,6.5,63,0.00,,---,0.00,VWS V14.01,2013-01-18 17:11:00,
2013-01-18 11:12:00,33.1,23.0,28.58,WSW,248,8.5,8.7,66,0.00,,---,0.00,VWS V14.01,2013-01-18 17:12:00,
2013-01-18 11:13:00,33.1,23.0,28.58,WSW,248,9.2,9.2,66,0.00,,---,0.00,VWS V14.01,2013-01-18 17:13:00,
2013-01-18 11:14:00,33.1,23.0,28.58,WSW,248,7.8,9.2,66,0.00,,---,0.00,VWS V14.01,2013-01-18 17:14:00,
2013-01-18 11:15:00,33.1,23.0,28.58,WSW,248,7.8,7.8,66,0.00,,---,0.00,VWS V14.01,2013-01-18 17:15:00,
2013-01-18 11:16:00,34.0,22.7,28.58,WSW,248,7.4,8.5,63,0.00,,---,0.00,VWS V14.01,2013-01-18 17:16:00,
2013-01-18 11:17:00,33.4,22.6,28.58,WSW,248,7.2,8.5,64,0.00,,---,0.00,VWS V14.01,2013-01-18 17:17:00,
2013-01-18 11:18:00,33.6,22.8,28.58,WSW,248,6.5,7.6,64,0.00,,---,0.00,VWS V14.01,2013-01-18 17:18:00,
2013-01-18 11:19:00,33.6,22.8,28.58,WSW,248,6.0,6.5,64,0.00,,---,0.00,VWS V14.01,2013-01-18 17:19:00,
2013-01-18 11:20:00,33.8,22.6,28.58,WSW,248,6.0,6.5,63,0.00,,---,0.00,VWS V14.01,2013-01-18 17:20:00,
2013-01-18 11:21:00,34.3,22.7,28.55,WSW,248,7.4,7.4,62,0.00,,---,0.00,VWS V14.01,2013-01-18 17:21:00,
2013-01-18 11:22:00,34.0,22.7,28.58,WSW,248,6.0,7.4,63,0.00,,---,0.00,VWS V14.01,2013-01-18 17:22:00,
2013-01-18 11:23:00,34.0,22.7,28.58,WSW,248,7.6,7.6,63,0.00,,---,0.00,VWS V14.01,2013-01-18 17:23:00,
2013-01-18 11:24:00,34.0,22.7,28.58,WSW,248,8.5,8.5,63,0.00,,---,0.00,VWS V14.01,2013-01-18 17:24:00,
2013-01-18 11:26:00,34.9,22.8,28.55,WSW,248,5.6,6.0,61,0.00,,---,0.00,VWS V14.01,2013-01-18 17:26:00,
2013-01-18 11:27:00,34.3,22.7,28.55,SW,225,7.6,7.6,62,0.00,,---,0.00,VWS V14.01,2013-01-18 17:27:00,
2013-01-18 11:28:00,34.3,22.7,28.55,SW,225,8.1,8.7,62,0.00,,---,0.00,VWS V14.01,2013-01-18 17:28:00,
2013-01-18 11:29:00,34.3,22.7,28.55,WSW,248,6.9,8.1,62,0.00,,---,0.00,VWS V14.01,2013-01-18 17:29:00,
2013-01-18 11:30:00,34.3,22.7,28.55,WSW,248,7.2,7.4,62,0.00,,---,0.00,VWS V14.01,2013-01-18 17:30:00,
2013-01-18 11:31:00,34.7,22.2,28.55,WSW,248,6.5,6.5,60,0.00,,---,0.00,VWS V14.01,2013-01-18 17:31:00,
2013-01-18 11:32:00,34.5,22.5,28.55,WSW,248,6.5,7.6,61,0.00,,---,0.00,VWS V14.01,2013-01-18 17:32:00,
2013-01-18 11:33:00,34.5,22.5,28.55,WSW,248,5.8,6.5,61,0.00,,---,0.00,VWS V14.01,2013-01-18 17:33:00,
2013-01-18 11:34:00,34.7,22.6,28.55,WSW,248,5.4,7.2,61,0.00,,---,0.00,VWS V14.01,2013-01-18 17:34:00,
2013-01-18 11:35:00,34.9,22.8,28.55,WSW,248,6.0,6.0,61,0.00,,---,0.00,VWS V14.01,2013-01-18 17:35:00,
2013-01-18 11:36:00,34.7,22.2,28.55,West,270,7.6,7.6,60,0.00,,---,0.00,VWS V14.01,2013-01-18 17:36:00,
2013-01-18 11:37:00,34.7,22.2,28.55,WSW,248,6.0,6.3,60,0.00,,---,0.00,VWS V14.01,2013-01-18 17:37:00,
2013-01-18 11:38:00,34.7,22.2,28.55,WSW,248,6.0,6.3,60,0.00,,---,0.00,VWS V14.01,2013-01-18 17:38:00,
2013-01-18 11:39:00,34.7,22.2,28.55,WSW,248,5.4,6.0,60,0.00,,---,0.00,VWS V14.01,2013-01-18 17:39:00,
2013-01-18 11:40:00,34.5,21.7,28.55,WSW,248,6.5,6.5,59,0.00,,---,0.00,VWS V14.01,2013-01-18 17:40:00,
2013-01-18 11:41:00,34.3,21.9,28.55,SW,225,7.6,8.5,60,0.00,,---,0.00,VWS V14.01,2013-01-18 17:41:00,
2013-01-18 11:42:00,34.7,22.2,28.55,WSW,248,8.1,8.1,60,0.00,,---,0.00,VWS V14.01,2013-01-18 17:42:00,
2013-01-18 11:43:00,34.7,22.2,28.55,WSW,248,6.5,8.1,60,0.00,,---,0.00,VWS V14.01,2013-01-18 17:43:00,
2013-01-18 11:44:00,34.7,22.2,28.55,WSW,248,6.0,6.5,60,0.00,,---,0.00,VWS V14.01,2013-01-18 17:44:00,
2013-01-18 11:45:00,34.7,22.2,28.55,WSW,248,5.4,7.6,60,0.00,,---,0.00,VWS V14.01,2013-01-18 17:45:00,
2013-01-18 11:46:00,34.3,22.3,28.55,WSW,248,6.3,8.5,61,0.00,,---,0.00,VWS V14.01,2013-01-18 17:46:00,
2013-01-18 11:47:00,34.3,21.9,28.55,WSW,248,5.4,7.8,60,0.00,,---,0.00,VWS V14.01,2013-01-18 17:47:00,
2013-01-18 11:48:00,34.3,21.9,28.55,WSW,248,6.0,6.5,60,0.00,,---,0.00,VWS V14.01,2013-01-18 17:48:00,
2013-01-18 11:49:00,34.3,21.9,28.55,WSW,248,7.4,7.4,60,0.00,,---,0.00,VWS V14.01,2013-01-18 17:49:00,
2013-01-18 11:50:00,34.3,21.9,28.55,WSW,248,7.2,8.5,60,0.00,,---,0.00,VWS V14.01,2013-01-18 17:50:00,
2013-01-18 11:51:00,34.3,22.3,28.52,WSW,248,7.4,9.0,61,0.00,,---,0.00,VWS V14.01,2013-01-18 17:51:00,
2013-01-18 11:52:00,34.3,22.3,28.55,WSW,248,6.3,6.5,61,0.00,,---,0.00,VWS V14.01,2013-01-18 17:52:00,
2013-01-18 11:53:00,34.3,22.3,28.55,WSW,248,9.0,9.0,61,0.00,,---,0.00,VWS V14.01,2013-01-18 17:53:00,
2013-01-18 11:54:00,34.3,22.3,28.55,WSW,248,8.5,10.3,61,0.00,,---,0.00,VWS V14.01,2013-01-18 17:54:00,
2013-01-18 11:55:00,34.3,22.3,28.55,WNW,292,6.3,8.5,61,0.00,,---,0.00,VWS V14.01,2013-01-18 17:55:00,
2013-01-18 11:56:00,34.3,22.3,28.52,WSW,248,7.8,8.7,61,0.00,,---,0.00,VWS V14.01,2013-01-18 17:56:00,
2013-01-18 11:57:00,34.3,22.3,28.55,WSW,248,7.2,7.4,61,0.00,,---,0.00,VWS V14.01,2013-01-18 17:57:00,
2013-01-18 11:58:00,34.3,22.3,28.52,WSW,248,7.2,8.1,61,0.00,,---,0.00,VWS V14.01,2013-01-18 17:58:00,
2013-01-18 11:59:00,34.3,22.3,28.52,WSW,248,5.8,8.1,61,0.00,,---,0.00,VWS V14.01,2013-01-18 17:59:00,
2013-01-18 12:00:00,34.3,22.3,28.52,WSW,248,7.4,9.0,61,0.00,,---,0.00,VWS V14.01,2013-01-18 18:00:00,
2013-01-18 12:01:00,34.3,22.3,28.52,WSW,248,8.5,8.5,61,0.00,,---,0.00,VWS V14.01,2013-01-18 18:01:00,
2013-01-18 12:02:00,34.3,22.3,28.52,WNW,292,10.1,10.1,61,0.00,,---,0.00,VWS V14.01,2013-01-18 18:02:00,
2013-01-18 12:03:00,34.3,22.3,28.52,WSW,248,7.6,10.1,61,0.00,,---,0.00,VWS V14.01,2013-01-18 18:03:00,
2013-01-18 12:04:00,34.3,22.3,28.52,WNW,292,8.1,10.1,61,0.00,,---,0.00,VWS V14.01,2013-01-18 18:04:00,
2013-01-18 12:05:00,34.3,22.3,28.52,WSW,248,8.5,8.7,61,0.00,,---,0.00,VWS V14.01,2013-01-18 18:05:00,
2013-01-18 12:06:00,34.5,22.5,28.55,WSW,248,6.3,7.6,61,0.00,,---,0.00,VWS V14.01,2013-01-18 18:06:00,
2013-01-18 12:07:00,34.3,22.3,28.52,WSW,248,7.6,7.6,61,0.00,,---,0.00,VWS V14.01,2013-01-18 18:07:00,
2013-01-18 12:08:00,34.3,22.3,28.52,West,270,8.7,9.8,61,0.00,,---,0.00,VWS V14.01,2013-01-18 18:08:00,
2013-01-18 12:09:00,34.3,22.3,28.52,WNW,292,6.0,8.7,61,0.00,,---,0.00,VWS V14.01,2013-01-18 18:09:00,
2013-01-18 12:10:00,34.3,22.3,28.52,WSW,248,8.5,8.5,61,0.00,,---,0.00,VWS V14.01,2013-01-18 18:10:00,
2013-01-18 12:11:00,34.9,22.4,28.55,SW,225,6.5,8.7,60,0.00,,---,0.00,VWS V14.01,2013-01-18 18:11:00,
2013-01-18 12:12:00,34.3,22.3,28.55,WSW,248,8.1,9.8,61,0.00,,---,0.00,VWS V14.01,2013-01-18 18:12:00,
2013-01-18 12:13:00,34.5,22.5,28.55,WSW,248,10.3,12.1,61,0.00,,---,0.00,VWS V14.01,2013-01-18 18:13:00,
2013-01-18 12:14:00,34.5,22.5,28.55,West,270,7.6,10.3,61,0.00,,---,0.00,VWS V14.01,2013-01-18 18:14:00,
2013-01-18 12:15:00,34.5,22.5,28.55,WSW,248,7.8,7.8,61,0.00,,---,0.00,VWS V14.01,2013-01-18 18:15:00,
2013-01-18 12:16:00,34.9,22.4,28.55,West,270,5.4,7.4,60,0.00,,---,0.00,VWS V14.01,2013-01-18 18:16:00,
2013-01-18 12:17:00,34.7,22.6,28.55,WNW,292,8.1,8.1,61,0.00,,---,0.00,VWS V14.01,2013-01-18 18:17:00,
2013-01-18 12:18:00,34.9,22.8,28.55,WSW,248,6.0,8.5,61,0.00,,---,0.00,VWS V14.01,2013-01-18 18:18:00,
2013-01-18 12:19:00,34.9,22.4,28.55,WSW,248,8.7,10.7,60,0.00,,---,0.00,VWS V14.01,2013-01-18 18:19:00,
2013-01-18 12:20:00,34.9,22.4,28.55,SW,225,6.5,8.7,60,0.00,,---,0.00,VWS V14.01,2013-01-18 18:20:00,
2013-01-18 12:21:00,35.1,22.2,28.55,WSW,248,6.5,7.8,59,0.00,,---,0.00,VWS V14.01,2013-01-18 18:21:00,
2013-01-18 12:22:00,34.9,22.4,28.55,WSW,248,6.5,6.9,60,0.00,,---,0.00,VWS V14.01,2013-01-18 18:22:00,
2013-01-18 12:23:00,34.9,22.4,28.55,WSW,248,8.7,8.7,60,0.00,,---,0.00,VWS V14.01,2013-01-18 18:23:00,
2013-01-18 12:24:00,34.9,22.4,28.55,WSW,248,7.4,8.7,60,0.00,,---,0.00,VWS V14.01,2013-01-18 18:24:00,
2013-01-18 12:25:00,34.9,22.4,28.55,WSW,248,5.8,7.4,60,0.00,,---,0.00,VWS V14.01,2013-01-18 18:25:00,
2013-01-18 12:26:00,35.6,22.3,28.55,WSW,248,4.3,6.5,58,0.00,,---,0.00,VWS V14.01,2013-01-18 18:26:00,
2013-01-18 12:27:00,34.9,22.0,28.55,WSW,248,5.6,7.2,59,0.00,,---,0.00,VWS V14.01,2013-01-18 18:27:00,
2013-01-18 12:28:00,35.1,22.6,28.55,WSW,248,7.2,7.2,60,0.00,,---,0.00,VWS V14.01,2013-01-18 18:28:00,
2013-01-18 12:29:00,35.1,22.6,28.55,WSW,248,6.3,7.6,60,0.00,,---,0.00,VWS V14.01,2013-01-18 18:29:00,
2013-01-18 12:30:00,35.1,22.2,28.55,WSW,248,6.0,7.8,59,0.00,,---,0.00,VWS V14.01,2013-01-18 18:30:00,
2013-01-18 12:31:00,35.8,22.5,28.55,WSW,248,4.5,6.5,58,0.00,,---,0.00,VWS V14.01,2013-01-18 18:31:00,
2013-01-18 12:32:00,35.4,22.5,28.55,WSW,248,4.9,6.5,59,0.00,,---,0.00,VWS V14.01,2013-01-18 18:32:00,
2013-01-18 12:33:00,35.4,22.5,28.55,West,270,6.0,6.3,59,0.00,,---,0.00,VWS V14.01,2013-01-18 18:33:00,
2013-01-18 12:34:00,35.6,22.3,28.55,West,270,6.5,6.5,58,0.00,,---,0.00,VWS V14.01,2013-01-18 18:34:00,
2013-01-18 12:36:00,35.8,22.5,28.52,WSW,248,5.6,6.3,58,0.00,,---,0.00,VWS V14.01,2013-01-18 18:36:00,
2013-01-18 12:37:00,35.8,22.5,28.55,WSW,248,6.3,6.3,58,0.00,,---,0.00,VWS V14.01,2013-01-18 18:37:00,
2013-01-18 12:38:00,35.8,22.5,28.55,WSW,248,6.3,6.3,58,0.00,,---,0.00,VWS V14.01,2013-01-18 18:38:00,
2013-01-18 12:39:00,35.8,22.5,28.55,WSW,248,5.8,6.3,58,0.00,,---,0.00,VWS V14.01,2013-01-18 18:39:00,
2013-01-18 12:40:00,35.8,22.5,28.55,WSW,248,4.9,6.5,58,0.00,,---,0.00,VWS V14.01,2013-01-18 18:40:00,
2013-01-18 12:41:00,35.6,21.9,28.52,WNW,292,7.4,7.8,57,0.00,,---,0.00,VWS V14.01,2013-01-18 18:41:00,
2013-01-18 12:42:00,36.0,22.2,28.52,WSW,248,6.3,6.3,57,0.00,,---,0.00,VWS V14.01,2013-01-18 18:42:00,
2013-01-18 12:43:00,36.0,22.2,28.52,WSW,248,5.8,6.5,57,0.00,,---,0.00,VWS V14.01,2013-01-18 18:43:00,
2013-01-18 12:44:00,36.0,22.2,28.52,WNW,292,4.7,7.4,57,0.00,,---,0.00,VWS V14.01,2013-01-18 18:44:00,
2013-01-18 12:45:00,35.8,22.5,28.52,WSW,248,5.6,6.3,58,0.00,,---,0.00,VWS V14.01,2013-01-18 18:45:00,
2013-01-18 12:46:00,35.6,22.3,28.52,WSW,248,6.5,8.5,58,0.00,,---,0.00,VWS V14.01,2013-01-18 18:46:00,
2013-01-18 12:47:00,35.8,22.0,28.52,WSW,248,5.6,7.8,57,0.00,,---,0.00,VWS V14.01,2013-01-18 18:47:00,
2013-01-18 12:48:00,35.6,21.9,28.52,WSW,248,5.8,8.7,57,0.00,,---,0.00,VWS V14.01,2013-01-18 18:48:00,
2013-01-18 12:49:00,35.6,21.9,28.52,WSW,248,7.8,8.7,57,0.00,,---,0.00,VWS V14.01,2013-01-18 18:49:00,
2013-01-18 12:50:00,35.6,21.9,28.52,WNW,292,7.4,7.8,57,0.00,,---,0.00,VWS V14.01,2013-01-18 18:50:00,
2013-01-18 12:51:00,35.6,22.7,28.52,WNW,292,12.3,12.3,59,0.00,,---,0.00,VWS V14.01,2013-01-18 18:51:00,
2013-01-18 12:52:00,35.6,22.3,28.52,WSW,248,5.8,8.5,58,0.00,,---,0.00,VWS V14.01,2013-01-18 18:52:00,
2013-01-18 12:53:00,35.6,22.3,28.52,WSW,248,8.5,9.0,58,0.00,,---,0.00,VWS V14.01,2013-01-18 18:53:00,
2013-01-18 12:55:00,35.6,22.3,28.52,WSW,248,6.5,8.5,58,0.00,,---,0.00,VWS V14.01,2013-01-18 18:55:00,
2013-01-18 12:56:00,35.6,22.3,28.52,WSW,248,6.5,7.4,58,0.00,,---,0.00,VWS V14.01,2013-01-18 18:56:00,
2013-01-18 12:57:00,35.6,22.3,28.52,WSW,248,7.8,7.8,58,0.00,,---,0.00,VWS V14.01,2013-01-18 18:57:00,
2013-01-18 12:58:00,35.6,22.3,28.52,West,270,8.1,8.1,58,0.00,,---,0.00,VWS V14.01,2013-01-18 18:58:00,
2013-01-18 12:59:00,35.6,22.7,28.52,WNW,292,10.3,10.3,59,0.00,,---,0.00,VWS V14.01,2013-01-18 18:59:00,
2013-01-18 13:00:00,35.6,22.7,28.52,WNW,292,12.3,12.3,59,0.00,,---,0.00,VWS V14.01,2013-01-18 19:00:00,
2013-01-18 13:01:00,35.6,22.3,28.52,WNW,292,10.5,13.0,58,0.00,,---,0.00,VWS V14.01,2013-01-18 19:01:00,
2013-01-18 13:02:00,35.4,22.9,28.52,WSW,248,7.2,7.4,60,0.00,,---,0.00,VWS V14.01,2013-01-18 19:02:00,
2013-01-18 13:03:00,35.6,22.3,28.52,WSW,248,8.1,10.1,58,0.00,,---,0.00,VWS V14.01,2013-01-18 19:03:00,
2013-01-18 13:04:00,35.6,22.3,28.52,WNW,292,7.6,8.1,58,0.00,,---,0.00,VWS V14.01,2013-01-18 19:04:00,
2013-01-18 13:05:00,35.6,22.3,28.52,WSW,248,7.8,7.8,58,0.00,,---,0.00,VWS V14.01,2013-01-18 19:05:00,
2013-01-18 13:06:00,35.6,22.3,28.52,WSW,248,8.5,9.8,58,0.00,,---,0.00,VWS V14.01,2013-01-18 19:06:00,
2013-01-18 13:07:00,35.6,22.7,28.52,WSW,248,6.0,6.0,59,0.00,,---,0.00,VWS V14.01,2013-01-18 19:07:00,
2013-01-18 13:08:00,35.6,22.3,28.52,WSW,248,7.4,7.4,58,0.00,,---,0.00,VWS V14.01,2013-01-18 19:08:00,
2013-01-18 13:09:00,35.4,22.9,28.52,West,270,4.9,8.5,60,0.00,,---,0.00,VWS V14.01,2013-01-18 19:09:00,
2013-01-18 13:10:00,35.4,22.9,28.52,WSW,248,7.4,7.4,60,0.00,,---,0.00,VWS V14.01,2013-01-18 19:10:00,
2013-01-18 13:11:00,35.4,22.9,28.52,WSW,248,6.5,7.8,60,0.00,,---,0.00,VWS V14.01,2013-01-18 19:11:00,
2013-01-18 13:12:00,35.6,22.7,28.52,WNW,292,8.7,12.1,59,0.00,,---,0.00,VWS V14.01,2013-01-18 19:12:00,
2013-01-18 13:13:00,35.6,23.1,28.52,WSW,248,6.5,8.5,60,0.00,,---,0.00,VWS V14.01,2013-01-18 19:13:00,
2013-01-18 13:14:00,35.6,22.7,28.52,WSW,248,5.6,7.8,59,0.00,,---,0.00,VWS V14.01,2013-01-18 19:14:00,
2013-01-18 13:15:00,35.6,22.7,28.52,WSW,248,6.0,6.3,59,0.00,,---,0.00,VWS V14.01,2013-01-18 19:15:00,
2013-01-18 13:16:00,35.6,23.1,28.52,WSW,248,6.5,6.5,60,0.00,,---,0.00,VWS V14.01,2013-01-18 19:16:00,
2013-01-18 13:17:00,35.6,22.7,28.52,West,270,10.7,10.7,59,0.00,,---,0.00,VWS V14.01,2013-01-18 19:17:00,
2013-01-18 13:18:00,35.6,23.1,28.52,West,270,7.8,8.7,60,0.00,,---,0.00,VWS V14.01,2013-01-18 19:18:00,
2013-01-18 13:19:00,35.6,22.7,28.52,West,270,12.1,13.0,59,0.00,,---,0.00,VWS V14.01,2013-01-18 19:19:00,
2013-01-18 13:20:00,35.6,22.7,28.52,WNW,292,8.7,12.1,59,0.00,,---,0.00,VWS V14.01,2013-01-18 19:20:00,
2013-01-18 13:21:00,35.8,22.9,28.52,WSW,248,6.3,8.7,59,0.00,,---,0.00,VWS V14.01,2013-01-18 19:21:00,
2013-01-18 13:22:00,35.6,22.7,28.52,WSW,248,6.9,6.9,59,0.00,,---,0.00,VWS V14.01,2013-01-18 19:22:00,
2013-01-18 13:23:00,35.8,22.9,28.52,WSW,248,8.7,8.7,59,0.00,,---,0.00,VWS V14.01,2013-01-18 19:23:00,
2013-01-18 13:24:00,35.6,22.7,28.52,West,270,9.6,9.6,59,0.00,,---,0.00,VWS V14.01,2013-01-18 19:24:00,
2013-01-18 13:25:00,35.6,22.7,28.52,WNW,292,9.6,9.6,59,0.00,,---,0.00,VWS V14.01,2013-01-18 19:25:00,
2013-01-18 13:26:00,35.6,22.3,28.52,WSW,248,12.3,13.2,58,0.00,,---,0.00,VWS V14.01,2013-01-18 19:26:00,
2013-01-18 13:27:00,35.8,22.9,28.52,West,270,8.1,8.1,59,0.00,,---,0.00,VWS V14.01,2013-01-18 19:27:00,
2013-01-18 13:28:00,35.6,22.7,28.52,WSW,248,9.8,10.7,59,0.00,,---,0.00,VWS V14.01,2013-01-18 19:28:00,
2013-01-18 13:29:00,35.6,22.7,28.52,West,270,12.1,12.1,59,0.00,,---,0.00,VWS V14.01,2013-01-18 19:29:00,
2013-01-18 13:30:00,35.6,22.7,28.52,WSW,248,5.6,12.3,59,0.00,,---,0.00,VWS V14.01,2013-01-18 19:30:00,
2013-01-18 13:31:00,35.6,22.7,28.52,SSW,202,10.3,10.3,59,0.00,,---,0.00,VWS V14.01,2013-01-18 19:31:00,
2013-01-18 13:32:00,36.3,23.0,28.52,WNW,292,7.4,7.4,58,0.00,,---,0.00,VWS V14.01,2013-01-18 19:32:00,
2013-01-18 13:33:00,35.6,22.3,28.52,WNW,292,11.2,12.1,58,0.00,,---,0.00,VWS V14.01,2013-01-18 19:33:00,
2013-01-18 13:34:00,35.8,22.9,28.52,West,270,8.1,11.2,59,0.00,,---,0.00,VWS V14.01,2013-01-18 19:34:00,
2013-01-18 13:35:00,35.8,22.9,28.52,West,270,8.1,8.1,59,0.00,,---,0.00,VWS V14.01,2013-01-18 19:35:00,
2013-01-18 13:36:00,36.0,23.0,28.52,West,270,7.6,8.7,59,0.00,,---,0.00,VWS V14.01,2013-01-18 19:36:00,
2013-01-18 13:37:00,36.1,22.8,28.52,WSW,248,10.1,10.1,58,0.00,,---,0.00,VWS V14.01,2013-01-18 19:37:00,
2013-01-18 13:38:00,36.3,23.4,28.52,WSW,248,8.7,8.7,59,0.00,,---,0.00,VWS V14.01,2013-01-18 19:38:00,
2013-01-18 13:40:00,36.3,23.0,28.52,WSW,248,5.8,8.7,58,0.00,,---,0.00,VWS V14.01,2013-01-18 19:40:00,
2013-01-18 13:41:00,36.3,23.0,28.52,NNW,338,8.1,8.1,58,0.00,,---,0.00,VWS V14.01,2013-01-18 19:41:00,
2013-01-18 13:42:00,36.3,23.4,28.52,WSW,248,5.4,5.4,59,0.00,,---,0.00,VWS V14.01,2013-01-18 19:42:00,
2013-01-18 13:43:00,36.1,22.8,28.52,WSW,248,5.4,7.4,58,0.00,,---,0.00,VWS V14.01,2013-01-18 19:43:00,
2013-01-18 13:44:00,36.1,22.8,28.52,West,270,10.7,10.7,58,0.00,,---,0.00,VWS V14.01,2013-01-18 19:44:00,
2013-01-18 13:45:00,36.1,22.8,28.52,WNW,292,6.3,10.7,58,0.00,,---,0.00,VWS V14.01,2013-01-18 19:45:00,
2013-01-18 13:46:00,36.1,22.8,28.52,WSW,248,9.4,10.5,58,0.00,,---,0.00,VWS V14.01,2013-01-18 19:46:00,
2013-01-18 13:47:00,36.7,23.7,28.52,WSW,248,6.9,7.4,59,0.00,,---,0.00,VWS V14.01,2013-01-18 19:47:00,
2013-01-18 13:48:00,36.1,22.8,28.52,WNW,292,5.6,7.6,58,0.00,,---,0.00,VWS V14.01,2013-01-18 19:48:00,
2013-01-18 13:49:00,36.1,23.2,28.52,West,270,7.4,7.4,59,0.00,,---,0.00,VWS V14.01,2013-01-18 19:49:00,
2013-01-18 13:50:00,36.3,23.4,28.52,WSW,248,5.4,7.4,59,0.00,,---,0.00,VWS V14.01,2013-01-18 19:50:00,
2013-01-18 13:51:00,36.3,23.0,28.52,WSW,248,5.4,6.0,58,0.00,,---,0.00,VWS V14.01,2013-01-18 19:51:00,
2013-01-18 13:52:00,36.3,22.6,28.52,WNW,292,10.1,10.1,57,0.00,,---,0.00,VWS V14.01,2013-01-18 19:52:00,
2013-01-18 13:53:00,36.5,23.5,28.52,WSW,248,6.0,8.1,59,0.00,,---,0.00,VWS V14.01,2013-01-18 19:53:00,
2013-01-18 13:54:00,36.5,23.1,28.52,NNW,338,5.4,6.7,58,0.00,,---,0.00,VWS V14.01,2013-01-18 19:54:00,
2013-01-18 13:55:00,36.7,23.3,28.52,WNW,292,7.4,7.4,58,0.00,,---,0.00,VWS V14.01,2013-01-18 19:55:00,
2013-01-18 13:56:00,36.7,23.3,28.52,WSW,248,6.9,7.4,58,0.00,,---,0.00,VWS V14.01,2013-01-18 19:56:00,
2013-01-18 13:57:00,36.3,23.0,28.52,WSW,248,6.0,6.0,58,0.00,,---,0.00,VWS V14.01,2013-01-18 19:57:00,
2013-01-18 13:58:00,36.5,22.7,28.52,WSW,248,5.8,8.5,57,0.00,,---,0.00,VWS V14.01,2013-01-18 19:58:00,
2013-01-18 13:59:00,36.5,22.7,28.52,WSW,248,7.2,8.1,57,0.00,,---,0.00,VWS V14.01,2013-01-18 19:59:00,
2013-01-18 14:00:00,36.3,22.6,28.52,WNW,292,10.1,10.1,57,0.00,,---,0.00,VWS V14.01,2013-01-18 20:00:00,
2013-01-18 14:01:00,36.3,22.6,28.52,West,270,5.6,10.1,57,0.00,,---,0.00,VWS V14.01,2013-01-18 20:01:00,
2013-01-18 14:02:00,36.3,22.6,28.52,WNW,292,7.6,9.8,57,0.00,,---,0.00,VWS V14.01,2013-01-18 20:02:00,
2013-01-18 14:03:00,36.3,22.6,28.52,WSW,248,6.0,6.0,57,0.00,,---,0.00,VWS V14.01,2013-01-18 20:03:00,
2013-01-18 14:04:00,36.3,22.6,28.52,WSW,248,6.5,7.2,57,0.00,,---,0.00,VWS V14.01,2013-01-18 20:04:00,
2013-01-18 14:05:00,36.3,23.0,28.52,WSW,248,6.0,8.5,58,0.00,,---,0.00,VWS V14.01,2013-01-18 20:05:00,
2013-01-18 14:06:00,36.3,23.0,28.52,WNW,292,8.7,8.7,58,0.00,,---,0.00,VWS V14.01,2013-01-18 20:06:00,
2013-01-18 14:07:00,36.1,22.4,28.52,WNW,292,6.3,8.7,57,0.00,,---,0.00,VWS V14.01,2013-01-18 20:07:00,
2013-01-18 14:08:00,36.3,23.0,28.52,WSW,248,7.8,7.8,58,0.00,,---,0.00,VWS V14.01,2013-01-18 20:08:00,
2013-01-18 14:09:00,36.3,22.6,28.52,SSW,202,6.0,7.8,57,0.00,,---,0.00,VWS V14.01,2013-01-18 20:09:00,
2013-01-18 14:10:00,36.3,22.6,28.52,WSW,248,6.0,7.4,57,0.00,,---,0.00,VWS V14.01,2013-01-18 20:10:00,
2013-01-18 14:11:00,36.3,23.0,28.52,WSW,248,8.7,9.8,58,0.00,,---,0.00,VWS V14.01,2013-01-18 20:11:00,
2013-01-18 14:12:00,36.3,23.0,28.52,WNW,292,6.5,6.9,58,0.00,,---,0.00,VWS V14.01,2013-01-18 20:12:00,
2013-01-18 14:13:00,36.3,23.0,28.52,West,270,11.4,12.3,58,0.00,,---,0.00,VWS V14.01,2013-01-18 20:13:00,
2013-01-18 14:14:00,36.3,23.0,28.52,WSW,248,7.8,11.4,58,0.00,,---,0.00,VWS V14.01,2013-01-18 20:14:00,
2013-01-18 14:15:00,36.3,22.6,28.52,WSW,248,8.5,9.0,57,0.00,,---,0.00,VWS V14.01,2013-01-18 20:15:00,
2013-01-18 14:16:00,36.1,22.4,28.52,WNW,292,8.5,8.7,57,0.00,,---,0.00,VWS V14.01,2013-01-18 20:16:00,
2013-01-18 14:17:00,36.0,22.6,28.52,WNW,292,7.2,7.8,58,0.00,,---,0.00,VWS V14.01,2013-01-18 20:17:00,
2013-01-18 14:18:00,36.3,23.0,28.52,WSW,248,7.2,8.1,58,0.00,,---,0.00,VWS V14.01,2013-01-18 20:18:00,
2013-01-18 14:19:00,36.1,22.4,28.52,WNW,292,7.6,10.7,57,0.00,,---,0.00,VWS V14.01,2013-01-18 20:19:00,
2013-01-18 14:20:00,36.3,23.0,28.52,NNW,338,6.9,8.7,58,0.00,,---,0.00,VWS V14.01,2013-01-18 20:20:00,
2013-01-18 14:21:00,36.3,23.0,28.52,NNW,338,9.8,9.8,58,0.00,,---,0.00,VWS V14.01,2013-01-18 20:21:00,
2013-01-18 14:22:00,35.6,22.7,28.52,WSW,248,6.3,11.2,59,0.00,,---,0.00,VWS V14.01,2013-01-18 20:22:00,
2013-01-18 14:23:00,36.1,22.8,28.52,West,270,8.1,9.8,58,0.00,,---,0.00,VWS V14.01,2013-01-18 20:23:00,
2013-01-18 14:24:00,36.1,22.8,28.52,WNW,292,8.7,10.3,58,0.00,,---,0.00,VWS V14.01,2013-01-18 20:24:00,
2013-01-18 14:25:00,36.1,22.8,28.52,SW,225,7.8,8.7,58,0.00,,---,0.00,VWS V14.01,2013-01-18 20:25:00,
2013-01-18 14:26:00,35.8,22.9,28.52,WNW,292,8.1,10.7,59,0.00,,---,0.00,VWS V14.01,2013-01-18 20:26:00,
2013-01-18 14:27:00,35.2,22.8,28.52,WSW,248,6.5,10.3,60,0.00,,---,0.00,VWS V14.01,2013-01-18 20:27:00,
2013-01-18 14:28:00,35.8,22.9,28.52,WSW,248,7.6,10.3,59,0.00,,---,0.00,VWS V14.01,2013-01-18 20:28:00,
2013-01-18 14:29:00,35.6,22.7,28.52,West,270,8.7,8.7,59,0.00,,---,0.00,VWS V14.01,2013-01-18 20:29:00,
2013-01-18 14:30:00,35.6,22.7,28.52,WNW,292,11.2,11.2,59,0.00,,---,0.00,VWS V14.01,2013-01-18 20:30:00,
2013-01-18 14:31:00,35.6,22.7,28.52,WNW,292,8.5,11.2,59,0.00,,---,0.00,VWS V14.01,2013-01-18 20:31:00,
2013-01-18 14:32:00,34.9,23.2,28.52,West,270,7.6,7.6,62,0.00,,---,0.00,VWS V14.01,2013-01-18 20:32:00,
2013-01-18 14:33:00,35.4,22.9,28.52,WSW,248,8.5,10.3,60,0.00,,---,0.00,VWS V14.01,2013-01-18 20:33:00,
2013-01-18 14:34:00,35.2,22.8,28.52,WSW,248,8.1,8.5,60,0.00,,---,0.00,VWS V14.01,2013-01-18 20:34:00,
2013-01-18 14:35:00,35.2,22.8,28.52,WSW,248,10.3,10.3,60,0.00,,---,0.00,VWS V14.01,2013-01-18 20:35:00,
2013-01-18 14:36:00,35.2,22.8,28.52,WSW,248,6.3,10.3,60,0.00,,---,0.00,VWS V14.01,2013-01-18 20:36:00,
2013-01-18 14:37:00,34.9,23.6,28.55,WNW,292,7.8,7.8,63,0.00,,---,0.00,VWS V14.01,2013-01-18 20:37:00,
2013-01-18 14:38:00,35.1,23.0,28.52,West,270,8.1,8.5,61,0.00,,---,0.00,VWS V14.01,2013-01-18 20:38:00,
2013-01-18 14:40:00,34.9,23.2,28.52,WNW,292,6.0,8.1,62,0.00,,---,0.00,VWS V14.01,2013-01-18 20:40:00,
2013-01-18 14:41:00,34.9,23.2,28.52,WSW,248,6.3,8.1,62,0.00,,---,0.00,VWS V14.01,2013-01-18 20:41:00,
2013-01-18 14:42:00,34.9,23.6,28.55,West,270,6.3,7.6,63,0.00,,---,0.00,VWS V14.01,2013-01-18 20:42:00,
2013-01-18 14:43:00,34.7,23.4,28.55,WSW,248,7.2,7.8,63,0.00,,---,0.00,VWS V14.01,2013-01-18 20:43:00,
2013-01-18 14:44:00,34.7,23.4,28.55,WSW,248,7.6,8.5,63,0.00,,---,0.00,VWS V14.01,2013-01-18 20:44:00,
2013-01-18 14:45:00,34.9,23.6,28.55,WNW,292,4.3,8.5,63,0.00,,---,0.00,VWS V14.01,2013-01-18 20:45:00,
2013-01-18 14:46:00,34.9,23.6,28.55,WSW,248,5.6,7.8,63,0.00,,---,0.00,VWS V14.01,2013-01-18 20:46:00,
2013-01-18 14:47:00,35.1,23.8,28.55,NNW,338,7.8,10.1,63,0.00,,---,0.00,VWS V14.01,2013-01-18 20:47:00,
2013-01-18 14:48:00,34.7,23.4,28.55,NNW,338,8.1,9.4,63,0.00,,---,0.00,VWS V14.01,2013-01-18 20:48:00,
2013-01-18 14:49:00,34.9,23.6,28.55,WNW,292,6.5,10.3,63,0.00,,---,0.00,VWS V14.01,2013-01-18 20:49:00,
2013-01-18 14:50:00,34.9,23.6,28.55,WNW,292,6.5,7.8,63,0.00,,---,0.00,VWS V14.01,2013-01-18 20:50:00,
2013-01-18 14:51:00,34.9,23.6,28.55,WSW,248,6.5,7.8,63,0.00,,---,0.00,VWS V14.01,2013-01-18 20:51:00,
2013-01-18 14:52:00,36.0,24.2,28.55,West,270,6.5,10.7,62,0.00,,---,0.00,VWS V14.01,2013-01-18 20:52:00,
2013-01-18 14:53:00,35.1,23.8,28.55,WNW,292,7.8,8.5,63,0.00,,---,0.00,VWS V14.01,2013-01-18 20:53:00,
2013-01-18 14:54:00,35.1,23.8,28.55,WSW,248,7.4,8.5,63,0.00,,---,0.00,VWS V14.01,2013-01-18 20:54:00,
2013-01-18 14:55:00,35.1,23.8,28.55,WSW,248,10.1,10.1,63,0.00,,---,0.00,VWS V14.01,2013-01-18 20:55:00,
2013-01-18 14:56:00,35.1,23.8,28.55,West,270,7.8,10.1,63,0.00,,---,0.00,VWS V14.01,2013-01-18 20:56:00,
2013-01-18 14:57:00,36.5,24.3,28.55,WNW,292,7.8,8.7,61,0.00,,---,0.00,VWS V14.01,2013-01-18 20:57:00,
2013-01-18 14:58:00,35.1,23.8,28.55,WSW,248,7.8,7.8,63,0.00,,---,0.00,VWS V14.01,2013-01-18 20:58:00,
2013-01-18 14:59:00,35.6,23.9,28.55,West,270,7.4,10.1,62,0.00,,---,0.00,VWS V14.01,2013-01-18 20:59:00,
2013-01-18 15:00:00,35.8,24.0,28.55,WNW,292,10.7,10.7,62,0.00,,---,0.00,VWS V14.01,2013-01-18 21:00:00,
2013-01-18 15:01:00,36.0,24.2,28.55,WNW,292,6.9,10.7,62,0.00,,---,0.00,VWS V14.01,2013-01-18 21:01:00,
2013-01-18 15:02:00,36.3,23.8,28.55,WNW,292,8.7,9.8,60,0.00,,---,0.00,VWS V14.01,2013-01-18 21:02:00,
2013-01-18 15:03:00,36.1,24.4,28.55,NNW,338,8.1,8.1,62,0.00,,---,0.00,VWS V14.01,2013-01-18 21:03:00,
2013-01-18 15:04:00,36.3,24.2,28.55,NNW,338,10.1,10.1,61,0.00,,---,0.00,VWS V14.01,2013-01-18 21:04:00,
2013-01-18 15:05:00,36.5,24.3,28.55,WNW,292,6.3,10.7,61,0.00,,---,0.00,VWS V14.01,2013-01-18 21:05:00,
2013-01-18 15:06:00,36.7,24.5,28.55,WNW,292,6.5,8.7,61,0.00,,---,0.00,VWS V14.01,2013-01-18 21:06:00,
2013-01-18 15:07:00,36.0,23.4,28.55,NW,315,10.3,10.3,60,0.00,,---,0.00,VWS V14.01,2013-01-18 21:07:00,
2013-01-18 15:08:00,36.5,24.0,28.55,WNW,292,12.5,12.8,60,0.00,,---,0.00,VWS V14.01,2013-01-18 21:08:00,
2013-01-18 15:09:00,36.5,24.0,28.55,WSW,248,8.7,12.5,60,0.00,,---,0.00,VWS V14.01,2013-01-18 21:09:00,
2013-01-18 15:10:00,36.3,23.8,28.55,WNW,292,7.6,9.8,60,0.00,,---,0.00,VWS V14.01,2013-01-18 21:10:00,
2013-01-18 15:11:00,36.3,23.8,28.55,West,270,7.6,9.8,60,0.00,,---,0.00,VWS V14.01,2013-01-18 21:11:00,
2013-01-18 15:12:00,35.8,23.7,28.55,West,270,8.5,8.5,61,0.00,,---,0.00,VWS V14.01,2013-01-18 21:12:00,
2013-01-18 15:13:00,36.1,23.6,28.55,NNW,338,13.0,13.0,60,0.00,,---,0.00,VWS V14.01,2013-01-18 21:13:00,
2013-01-18 15:14:00,36.1,23.6,28.55,West,270,11.0,13.0,60,0.00,,---,0.00,VWS V14.01,2013-01-18 21:14:00,
2013-01-18 15:15:00,36.0,23.4,28.55,West,270,7.6,11.0,60,0.00,,---,0.00,VWS V14.01,2013-01-18 21:15:00,
2013-01-18 15:16:00,36.0,23.4,28.55,WNW,292,8.7,10.3,60,0.00,,---,0.00,VWS V14.01,2013-01-18 21:16:00,
2013-01-18 15:17:00,36.1,24.0,28.55,WNW,292,9.6,9.6,61,0.00,,---,0.00,VWS V14.01,2013-01-18 21:17:00,
2013-01-18 15:18:00,35.8,23.3,28.55,NNE,22,6.3,10.3,60,0.00,,---,0.00,VWS V14.01,2013-01-18 21:18:00,
2013-01-18 15:19:00,35.8,23.7,28.55,WSW,248,9.0,9.0,61,0.00,,---,0.00,VWS V14.01,2013-01-18 21:19:00,
2013-01-18 15:20:00,35.8,23.7,28.55,WNW,292,6.7,11.9,61,0.00,,---,0.00,VWS V14.01,2013-01-18 21:20:00,
2013-01-18 15:21:00,35.8,23.7,28.55,WNW,292,7.8,8.5,61,0.00,,---,0.00,VWS V14.01,2013-01-18 21:21:00,
2013-01-18 15:22:00,36.5,24.0,28.58,WSW,248,6.0,6.0,60,0.00,,---,0.00,VWS V14.01,2013-01-18 21:22:00,
2013-01-18 15:23:00,35.8,23.7,28.55,WNW,292,8.5,12.1,61,0.00,,---,0.00,VWS V14.01,2013-01-18 21:23:00,
2013-01-18 15:24:00,36.0,23.8,28.55,WSW,248,5.6,8.5,61,0.00,,---,0.00,VWS V14.01,2013-01-18 21:24:00,
2013-01-18 15:25:00,36.1,24.0,28.55,WSW,248,8.7,8.7,61,0.00,,---,0.00,VWS V14.01,2013-01-18 21:25:00,
2013-01-18 15:26:00,36.1,24.0,28.55,WSW,248,9.6,9.6,61,0.00,,---,0.00,VWS V14.01,2013-01-18 21:26:00,
2013-01-18 15:27:00,36.9,23.9,28.58,WSW,248,7.2,7.4,59,0.00,,---,0.00,VWS V14.01,2013-01-18 21:27:00,
2013-01-18 15:28:00,36.3,23.8,28.58,WSW,248,5.8,8.5,60,0.00,,---,0.00,VWS V14.01,2013-01-18 21:28:00,
2013-01-18 15:29:00,36.5,24.0,28.58,WSW,248,7.4,9.6,60,0.00,,---,0.00,VWS V14.01,2013-01-18 21:29:00,
2013-01-18 15:30:00,36.5,24.0,28.58,West,270,6.0,7.4,60,0.00,,---,0.00,VWS V14.01,2013-01-18 21:30:00,
2013-01-18 15:31:00,36.5,24.0,28.58,SW,225,7.6,7.6,60,0.00,,---,0.00,VWS V14.01,2013-01-18 21:31:00,
2013-01-18 15:32:00,36.9,23.9,28.58,WNW,292,6.0,7.2,59,0.00,,---,0.00,VWS V14.01,2013-01-18 21:32:00,
2013-01-18 15:33:00,36.9,24.3,28.58,West,270,5.8,7.4,60,0.00,,---,0.00,VWS V14.01,2013-01-18 21:33:00,
2013-01-18 15:34:00,36.9,23.9,28.58,West,270,6.0,6.3,59,0.00,,---,0.00,VWS V14.01,2013-01-18 21:34:00,
2013-01-18 15:35:00,36.9,23.9,28.58,WNW,292,7.4,8.7,59,0.00,,---,0.00,VWS V14.01,2013-01-18 21:35:00,
2013-01-18 15:36:00,37.0,24.1,28.58,WSW,248,7.8,7.8,59,0.00,,---,0.00,VWS V14.01,2013-01-18 21:36:00,
2013-01-18 15:37:00,36.9,23.9,28.55,SW,225,5.4,8.1,59,0.00,,---,0.00,VWS V14.01,2013-01-18 21:37:00,
2013-01-18 15:38:00,37.0,24.1,28.58,SW,225,5.8,8.1,59,0.00,,---,0.00,VWS V14.01,2013-01-18 21:38:00,
2013-01-18 15:39:00,37.0,24.1,28.58,WNW,292,6.0,6.0,59,0.00,,---,0.00,VWS V14.01,2013-01-18 21:39:00,
2013-01-18 15:40:00,36.9,23.9,28.58,West,270,6.5,7.8,59,0.00,,---,0.00,VWS V14.01,2013-01-18 21:40:00,
2013-01-18 15:41:00,36.9,23.9,28.58,WNW,292,7.8,7.8,59,0.00,,---,0.00,VWS V14.01,2013-01-18 21:41:00,
2013-01-18 15:42:00,37.0,24.1,28.55,WNW,292,8.7,8.7,59,0.00,,---,0.00,VWS V14.01,2013-01-18 21:42:00,
2013-01-18 15:43:00,36.9,23.9,28.55,WSW,248,5.6,10.7,59,0.00,,---,0.00,VWS V14.01,2013-01-18 21:43:00,
2013-01-18 15:45:00,36.9,23.9,28.55,WSW,248,7.8,8.1,59,0.00,,---,0.00,VWS V14.01,2013-01-18 21:45:00,
2013-01-18 15:46:00,36.9,23.9,28.55,West,270,5.6,8.1,59,0.00,,---,0.00,VWS V14.01,2013-01-18 21:46:00,
2013-01-18 15:47:00,36.9,24.3,28.55,West,270,6.0,9.4,60,0.00,,---,0.00,VWS V14.01,2013-01-18 21:47:00,
2013-01-18 15:48:00,37.0,24.1,28.55,WNW,292,4.9,11.4,59,0.00,,---,0.00,VWS V14.01,2013-01-18 21:48:00,
2013-01-18 15:49:00,37.0,24.1,28.55,WSW,248,9.6,9.6,59,0.00,,---,0.00,VWS V14.01,2013-01-18 21:49:00,
2013-01-18 15:50:00,37.0,24.1,28.55,WSW,248,6.5,9.6,59,0.00,,---,0.00,VWS V14.01,2013-01-18 21:50:00,
2013-01-18 15:51:00,37.0,24.1,28.55,WNW,292,7.6,8.7,59,0.00,,---,0.00,VWS V14.01,2013-01-18 21:51:00,
2013-01-18 15:52:00,36.7,24.1,28.55,West,270,9.4,10.3,60,0.00,,---,0.00,VWS V14.01,2013-01-18 21:52:00,
2013-01-18 15:53:00,36.9,23.9,28.55,West,270,6.3,7.4,59,0.00,,---,0.00,VWS V14.01,2013-01-18 21:53:00,
2013-01-18 15:54:00,37.0,24.5,28.55,SW,225,6.0,8.1,60,0.00,,---,0.00,VWS V14.01,2013-01-18 21:54:00,
2013-01-18 15:55:00,36.9,24.3,28.55,WSW,248,9.4,9.4,60,0.00,,---,0.00,VWS V14.01,2013-01-18 21:55:00,
2013-01-18 15:56:00,36.9,24.3,28.55,WNW,292,6.5,9.4,60,0.00,,---,0.00,VWS V14.01,2013-01-18 21:56:00,
2013-01-18 15:57:00,36.7,24.5,28.55,WNW,292,7.4,7.4,61,0.00,,---,0.00,VWS V14.01,2013-01-18 21:57:00,
2013-01-18 15:58:00,36.7,24.1,28.55,WNW,292,7.6,7.6,60,0.00,,---,0.00,VWS V14.01,2013-01-18 21:58:00,
2013-01-18 15:59:00,36.7,24.1,28.55,WNW,292,9.8,10.7,60,0.00,,---,0.00,VWS V14.01,2013-01-18 21:59:00,
2013-01-18 16:00:00,36.7,24.1,28.55,WNW,292,4.9,9.8,60,0.00,,---,0.00,VWS V14.01,2013-01-18 22:00:00,
2013-01-18 16:01:00,36.7,24.1,28.55,West,270,10.3,10.3,60,0.00,,---,0.00,VWS V14.01,2013-01-18 22:01:00,
2013-01-18 16:02:00,36.9,24.7,28.55,West,270,12.1,12.1,61,0.00,,---,0.00,VWS V14.01,2013-01-18 22:02:00,
2013-01-18 16:04:00,36.7,24.5,28.55,West,270,9.8,9.8,61,0.00,,---,0.00,VWS V14.01,2013-01-18 22:04:00,
2013-01-18 16:05:00,36.7,24.5,28.55,WNW,292,7.4,9.8,61,0.00,,---,0.00,VWS V14.01,2013-01-18 22:05:00,
2013-01-18 16:06:00,36.7,24.5,28.55,WNW,292,7.2,7.4,61,0.00,,---,0.00,VWS V14.01,2013-01-18 22:06:00,
2013-01-18 16:07:00,37.0,24.5,28.55,South,180,4.9,8.5,60,0.00,,---,0.00,VWS V14.01,2013-01-18 22:07:00,
2013-01-18 16:08:00,36.7,24.5,28.55,WNW,292,6.0,9.8,61,0.00,,---,0.00,VWS V14.01,2013-01-18 22:08:00,
2013-01-18 16:09:00,36.7,24.5,28.55,WNW,292,7.6,11.4,61,0.00,,---,0.00,VWS V14.01,2013-01-18 22:09:00,
2013-01-18 16:10:00,36.7,24.5,28.55,WNW,292,9.0,10.1,61,0.00,,---,0.00,VWS V14.01,2013-01-18 22:10:00,
2013-01-18 16:11:00,36.9,24.7,28.55,WNW,292,10.1,12.1,61,0.00,,---,0.00,VWS V14.01,2013-01-18 22:11:00,
2013-01-18 16:12:00,36.7,24.5,28.55,WSW,248,8.5,8.7,61,0.00,,---,0.00,VWS V14.01,2013-01-18 22:12:00,
2013-01-18 16:13:00,37.0,24.5,28.55,WNW,292,8.7,10.5,60,0.00,,---,0.00,VWS V14.01,2013-01-18 22:13:00,
2013-01-18 16:14:00,37.0,24.9,28.55,WSW,248,5.8,10.1,61,0.00,,---,0.00,VWS V14.01,2013-01-18 22:14:00,
2013-01-18 16:15:00,37.0,24.5,28.55,WSW,248,6.0,12.1,60,0.00,,---,0.00,VWS V14.01,2013-01-18 22:15:00,
2013-01-18 16:16:00,37.0,24.5,28.55,South,180,4.9,8.5,60,0.00,,---,0.00,VWS V14.01,2013-01-18 22:16:00,
2013-01-18 16:17:00,36.1,24.4,28.55,WNW,292,10.5,10.5,62,0.00,,---,0.00,VWS V14.01,2013-01-18 22:17:00,
2013-01-18 16:18:00,36.9,24.7,28.55,West,270,7.6,7.6,61,0.00,,---,0.00,VWS V14.01,2013-01-18 22:18:00,
2013-01-18 16:19:00,36.9,24.7,28.55,WNW,292,9.0,9.8,61,0.00,,---,0.00,VWS V14.01,2013-01-18 22:19:00,
2013-01-18 16:20:00,36.7,24.5,28.55,West,270,8.7,9.8,61,0.00,,---,0.00,VWS V14.01,2013-01-18 22:20:00,
2013-01-18 16:21:00,36.7,24.5,28.55,WSW,248,8.5,8.7,61,0.00,,---,0.00,VWS V14.01,2013-01-18 22:21:00,
2013-01-18 16:22:00,35.8,24.4,28.58,SSW,202,7.8,10.1,63,0.00,,---,0.00,VWS V14.01,2013-01-18 22:22:00,
2013-01-18 16:23:00,36.3,24.2,28.55,WSW,248,7.8,7.8,61,0.00,,---,0.00,VWS V14.01,2013-01-18 22:23:00,
2013-01-18 16:24:00,36.3,24.2,28.55,WNW,292,6.9,7.8,61,0.00,,---,0.00,VWS V14.01,2013-01-18 22:24:00,
2013-01-18 16:25:00,36.3,24.2,28.55,WSW,248,5.4,11.9,61,0.00,,---,0.00,VWS V14.01,2013-01-18 22:25:00,
2013-01-18 16:27:00,35.6,24.6,28.58,WNW,292,9.4,10.3,64,0.00,,---,0.00,VWS V14.01,2013-01-18 22:27:00,
2013-01-18 16:28:00,36.0,24.2,28.55,WSW,248,8.5,10.5,62,0.00,,---,0.00,VWS V14.01,2013-01-18 22:28:00,
2013-01-18 16:29:00,36.0,24.2,28.58,West,270,5.8,8.5,62,0.00,,---,0.00,VWS V14.01,2013-01-18 22:29:00,
2013-01-18 16:30:00,35.8,24.4,28.58,WSW,248,10.1,10.1,63,0.00,,---,0.00,VWS V14.01,2013-01-18 22:30:00,
2013-01-18 16:31:00,35.8,24.4,28.58,SSW,202,7.8,10.1,63,0.00,,---,0.00,VWS V14.01,2013-01-18 22:31:00,
2013-01-18 16:32:00,35.6,25.0,28.58,West,270,5.4,9.8,65,0.00,,---,0.00,VWS V14.01,2013-01-18 22:32:00,
2013-01-18 16:33:00,35.6,24.3,28.58,WNW,292,6.5,8.5,63,0.00,,---,0.00,VWS V14.01,2013-01-18 22:33:00,
2013-01-18 16:34:00,35.6,24.6,28.58,West,270,10.1,10.1,64,0.00,,---,0.00,VWS V14.01,2013-01-18 22:34:00,
2013-01-18 16:35:00,35.6,24.6,28.58,WNW,292,10.3,10.3,64,0.00,,---,0.00,VWS V14.01,2013-01-18 22:35:00,
2013-01-18 16:36:00,35.6,24.6,28.58,WNW,292,9.4,10.3,64,0.00,,---,0.00,VWS V14.01,2013-01-18 22:36:00,
2013-01-18 16:37:00,35.4,24.8,28.55,WSW,248,5.8,8.5,65,0.00,,---,0.00,VWS V14.01,2013-01-18 22:37:00,
2013-01-18 16:38:00,35.6,25.0,28.58,WNW,292,8.5,9.2,65,0.00,,---,0.00,VWS V14.01,2013-01-18 22:38:00,
2013-01-18 16:39:00,35.6,25.0,28.58,WSW,248,4.9,8.7,65,0.00,,---,0.00,VWS V14.01,2013-01-18 22:39:00,
2013-01-18 16:40:00,35.6,25.0,28.58,WNW,292,8.7,8.7,65,0.00,,---,0.00,VWS V14.01,2013-01-18 22:40:00,
2013-01-18 16:41:00,35.6,25.0,28.58,West,270,5.4,9.8,65,0.00,,---,0.00,VWS V14.01,2013-01-18 22:41:00,
2013-01-18 16:42:00,34.9,24.7,28.55,WNW,292,8.1,10.3,66,0.00,,---,0.00,VWS V14.01,2013-01-18 22:42:00,
2013-01-18 16:43:00,35.6,25.0,28.55,WNW,292,8.7,10.1,65,0.00,,---,0.00,VWS V14.01,2013-01-18 22:43:00,
2013-01-18 16:44:00,35.6,25.0,28.55,WSW,248,11.0,11.0,65,0.00,,---,0.00,VWS V14.01,2013-01-18 22:44:00,
2013-01-18 16:45:00,35.4,24.8,28.55,WNW,292,7.8,11.0,65,0.00,,---,0.00,VWS V14.01,2013-01-18 22:45:00,
2013-01-18 16:46:00,35.4,24.8,28.55,WNW,292,5.6,8.5,65,0.00,,---,0.00,VWS V14.01,2013-01-18 22:46:00,
2013-01-18 16:47:00,34.7,24.9,28.55,WNW,292,6.3,9.8,67,0.00,,---,0.00,VWS V14.01,2013-01-18 22:47:00,
2013-01-18 16:48:00,35.1,24.5,28.55,WNW,292,9.6,9.6,65,0.00,,---,0.00,VWS V14.01,2013-01-18 22:48:00,
2013-01-18 16:49:00,35.1,24.5,28.55,WNW,292,6.0,9.6,65,0.00,,---,0.00,VWS V14.01,2013-01-18 22:49:00,
2013-01-18 16:50:00,34.9,24.7,28.55,West,270,5.8,8.7,66,0.00,,---,0.00,VWS V14.01,2013-01-18 22:50:00,
2013-01-18 16:51:00,34.9,24.7,28.55,WNW,292,8.1,10.3,66,0.00,,---,0.00,VWS V14.01,2013-01-18 22:51:00,
2013-01-18 16:52:00,34.5,25.1,28.55,WNW,292,10.5,13.0,68,0.00,,---,0.00,VWS V14.01,2013-01-18 22:52:00,
2013-01-18 16:53:00,34.7,24.9,28.55,WNW,292,8.7,12.1,67,0.00,,---,0.00,VWS V14.01,2013-01-18 22:53:00,
2013-01-18 16:54:00,34.9,25.0,28.55,WSW,248,7.4,8.7,67,0.00,,---,0.00,VWS V14.01,2013-01-18 22:54:00,
2013-01-18 16:55:00,34.7,24.9,28.55,NNW,338,6.0,7.4,67,0.00,,---,0.00,VWS V14.01,2013-01-18 22:55:00,
2013-01-18 16:56:00,34.7,24.9,28.55,WNW,292,6.3,9.8,67,0.00,,---,0.00,VWS V14.01,2013-01-18 22:56:00,
2013-01-18 16:57:00,34.0,24.5,28.55,West,270,6.5,8.7,68,0.00,,---,0.00,VWS V14.01,2013-01-18 22:57:00,
2013-01-18 16:58:00,34.5,25.1,28.55,WNW,292,6.0,10.5,68,0.00,,---,0.00,VWS V14.01,2013-01-18 22:58:00,
2013-01-18 16:59:00,34.5,25.1,28.55,WNW,292,7.4,12.3,68,0.00,,---,0.00,VWS V14.01,2013-01-18 22:59:00,
2013-01-18 17:00:00,34.5,25.1,28.55,West,270,5.6,11.0,68,0.00,,---,0.00,VWS V14.01,2013-01-18 23:00:00,
2013-01-18 17:01:00,34.5,25.1,28.55,WNW,292,10.5,13.0,68,0.00,,---,0.00,VWS V14.01,2013-01-18 23:01:00,
2013-01-18 17:02:00,33.6,24.9,28.55,WSW,248,5.8,5.8,70,0.00,,---,0.00,VWS V14.01,2013-01-18 23:02:00,
2013-01-18 17:03:00,34.3,24.9,28.55,WNW,292,5.4,11.0,68,0.00,,---,0.00,VWS V14.01,2013-01-18 23:03:00,
2013-01-18 17:04:00,34.3,24.9,28.55,NNW,338,6.0,7.4,68,0.00,,---,0.00,VWS V14.01,2013-01-18 23:04:00,
2013-01-18 17:05:00,34.0,24.5,28.55,West,270,5.6,7.8,68,0.00,,---,0.00,VWS V14.01,2013-01-18 23:05:00,
2013-01-18 17:06:00,34.0,24.5,28.55,West,270,8.7,10.3,68,0.00,,---,0.00,VWS V14.01,2013-01-18 23:06:00,
2013-01-18 17:07:00,34.0,24.9,28.55,WSW,248,7.6,9.2,69,0.00,,---,0.00,VWS V14.01,2013-01-18 23:07:00,
2013-01-18 17:08:00,33.3,24.5,28.55,WSW,248,3.4,3.4,70,0.00,,---,0.00,VWS V14.01,2013-01-18 23:08:00,
2013-01-18 17:09:00,33.8,24.7,28.55,WNW,292,7.6,8.1,69,0.00,,---,0.00,VWS V14.01,2013-01-18 23:09:00,
2013-01-18 17:10:00,33.8,24.7,28.55,West,270,5.8,9.6,69,0.00,,---,0.00,VWS V14.01,2013-01-18 23:10:00,
2013-01-18 17:11:00,33.6,24.9,28.55,WSW,248,5.8,5.8,70,0.00,,---,0.00,VWS V14.01,2013-01-18 23:11:00,
2013-01-18 17:12:00,33.6,24.9,28.55,West,270,5.8,6.3,70,0.00,,---,0.00,VWS V14.01,2013-01-18 23:12:00,
2013-01-18 17:13:00,33.1,24.7,28.55,West,270,7.4,7.4,71,0.00,,---,0.00,VWS V14.01,2013-01-18 23:13:00,
2013-01-18 17:14:00,33.4,24.7,28.55,WNW,292,6.3,8.7,70,0.00,,---,0.00,VWS V14.01,2013-01-18 23:14:00,
2013-01-18 17:15:00,33.3,24.5,28.55,WNW,292,7.4,9.8,70,0.00,,---,0.00,VWS V14.01,2013-01-18 23:15:00,
2013-01-18 17:16:00,33.3,24.5,28.55,North,0,3.4,7.4,70,0.00,,---,0.00,VWS V14.01,2013-01-18 23:16:00,
2013-01-18 17:17:00,33.1,24.4,28.55,WSW,248,5.8,7.6,70,0.00,,---,0.00,VWS V14.01,2013-01-18 23:17:00,
2013-01-18 17:18:00,32.7,24.7,28.55,WNW,292,6.3,6.3,72,0.00,,---,0.00,VWS V14.01,2013-01-18 23:18:00,
2013-01-18 17:19:00,33.1,24.4,28.55,WNW,292,5.4,5.4,70,0.00,,---,0.00,VWS V14.01,2013-01-18 23:19:00,
2013-01-18 17:20:00,33.1,24.7,28.55,WSW,248,4.9,7.2,71,0.00,,---,0.00,VWS V14.01,2013-01-18 23:20:00,
2013-01-18 17:21:00,33.1,24.7,28.55,West,270,7.4,7.6,71,0.00,,---,0.00,VWS V14.01,2013-01-18 23:21:00,
2013-01-18 17:22:00,32.9,24.5,28.55,WSW,248,6.3,7.4,71,0.00,,---,0.00,VWS V14.01,2013-01-18 23:22:00,
2013-01-18 17:23:00,32.4,24.0,28.55,West,270,6.5,6.5,71,0.00,,---,0.00,VWS V14.01,2013-01-18 23:23:00,
2013-01-18 17:24:00,32.9,24.5,28.55,NW,315,6.0,7.4,71,0.00,,---,0.00,VWS V14.01,2013-01-18 23:24:00,
2013-01-18 17:25:00,32.7,24.4,28.55,WNW,292,6.5,7.6,71,0.00,,---,0.00,VWS V14.01,2013-01-18 23:25:00,
2013-01-18 17:26:00,32.7,24.4,28.55,NW,315,6.0,7.8,71,0.00,,---,0.00,VWS V14.01,2013-01-18 23:26:00,
2013-01-18 17:27:00,32.5,24.2,28.55,WNW,292,4.3,6.3,71,0.00,,---,0.00,VWS V14.01,2013-01-18 23:27:00,
2013-01-18 17:28:00,32.2,24.2,28.55,WNW,292,5.8,6.5,72,0.00,,---,0.00,VWS V14.01,2013-01-18 23:28:00,
2013-01-18 17:29:00,32.5,24.2,28.55,WNW,292,3.8,4.3,71,0.00,,---,0.00,VWS V14.01,2013-01-18 23:29:00,
2013-01-18 17:30:00,32.5,24.2,28.55,WNW,292,6.5,6.5,71,0.00,,---,0.00,VWS V14.01,2013-01-18 23:30:00,
2013-01-18 17:31:00,32.4,24.0,28.55,West,270,5.8,7.6,71,0.00,,---,0.00,VWS V14.01,2013-01-18 23:31:00,
2013-01-18 17:32:00,32.2,23.9,28.55,WNW,292,5.6,6.5,71,0.00,,---,0.00,VWS V14.01,2013-01-18 23:32:00,
2013-01-18 17:33:00,31.8,23.8,28.55,WNW,292,4.3,4.3,72,0.00,,---,0.00,VWS V14.01,2013-01-18 23:33:00,
2013-01-18 17:34:00,32.2,24.2,28.55,WNW,292,6.3,6.5,72,0.00,,---,0.00,VWS V14.01,2013-01-18 23:34:00,
2013-01-18 17:35:00,32.2,24.2,28.55,WNW,292,6.5,6.5,72,0.00,,---,0.00,VWS V14.01,2013-01-18 23:35:00,
2013-01-18 17:37:00,32.2,24.2,28.55,NW,315,5.4,6.5,72,0.00,,---,0.00,VWS V14.01,2013-01-18 23:37:00,
2013-01-18 17:38:00,31.6,24.0,28.55,West,270,5.4,6.0,73,0.00,,---,0.00,VWS V14.01,2013-01-18 23:38:00,
2013-01-18 17:39:00,32.2,24.5,28.55,West,270,4.0,6.0,73,0.00,,---,0.00,VWS V14.01,2013-01-18 23:39:00,
2013-01-18 17:40:00,32.2,24.5,28.55,WNW,292,3.8,4.0,73,0.00,,---,0.00,VWS V14.01,2013-01-18 23:40:00,
2013-01-18 17:41:00,31.8,23.8,28.55,WNW,292,4.3,4.3,72,0.00,,---,0.00,VWS V14.01,2013-01-18 23:41:00,
2013-01-18 17:42:00,31.8,23.8,28.55,West,270,5.8,7.6,72,0.00,,---,0.00,VWS V14.01,2013-01-18 23:42:00,
2013-01-18 17:43:00,31.5,23.8,28.55,West,270,3.6,3.8,73,0.00,,---,0.00,VWS V14.01,2013-01-18 23:43:00,
2013-01-18 17:44:00,31.6,23.7,28.55,WSW,248,5.4,6.5,72,0.00,,---,0.00,VWS V14.01,2013-01-18 23:44:00,
2013-01-18 17:45:00,31.6,24.0,28.55,West,270,3.6,5.4,73,0.00,,---,0.00,VWS V14.01,2013-01-18 23:45:00,
2013-01-18 17:46:00,31.6,24.0,28.55,West,270,3.6,7.2,73,0.00,,---,0.00,VWS V14.01,2013-01-18 23:46:00,
2013-01-18 17:47:00,31.6,24.0,28.55,WNW,292,5.4,6.0,73,0.00,,---,0.00,VWS V14.01,2013-01-18 23:47:00,
2013-01-18 17:48:00,30.6,22.6,28.58,SW,225,3.4,3.4,72,0.00,,---,0.00,VWS V14.01,2013-01-18 23:48:00,
2013-01-18 17:49:00,31.5,23.8,28.55,WSW,248,5.4,5.4,73,0.00,,---,0.00,VWS V14.01,2013-01-18 23:49:00,
2013-01-18 17:50:00,31.5,23.8,28.55,WSW,248,3.6,5.4,73,0.00,,---,0.00,VWS V14.01,2013-01-18 23:50:00,
2013-01-18 17:51:00,31.5,23.8,28.55,West,270,3.6,3.8,73,0.00,,---,0.00,VWS V14.01,2013-01-18 23:51:00,
2013-01-18 17:52:00,31.5,23.8,28.55,West,270,3.6,3.6,73,0.00,,---,0.00,VWS V14.01,2013-01-18 23:52:00,
2013-01-18 17:53:00,29.7,22.1,28.58,SW,225,3.4,3.4,73,0.00,,---,0.00,VWS V14.01,2013-01-18 23:53:00,
2013-01-18 17:54:00,31.3,23.6,28.55,SW,225,2.0,3.6,73,0.00,,---,0.00,VWS V14.01,2013-01-18 23:54:00,
2013-01-18 17:55:00,30.9,23.3,28.55,SW,225,2.9,3.1,73,0.00,,---,0.00,VWS V14.01,2013-01-18 23:55:00,
2013-01-18 17:56:00,30.7,22.8,28.55,SW,225,3.1,3.1,72,0.00,,---,0.00,VWS V14.01,2013-01-18 23:56:00,
2013-01-18 17:57:00,30.6,22.6,28.58,WSW,248,3.1,3.4,72,0.00,,---,0.00,VWS V14.01,2013-01-18 23:57:00,
2013-01-18 17:58:00,29.1,22.2,28.58,WSW,248,3.8,3.8,75,0.00,,---,0.00,VWS V14.01,2013-01-18 23:58:00,
2013-01-18 17:59:00,30.2,22.6,28.58,SW,225,3.4,3.4,73,0.00,,---,0.00,VWS V14.01,2013-01-18 23:59:00,
2013-01-18 18:00:00,30.2,22.6,28.58,SW,225,3.1,3.6,73,0.00,,---,0.00,VWS V14.01,2013-01-19 00:00:00,
2013-01-18 18:01:00,29.7,22.1,28.58,SW,225,3.4,3.4,73,0.00,,---,0.00,VWS V14.01,2013-01-19 00:01:00,
2013-01-18 18:02:00,29.7,22.4,28.58,SW,225,3.6,3.6,74,0.00,,---,0.00,VWS V14.01,2013-01-19 00:02:00,
2013-01-18 18:03:00,28.9,22.3,28.58,WSW,248,3.6,3.8,76,0.00,,---,0.00,VWS V14.01,2013-01-19 00:03:00,
2013-01-18 18:04:00,29.5,22.2,28.58,WSW,248,3.8,4.0,74,0.00,,---,0.00,VWS V14.01,2013-01-19 00:04:00,
2013-01-18 18:05:00,29.3,22.1,28.58,WSW,248,4.0,4.3,74,0.00,,---,0.00,VWS V14.01,2013-01-19 00:05:00,
2013-01-18 18:06:00,29.1,22.2,28.58,WSW,248,3.8,4.3,75,0.00,,---,0.00,VWS V14.01,2013-01-19 00:06:00,
2013-01-18 18:07:00,29.1,22.2,28.58,WSW,248,3.8,3.8,75,0.00,,---,0.00,VWS V14.01,2013-01-19 00:07:00,
2013-01-18 18:08:00,29.3,23.6,28.58,WSW,248,3.4,4.3,79,0.00,,---,0.00,VWS V14.01,2013-01-19 00:08:00,
2013-01-18 18:09:00,28.8,21.9,28.58,WSW,248,3.1,3.4,75,0.00,,---,0.00,VWS V14.01,2013-01-19 00:09:00,
2013-01-18 18:10:00,28.8,21.9,28.58,WSW,248,3.1,3.1,75,0.00,,---,0.00,VWS V14.01,2013-01-19 00:10:00,
2013-01-18 18:11:00,28.8,21.9,28.58,WSW,248,3.6,3.6,75,0.00,,---,0.00,VWS V14.01,2013-01-19 00:11:00,
2013-01-18 18:12:00,28.9,22.3,28.58,WSW,248,3.4,3.8,76,0.00,,---,0.00,VWS V14.01,2013-01-19 00:12:00,
2013-01-18 18:13:00,29.5,24.1,28.58,West,270,4.3,4.3,80,0.00,,---,0.00,VWS V14.01,2013-01-19 00:13:00,
2013-01-18 18:14:00,29.1,23.1,28.58,WSW,248,4.3,5.4,78,0.00,,---,0.00,VWS V14.01,2013-01-19 00:14:00,
2013-01-18 18:15:00,29.3,23.3,28.58,WSW,248,4.0,4.3,78,0.00,,---,0.00,VWS V14.01,2013-01-19 00:15:00,
2013-01-18 18:17:00,29.3,23.6,28.58,West,270,4.5,4.5,79,0.00,,---,0.00,VWS V14.01,2013-01-19 00:17:00,
2013-01-18 18:18:00,29.5,24.4,28.58,WSW,248,3.4,4.5,81,0.00,,---,0.00,VWS V14.01,2013-01-19 00:18:00,
2013-01-18 18:19:00,29.5,24.1,28.58,WSW,248,3.8,4.7,80,0.00,,---,0.00,VWS V14.01,2013-01-19 00:19:00,
2013-01-18 18:20:00,29.5,24.1,28.58,WSW,248,3.4,5.4,80,0.00,,---,0.00,VWS V14.01,2013-01-19 00:20:00,
2013-01-18 18:21:00,29.5,24.1,28.58,WNW,292,3.4,4.0,80,0.00,,---,0.00,VWS V14.01,2013-01-19 00:21:00,
2013-01-18 18:22:00,29.5,24.1,28.58,WSW,248,3.4,4.3,80,0.00,,---,0.00,VWS V14.01,2013-01-19 00:22:00,
2013-01-18 18:23:00,29.5,24.1,28.58,WSW,248,4.7,5.4,80,0.00,,---,0.00,VWS V14.01,2013-01-19 00:23:00,
2013-01-18 18:24:00,29.5,24.4,28.58,WSW,248,4.0,4.3,81,0.00,,---,0.00,VWS V14.01,2013-01-19 00:24:00,
2013-01-18 18:25:00,29.5,24.4,28.58,WSW,248,4.5,4.5,81,0.00,,---,0.00,VWS V14.01,2013-01-19 00:25:00,
2013-01-18 18:26:00,29.5,24.4,28.58,WSW,248,4.5,4.5,81,0.00,,---,0.00,VWS V14.01,2013-01-19 00:26:00,
2013-01-18 18:27:00,29.5,24.4,28.58,WSW,248,4.0,4.5,81,0.00,,---,0.00,VWS V14.01,2013-01-19 00:27:00,
2013-01-18 18:28:00,29.3,23.9,28.58,WSW,248,4.9,4.9,80,0.00,,---,0.00,VWS V14.01,2013-01-19 00:28:00,
2013-01-18 18:29:00,29.5,24.4,28.58,WSW,248,4.3,5.4,81,0.00,,---,0.00,VWS V14.01,2013-01-19 00:29:00,
2013-01-18 18:30:00,29.5,24.4,28.58,WNW,292,5.6,5.6,81,0.00,,---,0.00,VWS V14.01,2013-01-19 00:30:00,
2013-01-18 18:31:00,29.5,24.4,28.58,WSW,248,4.0,5.6,81,0.00,,---,0.00,VWS V14.01,2013-01-19 00:31:00,
2013-01-18 18:32:00,29.5,24.1,28.58,WSW,248,4.7,5.4,80,0.00,,---,0.00,VWS V14.01,2013-01-19 00:32:00,
2013-01-18 18:33:00,29.1,24.0,28.58,WSW,248,4.9,4.9,81,0.00,,---,0.00,VWS V14.01,2013-01-19 00:33:00,
2013-01-18 18:34:00,29.5,24.1,28.58,WSW,248,4.3,5.6,80,0.00,,---,0.00,VWS V14.01,2013-01-19 00:34:00,
2013-01-18 18:35:00,29.5,24.1,28.58,WSW,248,4.9,4.9,80,0.00,,---,0.00,VWS V14.01,2013-01-19 00:35:00,
2013-01-18 18:36:00,29.3,23.9,28.58,WSW,248,4.9,4.9,80,0.00,,---,0.00,VWS V14.01,2013-01-19 00:36:00,
2013-01-18 18:37:00,29.3,23.9,28.58,WSW,248,4.0,4.9,80,0.00,,---,0.00,VWS V14.01,2013-01-19 00:37:00,
2013-01-18 18:38:00,28.8,23.7,28.58,West,270,4.0,4.7,81,0.00,,---,0.00,VWS V14.01,2013-01-19 00:38:00,
2013-01-18 18:40:00,29.3,23.9,28.58,West,270,3.8,4.9,80,0.00,,---,0.00,VWS V14.01,2013-01-19 00:40:00,
2013-01-18 18:41:00,29.1,23.7,28.58,WSW,248,4.0,4.9,80,0.00,,---,0.00,VWS V14.01,2013-01-19 00:41:00,
2013-01-18 18:42:00,29.1,24.0,28.58,WSW,248,5.4,5.4,81,0.00,,---,0.00,VWS V14.01,2013-01-19 00:42:00,
2013-01-18 18:43:00,28.6,23.2,28.58,WSW,248,3.6,3.6,80,0.00,,---,0.00,VWS V14.01,2013-01-19 00:43:00,
2013-01-18 18:44:00,29.1,24.0,28.58,WSW,248,5.4,5.6,81,0.00,,---,0.00,VWS V14.01,2013-01-19 00:44:00,
2013-01-18 18:45:00,28.9,23.9,28.58,WSW,248,5.8,5.8,81,0.00,,---,0.00,VWS V14.01,2013-01-19 00:45:00,
2013-01-18 18:46:00,28.9,23.9,28.58,WSW,248,4.7,5.8,81,0.00,,---,0.00,VWS V14.01,2013-01-19 00:46:00,
2013-01-18 18:47:00,28.8,23.7,28.58,WSW,248,3.8,4.7,81,0.00,,---,0.00,VWS V14.01,2013-01-19 00:47:00,
2013-01-18 18:48:00,27.5,21.9,28.58,West,270,4.9,5.6,79,0.00,,---,0.00,VWS V14.01,2013-01-19 00:48:00,
2013-01-18 18:49:00,28.6,23.2,28.58,WSW,248,3.1,4.3,80,0.00,,---,0.00,VWS V14.01,2013-01-19 00:49:00,
2013-01-18 18:50:00,28.6,23.2,28.58,WNW,292,4.0,4.7,80,0.00,,---,0.00,VWS V14.01,2013-01-19 00:50:00,
2013-01-18 18:51:00,28.6,23.2,28.58,WSW,248,3.6,4.3,80,0.00,,---,0.00,VWS V14.01,2013-01-19 00:51:00,
2013-01-18 18:52:00,28.6,23.2,28.58,WSW,248,3.6,3.6,80,0.00,,---,0.00,VWS V14.01,2013-01-19 00:52:00,
2013-01-18 18:53:00,27.3,22.0,28.58,WSW,248,3.4,4.7,80,0.00,,---,0.00,VWS V14.01,2013-01-19 00:53:00,
2013-01-18 18:54:00,27.9,22.5,28.58,WSW,248,3.6,4.3,80,0.00,,---,0.00,VWS V14.01,2013-01-19 00:54:00,
2013-01-18 18:55:00,27.7,22.0,28.58,WSW,248,5.4,5.4,79,0.00,,---,0.00,VWS V14.01,2013-01-19 00:55:00,
2013-01-18 18:56:00,27.7,22.0,28.58,WSW,248,5.6,5.6,79,0.00,,---,0.00,VWS V14.01,2013-01-19 00:56:00,
2013-01-18 18:57:00,27.5,21.9,28.58,West,270,4.3,5.6,79,0.00,,---,0.00,VWS V14.01,2013-01-19 00:57:00,
2013-01-18 18:58:00,27.5,22.7,28.58,WNW,292,3.8,4.0,82,0.00,,---,0.00,VWS V14.01,2013-01-19 00:58:00,
2013-01-18 18:59:00,27.5,22.1,28.58,WSW,248,5.6,6.0,80,0.00,,---,0.00,VWS V14.01,2013-01-19 00:59:00,
2013-01-18 19:00:00,27.3,22.0,28.58,WSW,248,5.8,5.8,80,0.00,,---,0.00,VWS V14.01,2013-01-19 01:00:00,
2013-01-18 19:01:00,27.3,22.0,28.58,West,270,4.3,5.8,80,0.00,,---,0.00,VWS V14.01,2013-01-19 01:01:00,
2013-01-18 19:02:00,27.3,22.0,28.58,WSW,248,3.4,4.7,80,0.00,,---,0.00,VWS V14.01,2013-01-19 01:02:00,
2013-01-18 19:03:00,27.5,23.3,28.58,WSW,248,3.6,4.3,84,0.00,,---,0.00,VWS V14.01,2013-01-19 01:03:00,
2013-01-18 19:04:00,27.3,22.3,28.58,WSW,248,3.8,4.0,81,0.00,,---,0.00,VWS V14.01,2013-01-19 01:04:00,
2013-01-18 19:05:00,27.3,22.3,28.58,WNW,292,3.4,4.3,81,0.00,,---,0.00,VWS V14.01,2013-01-19 01:05:00,
2013-01-18 19:06:00,27.5,22.7,28.58,West,270,2.9,4.0,82,0.00,,---,0.00,VWS V14.01,2013-01-19 01:06:00,
2013-01-18 19:07:00,27.5,22.7,28.58,WNW,292,2.7,4.0,82,0.00,,---,0.00,VWS V14.01,2013-01-19 01:07:00,
2013-01-18 19:08:00,27.5,23.3,28.58,West,270,4.0,4.0,84,0.00,,---,0.00,VWS V14.01,2013-01-19 01:08:00,
2013-01-18 19:09:00,27.5,23.0,28.58,WNW,292,4.0,4.3,83,0.00,,---,0.00,VWS V14.01,2013-01-19 01:09:00,
2013-01-18 19:10:00,27.5,23.0,28.58,WSW,248,3.8,4.0,83,0.00,,---,0.00,VWS V14.01,2013-01-19 01:10:00,
2013-01-18 19:11:00,27.5,23.3,28.58,WSW,248,4.3,4.3,84,0.00,,---,0.00,VWS V14.01,2013-01-19 01:11:00,
2013-01-18 19:12:00,27.5,23.3,28.58,WSW,248,3.6,4.3,84,0.00,,---,0.00,VWS V14.01,2013-01-19 01:12:00,
2013-01-18 19:13:00,27.5,23.3,28.58,West,270,3.1,3.1,84,0.00,,---,0.00,VWS V14.01,2013-01-19 01:13:00,
2013-01-18 19:14:00,27.5,23.3,28.58,WNW,292,2.7,3.4,84,0.00,,---,0.00,VWS V14.01,2013-01-19 01:14:00,
2013-01-18 19:15:00,27.5,23.3,28.58,West,270,2.9,3.8,84,0.00,,---,0.00,VWS V14.01,2013-01-19 01:15:00,
2013-01-18 19:16:00,27.5,23.3,28.58,WSW,248,3.6,4.3,84,0.00,,---,0.00,VWS V14.01,2013-01-19 01:16:00,
2013-01-18 19:17:00,27.5,23.3,28.58,West,270,4.0,4.0,84,0.00,,---,0.00,VWS V14.01,2013-01-19 01:17:00,
2013-01-18 19:18:00,27.5,23.3,28.58,WSW,248,3.6,3.8,84,0.00,,---,0.00,VWS V14.01,2013-01-19 01:18:00,
2013-01-18 19:19:00,27.5,23.3,28.58,West,270,3.4,3.8,84,0.00,,---,0.00,VWS V14.01,2013-01-19 01:19:00,
2013-01-18 19:20:00,27.5,23.3,28.58,West,270,3.8,4.0,84,0.00,,---,0.00,VWS V14.01,2013-01-19 01:20:00,
2013-01-18 19:21:00,27.5,23.3,28.58,West,270,3.1,3.8,84,0.00,,---,0.00,VWS V14.01,2013-01-19 01:21:00,
2013-01-18 19:22:00,27.5,23.3,28.58,West,270,3.1,3.1,84,0.00,,---,0.00,VWS V14.01,2013-01-19 01:22:00,
2013-01-18 19:23:00,27.3,23.4,28.58,WSW,248,2.9,3.4,85,0.00,,---,0.00,VWS V14.01,2013-01-19 01:23:00,
2013-01-18 19:24:00,27.5,23.3,28.58,WSW,248,3.8,3.8,84,0.00,,---,0.00,VWS V14.01,2013-01-19 01:24:00,
2013-01-18 19:25:00,27.5,23.3,28.58,WSW,248,3.4,3.8,84,0.00,,---,0.00,VWS V14.01,2013-01-19 01:25:00,
2013-01-18 19:26:00,27.5,23.3,28.58,WSW,248,3.4,3.4,84,0.00,,---,0.00,VWS V14.01,2013-01-19 01:26:00,
2013-01-18 19:27:00,27.5,23.3,28.58,WSW,248,3.1,3.8,84,0.00,,---,0.00,VWS V14.01,2013-01-19 01:27:00,
2013-01-18 19:28:00,26.6,22.4,28.58,WSW,248,2.7,2.7,84,0.00,,---,0.00,VWS V14.01,2013-01-19 01:28:00,
2013-01-18 19:29:00,27.5,23.6,28.58,WSW,248,3.6,3.6,85,0.00,,---,0.00,VWS V14.01,2013-01-19 01:29:00,
2013-01-18 19:30:00,27.5,23.6,28.58,WSW,248,3.4,3.6,85,0.00,,---,0.00,VWS V14.01,2013-01-19 01:30:00,
2013-01-18 19:31:00,27.3,23.4,28.58,WSW,248,3.4,3.6,85,0.00,,---,0.00,VWS V14.01,2013-01-19 01:31:00,
2013-01-18 19:32:00,27.3,23.4,28.58,WSW,248,3.1,3.4,85,0.00,,---,0.00,VWS V14.01,2013-01-19 01:32:00,
2013-01-18 19:33:00,26.4,22.0,28.58,WSW,248,2.9,2.9,83,0.00,,---,0.00,VWS V14.01,2013-01-19 01:33:00,
2013-01-18 19:34:00,27.0,22.8,28.58,WSW,248,3.1,3.1,84,0.00,,---,0.00,VWS V14.01,2013-01-19 01:34:00,
2013-01-18 19:35:00,27.0,22.8,28.58,WSW,248,2.7,3.1,84,0.00,,---,0.00,VWS V14.01,2013-01-19 01:35:00,
2013-01-18 19:36:00,26.8,22.6,28.58,WSW,248,2.7,2.7,84,0.00,,---,0.00,VWS V14.01,2013-01-19 01:36:00,
2013-01-18 19:37:00,26.6,22.4,28.58,WSW,248,2.5,2.7,84,0.00,,---,0.00,VWS V14.01,2013-01-19 01:37:00,
2013-01-18 19:38:00,26.2,22.1,28.58,WSW,248,2.9,3.1,84,0.00,,---,0.00,VWS V14.01,2013-01-19 01:38:00,
2013-01-18 19:39:00,26.4,22.0,28.58,WSW,248,2.7,2.9,83,0.00,,---,0.00,VWS V14.01,2013-01-19 01:39:00,
2013-01-18 19:40:00,26.4,22.0,28.58,WSW,248,2.5,2.7,83,0.00,,---,0.00,VWS V14.01,2013-01-19 01:40:00,
2013-01-18 19:41:00,26.4,22.0,28.58,WSW,248,2.9,2.9,83,0.00,,---,0.00,VWS V14.01,2013-01-19 01:41:00,
2013-01-18 19:42:00,26.4,22.0,28.58,WSW,248,2.9,2.9,83,0.00,,---,0.00,VWS V14.01,2013-01-19 01:42:00,
2013-01-18 19:43:00,26.1,21.9,28.58,WSW,248,2.7,2.7,84,0.00,,---,0.00,VWS V14.01,2013-01-19 01:43:00,
2013-01-18 19:44:00,26.4,22.2,28.58,WSW,248,3.1,3.4,84,0.00,,---,0.00,VWS V14.01,2013-01-19 01:44:00,
2013-01-18 19:45:00,26.4,22.2,28.58,WSW,248,3.1,3.1,84,0.00,,---,0.00,VWS V14.01,2013-01-19 01:45:00,
2013-01-18 19:46:00,26.2,22.1,28.58,WSW,248,2.9,3.1,84,0.00,,---,0.00,VWS V14.01,2013-01-19 01:46:00,
2013-01-18 19:47:00,26.2,22.1,28.58,WSW,248,2.9,3.1,84,0.00,,---,0.00,VWS V14.01,2013-01-19 01:47:00,
2013-01-18 19:48:00,25.5,21.1,28.58,WSW,248,2.7,2.9,83,0.00,,---,0.00,VWS V14.01,2013-01-19 01:48:00,
2013-01-18 19:49:00,26.2,22.1,28.58,WSW,248,2.9,2.9,84,0.00,,---,0.00,VWS V14.01,2013-01-19 01:49:00,
2013-01-18 19:50:00,26.2,22.1,28.58,WSW,248,2.5,2.9,84,0.00,,---,0.00,VWS V14.01,2013-01-19 01:50:00,
2013-01-18 19:51:00,26.1,21.9,28.58,WSW,248,2.7,2.7,84,0.00,,---,0.00,VWS V14.01,2013-01-19 01:51:00,
2013-01-18 19:52:00,26.1,21.9,28.58,WSW,248,2.7,2.7,84,0.00,,---,0.00,VWS V14.01,2013-01-19 01:52:00,
2013-01-18 19:53:00,25.2,20.7,28.58,WSW,248,2.2,2.5,83,0.00,,---,0.00,VWS V14.01,2013-01-19 01:53:00,
2013-01-18 19:54:00,25.9,21.4,28.58,WSW,248,3.4,3.4,83,0.00,,---,0.00,VWS V14.01,2013-01-19 01:54:00,
2013-01-18 19:55:00,25.7,21.3,28.58,WSW,248,2.9,3.4,83,0.00,,---,0.00,VWS V14.01,2013-01-19 01:55:00,
2013-01-18 19:56:00,25.7,21.3,28.58,WSW,248,2.7,2.9,83,0.00,,---,0.00,VWS V14.01,2013-01-19 01:56:00,
2013-01-18 19:57:00,25.5,21.1,28.58,WSW,248,2.7,2.9,83,0.00,,---,0.00,VWS V14.01,2013-01-19 01:57:00,
2013-01-18 19:58:00,25.2,21.0,28.58,WSW,248,2.5,2.5,84,0.00,,---,0.00,VWS V14.01,2013-01-19 01:58:00,
2013-01-18 19:59:00,25.3,20.9,28.58,WSW,248,2.5,2.5,83,0.00,,---,0.00,VWS V14.01,2013-01-19 01:59:00,
2013-01-18 20:00:00,25.3,20.9,28.58,WSW,248,2.5,2.5,83,0.00,,---,0.00,VWS V14.01,2013-01-19 02:00:00,
2013-01-18 20:01:00,25.2,20.7,28.58,WSW,248,2.5,2.5,83,0.00,,---,0.00,VWS V14.01,2013-01-19 02:01:00,
2013-01-18 20:02:00,25.2,20.7,28.58,WSW,248,2.2,2.5,83,0.00,,---,0.00,VWS V14.01,2013-01-19 02:02:00,
2013-01-18 20:03:00,25.2,21.3,28.58,WSW,248,2.7,2.7,85,0.00,,---,0.00,VWS V14.01,2013-01-19 02:03:00,
2013-01-18 20:04:00,25.2,20.7,28.58,WSW,248,2.5,2.5,83,0.00,,---,0.00,VWS V14.01,2013-01-19 02:04:00,
2013-01-18 20:05:00,25.2,20.7,28.58,WSW,248,2.5,2.7,83,0.00,,---,0.00,VWS V14.01,2013-01-19 02:05:00,
2013-01-18 20:06:00,25.2,21.0,28.58,WSW,248,2.7,2.7,84,0.00,,---,0.00,VWS V14.01,2013-01-19 02:06:00,
2013-01-18 20:07:00,25.2,21.0,28.58,WSW,248,2.5,2.7,84,0.00,,---,0.00,VWS V14.01,2013-01-19 02:07:00,
2013-01-18 20:08:00,25.2,21.0,28.58,WSW,248,2.5,2.5,84,0.00,,---,0.00,VWS V14.01,2013-01-19 02:08:00,
2013-01-18 20:09:00,25.2,21.6,28.58,WSW,248,2.5,2.5,86,0.00,,---,0.00,VWS V14.01,2013-01-19 02:09:00,
2013-01-18 20:10:00,25.2,21.3,28.58,WSW,248,2.2,2.9,85,0.00,,---,0.00,VWS V14.01,2013-01-19 02:10:00,
2013-01-18 20:11:00,25.2,21.3,28.58,WSW,248,2.7,2.7,85,0.00,,---,0.00,VWS V14.01,2013-01-19 02:11:00,
2013-01-18 20:12:00,25.2,21.3,28.58,WSW,248,2.5,2.7,85,0.00,,---,0.00,VWS V14.01,2013-01-19 02:12:00,
2013-01-18 20:13:00,25.2,21.3,28.58,WSW,248,2.9,2.9,85,0.00,,---,0.00,VWS V14.01,2013-01-19 02:13:00,
2013-01-18 20:14:00,25.3,21.8,28.58,WSW,248,2.0,2.2,86,0.00,,---,0.00,VWS V14.01,2013-01-19 02:14:00,
2013-01-18 20:15:00,25.2,21.3,28.58,WSW,248,2.7,2.9,85,0.00,,---,0.00,VWS V14.01,2013-01-19 02:15:00,
2013-01-18 20:16:00,25.2,21.3,28.58,WSW,248,2.5,2.7,85,0.00,,---,0.00,VWS V14.01,2013-01-19 02:16:00,
2013-01-18 20:17:00,25.2,21.6,28.58,WSW,248,2.5,2.5,86,0.00,,---,0.00,VWS V14.01,2013-01-19 02:17:00,
2013-01-18 20:18:00,25.2,21.6,28.58,WSW,248,2.2,2.5,86,0.00,,---,0.00,VWS V14.01,2013-01-19 02:18:00,
2013-01-18 20:19:00,25.3,22.0,28.55,SW,225,3.4,3.4,87,0.00,,---,0.00,VWS V14.01,2013-01-19 02:19:00,
2013-01-18 20:20:00,25.3,21.8,28.58,WSW,248,1.3,2.0,86,0.00,,---,0.00,VWS V14.01,2013-01-19 02:20:00,
2013-01-18 20:21:00,25.3,21.8,28.58,WSW,248,2.2,2.2,86,0.00,,---,0.00,VWS V14.01,2013-01-19 02:21:00,
2013-01-18 20:22:00,25.3,21.8,28.58,WSW,248,2.0,2.2,86,0.00,,---,0.00,VWS V14.01,2013-01-19 02:22:00,
2013-01-18 20:23:00,25.3,21.8,28.58,WSW,248,2.0,2.0,86,0.00,,---,0.00,VWS V14.01,2013-01-19 02:23:00,
2013-01-18 20:24:00,25.3,22.3,28.55,SW,225,3.6,3.6,88,0.00,,---,0.00,VWS V14.01,2013-01-19 02:24:00,
2013-01-18 20:25:00,25.3,21.8,28.58,SW,225,2.9,3.1,86,0.00,,---,0.00,VWS V14.01,2013-01-19 02:25:00,
2013-01-18 20:26:00,25.3,22.0,28.58,SW,225,2.9,2.9,87,0.00,,---,0.00,VWS V14.01,2013-01-19 02:26:00,
2013-01-18 20:28:00,25.3,22.6,28.55,SW,225,2.7,2.7,89,0.00,,---,0.00,VWS V14.01,2013-01-19 02:28:00,
2013-01-18 20:29:00,25.3,22.0,28.55,SW,225,3.4,3.6,87,0.00,,---,0.00,VWS V14.01,2013-01-19 02:29:00,
2013-01-18 20:30:00,25.3,22.3,28.55,SW,225,3.4,3.4,88,0.00,,---,0.00,VWS V14.01,2013-01-19 02:30:00,
2013-01-18 20:31:00,25.3,22.3,28.55,SW,225,3.6,3.6,88,0.00,,---,0.00,VWS V14.01,2013-01-19 02:31:00,
2013-01-18 20:32:00,25.3,22.3,28.55,SW,225,3.1,3.6,88,0.00,,---,0.00,VWS V14.01,2013-01-19 02:32:00,
2013-01-18 20:33:00,25.3,22.3,28.55,SW,225,3.1,3.1,88,0.00,,---,0.00,VWS V14.01,2013-01-19 02:33:00,
2013-01-18 20:34:00,25.5,23.0,28.55,SW,225,2.0,2.0,90,0.00,,---,0.00,VWS V14.01,2013-01-19 02:34:00,
2013-01-18 20:36:00,25.3,22.6,28.55,SW,225,2.7,3.4,89,0.00,,---,0.00,VWS V14.01,2013-01-19 02:36:00,
2013-01-18 20:37:00,25.3,22.6,28.55,SW,225,2.7,2.9,89,0.00,,---,0.00,VWS V14.01,2013-01-19 02:37:00,
2013-01-18 20:38:00,25.3,22.6,28.55,SW,225,2.7,2.7,89,0.00,,---,0.00,VWS V14.01,2013-01-19 02:38:00,
2013-01-18 20:39:00,26.1,23.5,28.55,SW,225,2.0,2.0,90,0.00,,---,0.00,VWS V14.01,2013-01-19 02:39:00,
2013-01-18 20:40:00,25.5,22.7,28.55,SW,225,2.0,2.5,89,0.00,,---,0.00,VWS V14.01,2013-01-19 02:40:00,
2013-01-18 20:41:00,25.5,23.0,28.55,SW,225,1.6,2.2,90,0.00,,---,0.00,VWS V14.01,2013-01-19 02:41:00,
2013-01-18 20:42:00,25.5,23.0,28.55,SW,225,2.0,2.0,90,0.00,,---,0.00,VWS V14.01,2013-01-19 02:42:00,
2013-01-18 20:43:00,25.5,23.0,28.55,SW,225,2.5,2.5,90,0.00,,---,0.00,VWS V14.01,2013-01-19 02:43:00,
2013-01-18 20:44:00,26.2,24.0,28.55,SW,225,3.8,4.0,91,0.00,,---,0.00,VWS V14.01,2013-01-19 02:44:00,
2013-01-18 20:45:00,25.9,23.4,28.55,SW,225,1.6,2.2,90,0.00,,---,0.00,VWS V14.01,2013-01-19 02:45:00,
2013-01-18 20:46:00,26.1,23.5,28.55,SW,225,2.0,2.7,90,0.00,,---,0.00,VWS V14.01,2013-01-19 02:46:00,
2013-01-18 20:47:00,26.1,23.5,28.55,SW,225,2.0,2.0,90,0.00,,---,0.00,VWS V14.01,2013-01-19 02:47:00,
2013-01-18 20:48:00,26.1,23.5,28.55,SW,225,3.6,3.6,90,0.00,,---,0.00,VWS V14.01,2013-01-19 02:48:00,
2013-01-18 20:49:00,26.1,23.8,28.55,West,270,2.2,2.9,91,0.00,,---,0.00,VWS V14.01,2013-01-19 02:49:00,
2013-01-18 20:50:00,26.2,24.0,28.55,SW,225,3.8,4.0,91,0.00,,---,0.00,VWS V14.01,2013-01-19 02:50:00,
2013-01-18 20:51:00,26.2,24.0,28.55,SW,225,3.8,3.8,91,0.00,,---,0.00,VWS V14.01,2013-01-19 02:51:00,
2013-01-18 20:52:00,26.2,24.0,28.55,SW,225,4.0,4.0,91,0.00,,---,0.00,VWS V14.01,2013-01-19 02:52:00,
2013-01-18 20:53:00,26.2,24.0,28.55,WSW,248,3.8,4.0,91,0.00,,---,0.00,VWS V14.01,2013-01-19 02:53:00,
2013-01-18 20:54:00,25.3,22.6,28.55,WNW,292,2.9,2.9,89,0.00,,---,0.00,VWS V14.01,2013-01-19 02:54:00,
2013-01-18 20:55:00,26.1,23.8,28.55,WSW,248,3.6,4.3,91,0.00,,---,0.00,VWS V14.01,2013-01-19 02:55:00,
2013-01-18 20:56:00,26.1,23.8,28.55,West,270,2.5,3.6,91,0.00,,---,0.00,VWS V14.01,2013-01-19 02:56:00,
2013-01-18 20:57:00,26.1,23.8,28.55,WSW,248,2.9,2.9,91,0.00,,---,0.00,VWS V14.01,2013-01-19 02:57:00,
2013-01-18 20:58:00,26.1,23.8,28.55,WSW,248,2.5,2.9,91,0.00,,---,0.00,VWS V14.01,2013-01-19 02:58:00,
2013-01-18 20:59:00,24.8,21.8,28.55,West,270,2.7,2.7,88,0.00,,---,0.00,VWS V14.01,2013-01-19 02:59:00,
2013-01-18 21:00:00,25.5,23.0,28.55,West,270,2.7,2.7,90,0.00,,---,0.00,VWS V14.01,2013-01-19 03:00:00,
2013-01-18 21:01:00,25.5,22.7,28.55,WSW,248,2.7,2.9,89,0.00,,---,0.00,VWS V14.01,2013-01-19 03:01:00,
2013-01-18 21:02:00,25.3,22.6,28.55,West,270,2.9,3.6,89,0.00,,---,0.00,VWS V14.01,2013-01-19 03:02:00,
2013-01-18 21:03:00,25.2,22.4,28.55,West,270,3.1,3.1,89,0.00,,---,0.00,VWS V14.01,2013-01-19 03:03:00,
2013-01-18 21:04:00,24.6,21.6,28.55,WSW,248,3.4,3.6,88,0.00,,---,0.00,VWS V14.01,2013-01-19 03:04:00,
2013-01-18 21:05:00,25.0,21.9,28.55,WNW,292,3.1,3.1,88,0.00,,---,0.00,VWS V14.01,2013-01-19 03:05:00,
2013-01-18 21:06:00,24.8,22.0,28.55,WNW,292,2.9,3.4,89,0.00,,---,0.00,VWS V14.01,2013-01-19 03:06:00,
2013-01-18 21:07:00,24.8,21.8,28.55,WNW,292,2.7,3.1,88,0.00,,---,0.00,VWS V14.01,2013-01-19 03:07:00,
2013-01-18 21:08:00,24.8,21.8,28.55,West,270,3.6,3.6,88,0.00,,---,0.00,VWS V14.01,2013-01-19 03:08:00,
2013-01-18 21:09:00,25.0,21.9,28.55,WSW,248,3.1,3.1,88,0.00,,---,0.00,VWS V14.01,2013-01-19 03:09:00,
2013-01-18 21:10:00,24.6,21.6,28.55,WSW,248,2.9,2.9,88,0.00,,---,0.00,VWS V14.01,2013-01-19 03:10:00,
2013-01-18 21:11:00,24.6,21.6,28.55,WSW,248,2.7,2.9,88,0.00,,---,0.00,VWS V14.01,2013-01-19 03:11:00,
2013-01-18 21:12:00,24.6,21.6,28.55,WSW,248,3.6,3.6,88,0.00,,---,0.00,VWS V14.01,2013-01-19 03:12:00,
2013-01-18 21:13:00,24.6,21.6,28.55,WSW,248,3.1,3.6,88,0.00,,---,0.00,VWS V14.01,2013-01-19 03:13:00,
2013-01-18 21:14:00,24.8,21.8,28.55,WSW,248,2.9,2.9,88,0.00,,---,0.00,VWS V14.01,2013-01-19 03:14:00,
2013-01-18 21:15:00,24.8,21.8,28.55,WSW,248,2.9,2.9,88,0.00,,---,0.00,VWS V14.01,2013-01-19 03:15:00,
2013-01-18 21:16:00,25.0,21.9,28.55,WSW,248,2.9,3.1,88,0.00,,---,0.00,VWS V14.01,2013-01-19 03:16:00,
2013-01-18 21:17:00,25.0,21.9,28.55,WSW,248,3.1,3.1,88,0.00,,---,0.00,VWS V14.01,2013-01-19 03:17:00,
2013-01-18 21:18:00,25.0,21.9,28.55,WSW,248,2.9,3.1,88,0.00,,---,0.00,VWS V14.01,2013-01-19 03:18:00,
2013-01-18 21:19:00,24.6,21.6,28.55,WSW,248,2.7,2.7,88,0.00,,---,0.00,VWS V14.01,2013-01-19 03:19:00,
2013-01-18 21:20:00,25.0,21.9,28.55,WSW,248,2.5,3.1,88,0.00,,---,0.00,VWS V14.01,2013-01-19 03:20:00,
2013-01-18 21:21:00,25.0,21.9,28.55,WSW,248,2.5,2.7,88,0.00,,---,0.00,VWS V14.01,2013-01-19 03:21:00,
2013-01-18 21:22:00,24.8,21.8,28.55,WSW,248,2.5,2.5,88,0.00,,---,0.00,VWS V14.01,2013-01-19 03:22:00,
2013-01-18 21:23:00,24.8,21.8,28.55,WSW,248,3.4,3.6,88,0.00,,---,0.00,VWS V14.01,2013-01-19 03:23:00,
2013-01-18 21:24:00,24.4,21.4,28.55,WSW,248,2.9,2.9,88,0.00,,---,0.00,VWS V14.01,2013-01-19 03:24:00,
2013-01-18 21:25:00,24.8,21.8,28.55,WSW,248,3.4,3.4,88,0.00,,---,0.00,VWS V14.01,2013-01-19 03:25:00,
2013-01-18 21:26:00,24.8,21.8,28.55,WSW,248,2.7,3.4,88,0.00,,---,0.00,VWS V14.01,2013-01-19 03:26:00,
2013-01-18 21:27:00,24.6,21.6,28.55,WSW,248,2.7,2.9,88,0.00,,---,0.00,VWS V14.01,2013-01-19 03:27:00,
2013-01-18 21:28:00,24.6,21.6,28.55,WSW,248,2.9,2.9,88,0.00,,---,0.00,VWS V14.01,2013-01-19 03:28:00,
2013-01-18 21:29:00,24.4,21.4,28.55,West,270,2.5,2.5,88,0.00,,---,0.00,VWS V14.01,2013-01-19 03:29:00,
2013-01-18 21:30:00,24.4,21.4,28.55,WSW,248,2.9,2.9,88,0.00,,---,0.00,VWS V14.01,2013-01-19 03:30:00,
2013-01-18 21:31:00,24.4,21.4,28.55,West,270,2.7,3.1,88,0.00,,---,0.00,VWS V14.01,2013-01-19 03:31:00,
2013-01-18 21:32:00,24.4,21.4,28.55,WSW,248,2.5,2.9,88,0.00,,---,0.00,VWS V14.01,2013-01-19 03:32:00,
2013-01-18 21:33:00,24.4,21.4,28.55,WSW,248,2.7,2.9,88,0.00,,---,0.00,VWS V14.01,2013-01-19 03:33:00,
2013-01-18 21:34:00,24.4,21.4,28.58,WNW,292,2.9,3.4,88,0.00,,---,0.00,VWS V14.01,2013-01-19 03:34:00,
2013-01-18 21:35:00,24.4,21.4,28.55,WSW,248,2.7,3.1,88,0.00,,---,0.00,VWS V14.01,2013-01-19 03:35:00,
2013-01-18 21:36:00,24.4,21.4,28.55,WSW,248,2.7,2.9,88,0.00,,---,0.00,VWS V14.01,2013-01-19 03:36:00,
2013-01-18 21:37:00,24.6,21.6,28.55,WSW,248,2.5,2.7,88,0.00,,---,0.00,VWS V14.01,2013-01-19 03:37:00,
2013-01-18 21:38:00,24.4,21.4,28.55,West,270,2.9,2.9,88,0.00,,---,0.00,VWS V14.01,2013-01-19 03:38:00,
2013-01-18 21:39:00,24.4,21.4,28.58,WNW,292,2.2,2.2,88,0.00,,---,0.00,VWS V14.01,2013-01-19 03:39:00,
2013-01-18 21:40:00,24.4,21.4,28.55,West,270,2.5,2.9,88,0.00,,---,0.00,VWS V14.01,2013-01-19 03:40:00,
2013-01-18 21:41:00,24.4,21.4,28.55,WNW,292,2.7,2.7,88,0.00,,---,0.00,VWS V14.01,2013-01-19 03:41:00,
2013-01-18 21:42:00,24.4,21.4,28.58,WNW,292,3.4,3.4,88,0.00,,---,0.00,VWS V14.01,2013-01-19 03:42:00,
2013-01-18 21:43:00,24.4,21.4,28.58,WNW,292,2.5,3.4,88,0.00,,---,0.00,VWS V14.01,2013-01-19 03:43:00,
2013-01-18 21:44:00,24.1,21.0,28.58,NW,315,0.0,0.0,88,0.00,,---,0.00,VWS V14.01,2013-01-19 03:44:00,
2013-01-18 21:45:00,24.3,21.2,28.58,WNW,292,2.5,2.5,88,0.00,,---,0.00,VWS V14.01,2013-01-19 03:45:00,
2013-01-18 21:46:00,24.4,21.4,28.58,WNW,292,2.5,2.5,88,0.00,,---,0.00,VWS V14.01,2013-01-19 03:46:00,
2013-01-18 21:47:00,24.4,21.4,28.58,WNW,292,2.2,2.5,88,0.00,,---,0.00,VWS V14.01,2013-01-19 03:47:00,
2013-01-18 21:48:00,24.4,21.4,28.58,WNW,292,2.0,2.2,88,0.00,,---,0.00,VWS V14.01,2013-01-19 03:48:00,
2013-01-18 21:49:00,24.1,21.0,28.55,North,0,0.0,0.0,88,0.00,,---,0.00,VWS V14.01,2013-01-19 03:49:00,
2013-01-18 21:50:00,24.3,21.2,28.58,NW,315,0.0,1.3,88,0.00,,---,0.00,VWS V14.01,2013-01-19 03:50:00,
2013-01-18 21:51:00,24.3,21.2,28.58,NW,315,0.0,0.0,88,0.00,,---,0.00,VWS V14.01,2013-01-19 03:51:00,
2013-01-18 21:52:00,24.1,21.0,28.58,NW,315,0.0,0.0,88,0.00,,---,0.00,VWS V14.01,2013-01-19 03:52:00,
2013-01-18 21:53:00,24.1,21.0,28.58,NW,315,0.0,0.0,88,0.00,,---,0.00,VWS V14.01,2013-01-19 03:53:00,
2013-01-18 21:54:00,23.7,20.7,28.55,WNW,292,0.0,0.0,88,0.00,,---,0.00,VWS V14.01,2013-01-19 03:54:00,
2013-01-18 21:55:00,24.1,21.0,28.58,North,0,0.0,0.0,88,0.00,,---,0.00,VWS V14.01,2013-01-19 03:55:00,
2013-01-18 21:56:00,24.1,21.0,28.58,North,0,0.0,0.0,88,0.00,,---,0.00,VWS V14.01,2013-01-19 03:56:00,
2013-01-18 21:57:00,24.1,21.0,28.55,North,0,0.0,0.0,88,0.00,,---,0.00,VWS V14.01,2013-01-19 03:57:00,
2013-01-18 21:58:00,24.1,21.0,28.55,North,0,0.0,0.0,88,0.00,,---,0.00,VWS V14.01,2013-01-19 03:58:00,
2013-01-18 21:59:00,24.1,21.0,28.55,WSW,248,0.0,0.0,88,0.00,,---,0.00,VWS V14.01,2013-01-19 03:59:00,
2013-01-18 22:00:00,24.1,21.0,28.55,North,0,0.0,0.0,88,0.00,,---,0.00,VWS V14.01,2013-01-19 04:00:00,
2013-01-18 22:01:00,23.7,20.7,28.55,North,0,0.0,0.0,88,0.00,,---,0.00,VWS V14.01,2013-01-19 04:01:00,
2013-01-18 22:02:00,23.7,20.7,28.55,NNW,338,0.0,0.0,88,0.00,,---,0.00,VWS V14.01,2013-01-19 04:02:00,
2013-01-18 22:03:00,23.7,20.7,28.55,WNW,292,0.0,0.0,88,0.00,,---,0.00,VWS V14.01,2013-01-19 04:03:00,
2013-01-18 22:04:00,24.4,21.4,28.58,WSW,248,0.0,0.0,88,0.00,,---,0.00,VWS V14.01,2013-01-19 04:04:00,
2013-01-18 22:05:00,23.9,20.9,28.55,WNW,292,0.0,0.0,88,0.00,,---,0.00,VWS V14.01,2013-01-19 04:05:00,
2013-01-18 22:06:00,24.1,21.0,28.55,WSW,248,0.0,0.0,88,0.00,,---,0.00,VWS V14.01,2013-01-19 04:06:00,
2013-01-18 22:07:00,24.1,21.0,28.55,WSW,248,0.0,0.0,88,0.00,,---,0.00,VWS V14.01,2013-01-19 04:07:00,
2013-01-18 22:08:00,24.3,21.2,28.55,WSW,248,0.0,0.0,88,0.00,,---,0.00,VWS V14.01,2013-01-19 04:08:00,
2013-01-18 22:09:00,24.4,21.4,28.58,West,270,2.5,2.5,88,0.00,,---,0.00,VWS V14.01,2013-01-19 04:09:00,
2013-01-18 22:10:00,24.3,21.2,28.55,WSW,248,0.0,0.0,88,0.00,,---,0.00,VWS V14.01,2013-01-19 04:10:00,
2013-01-18 22:11:00,24.4,21.4,28.55,WSW,248,0.0,0.0,88,0.00,,---,0.00,VWS V14.01,2013-01-19 04:11:00,
2013-01-18 22:12:00,24.4,21.4,28.58,WSW,248,0.0,2.0,88,0.00,,---,0.00,VWS V14.01,2013-01-19 04:12:00,
2013-01-18 22:13:00,24.4,21.4,28.58,WSW,248,0.0,0.0,88,0.00,,---,0.00,VWS V14.01,2013-01-19 04:13:00,
2013-01-18 22:14:00,24.8,22.0,28.58,WSW,248,2.0,2.7,89,0.00,,---,0.00,VWS V14.01,2013-01-19 04:14:00,
2013-01-18 22:15:00,24.4,21.4,28.58,WSW,248,0.0,0.0,88,0.00,,---,0.00,VWS V14.01,2013-01-19 04:15:00,
2013-01-18 22:16:00,24.4,21.4,28.58,WSW,248,0.0,0.0,88,0.00,,---,0.00,VWS V14.01,2013-01-19 04:16:00,
2013-01-18 22:17:00,24.4,21.4,28.58,WSW,248,0.0,0.0,88,0.00,,---,0.00,VWS V14.01,2013-01-19 04:17:00,
2013-01-18 22:18:00,24.4,21.4,28.58,West,270,2.5,2.5,88,0.00,,---,0.00,VWS V14.01,2013-01-19 04:18:00,
2013-01-18 22:19:00,25.0,22.2,28.55,WSW,248,1.3,1.3,89,0.00,,---,0.00,VWS V14.01,2013-01-19 04:19:00,
2013-01-18 22:20:00,24.6,21.6,28.58,West,270,2.2,2.5,88,0.00,,---,0.00,VWS V14.01,2013-01-19 04:20:00,
2013-01-18 22:21:00,24.6,21.9,28.58,West,270,2.0,2.5,89,0.00,,---,0.00,VWS V14.01,2013-01-19 04:21:00,
2013-01-18 22:22:00,24.6,21.9,28.58,WSW,248,2.7,2.7,89,0.00,,---,0.00,VWS V14.01,2013-01-19 04:22:00,
2013-01-18 22:23:00,24.8,22.0,28.58,WSW,248,2.2,2.7,89,0.00,,---,0.00,VWS V14.01,2013-01-19 04:23:00,
2013-01-18 22:24:00,25.0,22.2,28.55,WSW,248,0.0,0.0,89,0.00,,---,0.00,VWS V14.01,2013-01-19 04:24:00,
2013-01-18 22:25:00,25.0,22.2,28.58,WSW,248,2.5,2.5,89,0.00,,---,0.00,VWS V14.01,2013-01-19 04:25:00,
2013-01-18 22:26:00,25.0,22.2,28.58,WSW,248,2.0,2.5,89,0.00,,---,0.00,VWS V14.01,2013-01-19 04:26:00,
2013-01-18 22:27:00,25.0,22.2,28.55,WSW,248,1.3,2.0,89,0.00,,---,0.00,VWS V14.01,2013-01-19 04:27:00,
2013-01-18 22:28:00,25.0,22.2,28.55,WSW,248,1.3,1.3,89,0.00,,---,0.00,VWS V14.01,2013-01-19 04:28:00,
2013-01-18 22:29:00,24.8,22.0,28.55,NNW,338,0.0,0.0,89,0.00,,---,0.00,VWS V14.01,2013-01-19 04:29:00,
2013-01-18 22:30:00,25.0,22.2,28.55,WSW,248,0.0,0.0,89,0.00,,---,0.00,VWS V14.01,2013-01-19 04:30:00,
2013-01-18 22:32:00,25.0,22.2,28.55,WSW,248,0.0,0.0,89,0.00,,---,0.00,VWS V14.01,2013-01-19 04:32:00,
2013-01-18 22:33:00,25.0,22.2,28.55,WSW,248,0.0,0.0,89,0.00,,---,0.00,VWS V14.01,2013-01-19 04:33:00,
2013-01-18 22:34:00,24.4,21.4,28.55,WSW,248,0.0,0.0,88,0.00,,---,0.00,VWS V14.01,2013-01-19 04:34:00,
2013-01-18 22:35:00,25.3,22.6,28.55,WSW,248,0.0,0.0,89,0.00,,---,0.00,VWS V14.01,2013-01-19 04:35:00,
2013-01-18 22:36:00,25.2,22.4,28.55,WNW,292,0.0,0.0,89,0.00,,---,0.00,VWS V14.01,2013-01-19 04:36:00,
2013-01-18 22:37:00,25.0,22.2,28.55,NNW,338,0.0,0.0,89,0.00,,---,0.00,VWS V14.01,2013-01-19 04:37:00,
2013-01-18 22:38:00,24.6,21.9,28.55,NNW,338,0.0,0.0,89,0.00,,---,0.00,VWS V14.01,2013-01-19 04:38:00,
2013-01-18 22:39:00,24.6,21.9,28.55,WSW,248,0.0,0.0,89,0.00,,---,0.00,VWS V14.01,2013-01-19 04:39:00,
2013-01-18 22:40:00,24.4,21.4,28.55,WSW,248,0.0,0.0,88,0.00,,---,0.00,VWS V14.01,2013-01-19 04:40:00,
2013-01-18 22:41:00,24.4,21.4,28.55,WSW,248,0.0,0.0,88,0.00,,---,0.00,VWS V14.01,2013-01-19 04:41:00,
2013-01-18 22:42:00,24.4,21.4,28.55,WSW,248,0.0,0.0,88,0.00,,---,0.00,VWS V14.01,2013-01-19 04:42:00,
2013-01-18 22:43:00,24.4,21.4,28.55,WSW,248,0.0,0.0,88,0.00,,---,0.00,VWS V14.01,2013-01-19 04:43:00,
2013-01-18 22:44:00,24.1,21.0,28.55,WSW,248,0.0,0.0,88,0.00,,---,0.00,VWS V14.01,2013-01-19 04:44:00,
2013-01-18 22:45:00,24.6,21.6,28.55,WSW,248,0.0,0.0,88,0.00,,---,0.00,VWS V14.01,2013-01-19 04:45:00,
2013-01-18 22:46:00,24.6,21.9,28.55,WSW,248,0.0,0.0,89,0.00,,---,0.00,VWS V14.01,2013-01-19 04:46:00,
2013-01-18 22:47:00,24.6,21.9,28.55,WSW,248,0.0,0.0,89,0.00,,---,0.00,VWS V14.01,2013-01-19 04:47:00,
2013-01-18 22:48:00,24.6,21.9,28.55,WSW,248,0.0,0.0,89,0.00,,---,0.00,VWS V14.01,2013-01-19 04:48:00,
2013-01-18 22:49:00,23.9,20.6,28.55,WSW,248,0.0,0.0,87,0.00,,---,0.00,VWS V14.01,2013-01-19 04:49:00,
2013-01-18 22:51:00,24.4,21.7,28.55,WSW,248,0.0,0.0,89,0.00,,---,0.00,VWS V14.01,2013-01-19 04:51:00,
2013-01-18 22:52:00,24.3,21.2,28.55,WSW,248,0.0,0.0,88,0.00,,---,0.00,VWS V14.01,2013-01-19 04:52:00,
2013-01-18 22:53:00,24.1,21.0,28.55,WSW,248,0.0,0.0,88,0.00,,---,0.00,VWS V14.01,2013-01-19 04:53:00,
2013-01-18 22:54:00,23.7,20.4,28.55,WSW,248,0.0,0.0,87,0.00,,---,0.00,VWS V14.01,2013-01-19 04:54:00,
2013-01-18 22:55:00,23.9,20.9,28.55,WSW,248,0.0,0.0,88,0.00,,---,0.00,VWS V14.01,2013-01-19 04:55:00,
2013-01-18 22:56:00,23.9,20.9,28.55,WSW,248,0.0,0.0,88,0.00,,---,0.00,VWS V14.01,2013-01-19 04:56:00,
2013-01-18 22:57:00,23.9,20.9,28.55,WSW,248,0.0,0.0,88,0.00,,---,0.00,VWS V14.01,2013-01-19 04:57:00,
2013-01-18 22:58:00,23.9,20.6,28.55,WSW,248,0.0,0.0,87,0.00,,---,0.00,VWS V14.01,2013-01-19 04:58:00,
2013-01-18 22:59:00,23.9,20.9,28.55,WSW,248,0.0,0.0,88,0.00,,---,0.00,VWS V14.01,2013-01-19 04:59:00,
2013-01-18 23:00:00,23.9,20.9,28.55,WSW,248,0.0,0.0,88,0.00,,---,0.00,VWS V14.01,2013-01-19 05:00:00,
2013-01-18 23:01:00,23.9,20.6,28.55,WSW,248,0.0,0.0,87,0.00,,---,0.00,VWS V14.01,2013-01-19 05:01:00,
2013-01-18 23:02:00,23.9,20.9,28.55,WSW,248,0.0,0.0,88,0.00,,---,0.00,VWS V14.01,2013-01-19 05:02:00,
2013-01-18 23:03:00,23.9,20.9,28.55,WSW,248,0.0,0.0,88,0.00,,---,0.00,VWS V14.01,2013-01-19 05:03:00,
2013-01-18 23:04:00,23.7,20.7,28.55,WSW,248,0.0,0.0,88,0.00,,---,0.00,VWS V14.01,2013-01-19 05:04:00,
2013-01-18 23:05:00,23.7,20.7,28.55,WSW,248,0.0,0.0,88,0.00,,---,0.00,VWS V14.01,2013-01-19 05:05:00,
2013-01-18 23:06:00,23.7,20.7,28.55,WSW,248,0.0,0.0,88,0.00,,---,0.00,VWS V14.01,2013-01-19 05:06:00,
2013-01-18 23:07:00,23.7,20.7,28.55,WSW,248,0.0,0.0,88,0.00,,---,0.00,VWS V14.01,2013-01-19 05:07:00,
2013-01-18 23:08:00,23.4,20.3,28.55,SSW,202,2.5,2.5,88,0.00,,---,0.00,VWS V14.01,2013-01-19 05:08:00,
2013-01-18 23:09:00,23.9,20.9,28.55,WSW,248,0.0,0.0,88,0.00,,---,0.00,VWS V14.01,2013-01-19 05:09:00,
2013-01-18 23:10:00,23.9,20.9,28.55,WSW,248,0.0,0.0,88,0.00,,---,0.00,VWS V14.01,2013-01-19 05:10:00,
2013-01-18 23:11:00,23.9,20.9,28.55,WSW,248,0.0,0.0,88,0.00,,---,0.00,VWS V14.01,2013-01-19 05:11:00,
2013-01-18 23:12:00,23.7,20.7,28.55,WSW,248,0.0,0.0,88,0.00,,---,0.00,VWS V14.01,2013-01-19 05:12:00,
2013-01-18 23:13:00,22.8,19.8,28.55,SSW,202,2.0,2.0,88,0.00,,---,0.00,VWS V14.01,2013-01-19 05:13:00,
2013-01-18 23:14:00,23.7,20.7,28.55,WSW,248,0.0,0.0,88,0.00,,---,0.00,VWS V14.01,2013-01-19 05:14:00,
2013-01-18 23:15:00,23.5,20.5,28.55,SSW,202,0.0,0.0,88,0.00,,---,0.00,VWS V14.01,2013-01-19 05:15:00,
2013-01-18 23:16:00,23.4,20.3,28.55,SSW,202,2.5,2.5,88,0.00,,---,0.00,VWS V14.01,2013-01-19 05:16:00,
2013-01-18 23:17:00,23.4,20.3,28.55,SSW,202,1.6,2.5,88,0.00,,---,0.00,VWS V14.01,2013-01-19 05:17:00,
2013-01-18 23:18:00,23.0,20.0,28.55,SSW,202,0.0,0.0,88,0.00,,---,0.00,VWS V14.01,2013-01-19 05:18:00,
2013-01-18 23:19:00,23.0,20.0,28.55,SSW,202,1.1,1.3,88,0.00,,---,0.00,VWS V14.01,2013-01-19 05:19:00,
2013-01-18 23:20:00,23.0,20.0,28.55,SSW,202,1.3,1.6,88,0.00,,---,0.00,VWS V14.01,2013-01-19 05:20:00,
2013-01-18 23:21:00,23.0,20.0,28.55,SSW,202,0.0,1.3,88,0.00,,---,0.00,VWS V14.01,2013-01-19 05:21:00,
2013-01-18 23:22:00,22.8,19.8,28.55,SSW,202,2.5,2.5,88,0.00,,---,0.00,VWS V14.01,2013-01-19 05:22:00,
2013-01-18 23:23:00,23.2,20.2,28.55,SSW,202,0.0,0.0,88,0.00,,---,0.00,VWS V14.01,2013-01-19 05:23:00,
2013-01-18 23:24:00,22.8,19.8,28.55,SSW,202,0.0,2.5,88,0.00,,---,0.00,VWS V14.01,2013-01-19 05:24:00,
2013-01-18 23:25:00,23.0,20.0,28.55,SSW,202,0.0,0.0,88,0.00,,---,0.00,VWS V14.01,2013-01-19 05:25:00,
2013-01-18 23:26:00,23.0,20.0,28.55,SSW,202,0.0,0.0,88,0.00,,---,0.00,VWS V14.01,2013-01-19 05:26:00,
2013-01-18 23:27:00,23.0,20.2,28.55,SSW,202,0.0,0.0,89,0.00,,---,0.00,VWS V14.01,2013-01-19 05:27:00,
2013-01-18 23:28:00,23.5,20.8,28.55,SW,225,0.0,0.0,89,0.00,,---,0.00,VWS V14.01,2013-01-19 05:28:00,
2013-01-18 23:29:00,23.2,20.2,28.55,SSW,202,0.0,0.0,88,0.00,,---,0.00,VWS V14.01,2013-01-19 05:29:00,
2013-01-18 23:30:00,23.2,20.2,28.55,SSW,202,0.0,0.0,88,0.00,,---,0.00,VWS V14.01,2013-01-19 05:30:00,
2013-01-18 23:31:00,23.2,20.2,28.55,SSW,202,0.0,0.0,88,0.00,,---,0.00,VWS V14.01,2013-01-19 05:31:00,
2013-01-18 23:32:00,23.5,20.8,28.55,SSW,202,0.0,0.0,89,0.00,,---,0.00,VWS V14.01,2013-01-19 05:32:00,
2013-01-18 23:33:00,23.4,20.6,28.55,SW,225,0.0,0.0,89,0.00,,---,0.00,VWS V14.01,2013-01-19 05:33:00,
2013-01-18 23:34:00,23.5,20.8,28.55,SSW,202,0.0,0.0,89,0.00,,---,0.00,VWS V14.01,2013-01-19 05:34:00,
2013-01-18 23:35:00,23.5,20.8,28.55,SSW,202,0.0,0.0,89,0.00,,---,0.00,VWS V14.01,2013-01-19 05:35:00,
2013-01-18 23:36:00,23.5,20.8,28.55,SW,225,0.0,0.0,89,0.00,,---,0.00,VWS V14.01,2013-01-19 05:36:00,
2013-01-18 23:37:00,23.5,20.8,28.55,SW,225,0.0,0.0,89,0.00,,---,0.00,VWS V14.01,2013-01-19 05:37:00,
2013-01-18 23:38:00,23.2,20.4,28.52,SW,225,0.0,0.0,89,0.00,,---,0.00,VWS V14.01,2013-01-19 05:38:00,
2013-01-18 23:39:00,23.5,20.8,28.55,SW,225,0.0,0.0,89,0.00,,---,0.00,VWS V14.01,2013-01-19 05:39:00,
2013-01-18 23:40:00,23.5,20.8,28.55,SW,225,0.0,0.0,89,0.00,,---,0.00,VWS V14.01,2013-01-19 05:40:00,
2013-01-18 23:41:00,23.4,20.6,28.55,SW,225,0.0,0.0,89,0.00,,---,0.00,VWS V14.01,2013-01-19 05:41:00,
2013-01-18 23:42:00,23.4,20.6,28.55,SW,225,0.0,0.0,89,0.00,,---,0.00,VWS V14.01,2013-01-19 05:42:00,
2013-01-18 23:43:00,23.0,20.2,28.52,SW,225,0.0,0.0,89,0.00,,---,0.00,VWS V14.01,2013-01-19 05:43:00,
2013-01-18 23:44:00,23.2,20.4,28.52,SW,225,0.0,0.0,89,0.00,,---,0.00,VWS V14.01,2013-01-19 05:44:00,
2013-01-18 23:45:00,23.2,20.4,28.52,SW,225,0.0,0.0,89,0.00,,---,0.00,VWS V14.01,2013-01-19 05:45:00,
2013-01-18 23:46:00,23.2,20.4,28.52,SW,225,0.0,0.0,89,0.00,,---,0.00,VWS V14.01,2013-01-19 05:46:00,
2013-01-18 23:47:00,23.2,20.4,28.52,SW,225,0.0,0.0,89,0.00,,---,0.00,VWS V14.01,2013-01-19 05:47:00,
2013-01-18 23:48:00,23.0,20.2,28.52,SW,225,0.0,0.0,89,0.00,,---,0.00,VWS V14.01,2013-01-19 05:48:00,
2013-01-18 23:49:00,23.0,20.2,28.52,SW,225,0.0,0.0,89,0.00,,---,0.00,VWS V14.01,2013-01-19 05:49:00,
2013-01-18 23:50:00,23.0,20.2,28.52,SW,225,0.0,0.0,89,0.00,,---,0.00,VWS V14.01,2013-01-19 05:50:00,
2013-01-18 23:51:00,23.0,20.2,28.52,SW,225,0.0,0.0,89,0.00,,---,0.00,VWS V14.01,2013-01-19 05:51:00,
2013-01-18 23:52:00,23.0,20.2,28.52,SW,225,0.0,0.0,89,0.00,,---,0.00,VWS V14.01,2013-01-19 05:52:00,
2013-01-18 23:53:00,23.4,20.6,28.55,SSW,202,0.0,0.0,89,0.00,,---,0.00,VWS V14.01,2013-01-19 05:53:00,
2013-01-18 23:54:00,23.0,20.2,28.52,SW,225,0.0,0.0,89,0.00,,---,0.00,VWS V14.01,2013-01-19 05:54:00,
2013-01-18 23:55:00,23.0,20.2,28.52,SW,225,0.0,0.0,89,0.00,,---,0.00,VWS V14.01,2013-01-19 05:55:00,
2013-01-18 23:56:00,23.0,20.2,28.52,SW,225,0.0,0.0,89,0.00,,---,0.00,VWS V14.01,2013-01-19 05:56:00,
2013-01-18 23:57:00,23.0,20.2,28.52,SW,225,0.0,0.0,89,0.00,,---,0.00,VWS V14.01,2013-01-19 05:57:00,
2013-01-18 23:58:00,23.5,21.0,28.55,ESE,112,0.0,0.0,90,0.00,,---,0.00,VWS V14.01,2013-01-19 05:58:00,
2013-01-18 23:59:00,23.0,20.2,28.55,SW,225,0.0,0.0,89,0.00,,---,0.00,VWS V14.01,2013-01-19 05:59:00,